<?xml version="1.0" encoding="UTF-8" standalone="no" ?>
<gpx xmlns="http://www.topografix.com/GPX/1/1" xmlns:xsi="http://www.w3.org/2001/XMLSchema-instance" xsi:schemaLocation="http://www.topografix.com/GPX/1/1 http://www.topografix.com/GPX/1/1/gpx.xsd" version="1.1" creator="VisuGPX - https://www.visugpx.com">
  <metadata>
    <name>Marche Adesp Meix 2022 19 km</name>
    <desc><![CDATA[Adeps Meix-Dv-Virton 19 km 2022]]></desc>
  </metadata>
  <trk>
    <name><![CDATA[08-Marche Adesp Meix]]></name>
    <trkseg>
      <trkpt lat="49.60363" lon="5.48202">
        <ele>228</ele>
        <time>2022-02-27T09:08:23.000Z</time>
      </trkpt>
      <trkpt lat="49.60362" lon="5.48198">
        <ele>228</ele>
        <time>2022-02-27T09:08:36.000Z</time>
      </trkpt>
      <trkpt lat="49.60363" lon="5.48189">
        <ele>228</ele>
        <time>2022-02-27T09:08:39.000Z</time>
      </trkpt>
      <trkpt lat="49.60369" lon="5.48164">
        <ele>228</ele>
        <time>2022-02-27T09:08:44.000Z</time>
      </trkpt>
      <trkpt lat="49.60374" lon="5.48133">
        <ele>228.39999389648</ele>
        <time>2022-02-27T09:08:49.000Z</time>
      </trkpt>
      <trkpt lat="49.60375" lon="5.48126">
        <ele>228.60000610352</ele>
        <time>2022-02-27T09:08:50.000Z</time>
      </trkpt>
      <trkpt lat="49.60383" lon="5.48101">
        <ele>229.39999389648</ele>
        <time>2022-02-27T09:08:54.000Z</time>
      </trkpt>
      <trkpt lat="49.6039" lon="5.48085">
        <ele>230.19999694824</ele>
        <time>2022-02-27T09:08:57.000Z</time>
      </trkpt>
      <trkpt lat="49.60402" lon="5.48065">
        <ele>230.60000610352</ele>
        <time>2022-02-27T09:09:01.000Z</time>
      </trkpt>
      <trkpt lat="49.60417" lon="5.48041">
        <ele>231.80000305176</ele>
        <time>2022-02-27T09:09:06.000Z</time>
      </trkpt>
      <trkpt lat="49.60431" lon="5.48018">
        <ele>233.39999389648</ele>
        <time>2022-02-27T09:09:11.000Z</time>
      </trkpt>
      <trkpt lat="49.60437" lon="5.48009">
        <ele>232.80000305176</ele>
        <time>2022-02-27T09:09:13.000Z</time>
      </trkpt>
      <trkpt lat="49.60442" lon="5.48">
        <ele>232.19999694824</ele>
        <time>2022-02-27T09:09:15.000Z</time>
      </trkpt>
      <trkpt lat="49.60457" lon="5.47973">
        <ele>231.60000610352</ele>
        <time>2022-02-27T09:09:20.000Z</time>
      </trkpt>
      <trkpt lat="49.60463" lon="5.47963">
        <ele>232.39999389648</ele>
        <time>2022-02-27T09:09:22.000Z</time>
      </trkpt>
      <trkpt lat="49.60466" lon="5.47959">
        <ele>232.80000305176</ele>
        <time>2022-02-27T09:09:23.000Z</time>
      </trkpt>
      <trkpt lat="49.60472" lon="5.4796">
        <ele>233.39999389648</ele>
        <time>2022-02-27T09:09:25.000Z</time>
      </trkpt>
      <trkpt lat="49.60485" lon="5.47971">
        <ele>234.80000305176</ele>
        <time>2022-02-27T09:09:29.000Z</time>
      </trkpt>
      <trkpt lat="49.6049" lon="5.47972">
        <ele>235.19999694824</ele>
        <time>2022-02-27T09:09:30.000Z</time>
      </trkpt>
      <trkpt lat="49.60497" lon="5.47977">
        <ele>236.19999694824</ele>
        <time>2022-02-27T09:09:32.000Z</time>
      </trkpt>
      <trkpt lat="49.60508" lon="5.47979">
        <ele>237.39999389648</ele>
        <time>2022-02-27T09:09:35.000Z</time>
      </trkpt>
      <trkpt lat="49.60511" lon="5.47979">
        <ele>237.80000305176</ele>
        <time>2022-02-27T09:09:36.000Z</time>
      </trkpt>
      <trkpt lat="49.60514" lon="5.47979">
        <ele>238</ele>
        <time>2022-02-27T09:09:37.000Z</time>
      </trkpt>
      <trkpt lat="49.60527" lon="5.47978">
        <ele>239.39999389648</ele>
        <time>2022-02-27T09:09:40.000Z</time>
      </trkpt>
      <trkpt lat="49.60539" lon="5.47975">
        <ele>240.60000610352</ele>
        <time>2022-02-27T09:09:43.000Z</time>
      </trkpt>
      <trkpt lat="49.60553" lon="5.47969">
        <ele>241.60000610352</ele>
        <time>2022-02-27T09:09:46.000Z</time>
      </trkpt>
      <trkpt lat="49.60565" lon="5.4796">
        <ele>242.39999389648</ele>
        <time>2022-02-27T09:09:49.000Z</time>
      </trkpt>
      <trkpt lat="49.60569" lon="5.47957">
        <ele>242.60000610352</ele>
        <time>2022-02-27T09:09:50.000Z</time>
      </trkpt>
      <trkpt lat="49.60573" lon="5.47954">
        <ele>242.80000305176</ele>
        <time>2022-02-27T09:09:51.000Z</time>
      </trkpt>
      <trkpt lat="49.60584" lon="5.47946">
        <ele>243.60000610352</ele>
        <time>2022-02-27T09:09:54.000Z</time>
      </trkpt>
      <trkpt lat="49.606" lon="5.47936">
        <ele>245</ele>
        <time>2022-02-27T09:09:58.000Z</time>
      </trkpt>
      <trkpt lat="49.60604" lon="5.47934">
        <ele>245.19999694824</ele>
        <time>2022-02-27T09:09:59.000Z</time>
      </trkpt>
      <trkpt lat="49.60613" lon="5.47929">
        <ele>246</ele>
        <time>2022-02-27T09:10:01.000Z</time>
      </trkpt>
      <trkpt lat="49.60625" lon="5.47923">
        <ele>247</ele>
        <time>2022-02-27T09:10:04.000Z</time>
      </trkpt>
      <trkpt lat="49.60636" lon="5.47916">
        <ele>248</ele>
        <time>2022-02-27T09:10:07.000Z</time>
      </trkpt>
      <trkpt lat="49.6064" lon="5.47913">
        <ele>248.39999389648</ele>
        <time>2022-02-27T09:10:08.000Z</time>
      </trkpt>
      <trkpt lat="49.60648" lon="5.47908">
        <ele>249.19999694824</ele>
        <time>2022-02-27T09:10:10.000Z</time>
      </trkpt>
      <trkpt lat="49.6066" lon="5.47901">
        <ele>250.19999694824</ele>
        <time>2022-02-27T09:10:13.000Z</time>
      </trkpt>
      <trkpt lat="49.60672" lon="5.47894">
        <ele>251.19999694824</ele>
        <time>2022-02-27T09:10:16.000Z</time>
      </trkpt>
      <trkpt lat="49.60676" lon="5.47892">
        <ele>251.60000610352</ele>
        <time>2022-02-27T09:10:17.000Z</time>
      </trkpt>
      <trkpt lat="49.60684" lon="5.47886">
        <ele>252.39999389648</ele>
        <time>2022-02-27T09:10:19.000Z</time>
      </trkpt>
      <trkpt lat="49.60696" lon="5.47879">
        <ele>253.60000610352</ele>
        <time>2022-02-27T09:10:22.000Z</time>
      </trkpt>
      <trkpt lat="49.60708" lon="5.47871">
        <ele>255.19999694824</ele>
        <time>2022-02-27T09:10:25.000Z</time>
      </trkpt>
      <trkpt lat="49.6072" lon="5.47863">
        <ele>257.39999389648</ele>
        <time>2022-02-27T09:10:28.000Z</time>
      </trkpt>
      <trkpt lat="49.60727" lon="5.47856">
        <ele>258.60000610352</ele>
        <time>2022-02-27T09:10:30.000Z</time>
      </trkpt>
      <trkpt lat="49.60731" lon="5.47853">
        <ele>259.39999389648</ele>
        <time>2022-02-27T09:10:31.000Z</time>
      </trkpt>
      <trkpt lat="49.60735" lon="5.47849">
        <ele>260</ele>
        <time>2022-02-27T09:10:32.000Z</time>
      </trkpt>
      <trkpt lat="49.60739" lon="5.47845">
        <ele>260.60000610352</ele>
        <time>2022-02-27T09:10:33.000Z</time>
      </trkpt>
      <trkpt lat="49.60746" lon="5.47837">
        <ele>261.60000610352</ele>
        <time>2022-02-27T09:10:35.000Z</time>
      </trkpt>
      <trkpt lat="49.60753" lon="5.47829">
        <ele>262</ele>
        <time>2022-02-27T09:10:37.000Z</time>
      </trkpt>
      <trkpt lat="49.60765" lon="5.47818">
        <ele>262.79998779297</ele>
        <time>2022-02-27T09:10:40.000Z</time>
      </trkpt>
      <trkpt lat="49.60776" lon="5.47807">
        <ele>263.39999389648</ele>
        <time>2022-02-27T09:10:43.000Z</time>
      </trkpt>
      <trkpt lat="49.60783" lon="5.47799">
        <ele>263.79998779297</ele>
        <time>2022-02-27T09:10:45.000Z</time>
      </trkpt>
      <trkpt lat="49.60787" lon="5.47795">
        <ele>264</ele>
        <time>2022-02-27T09:10:46.000Z</time>
      </trkpt>
      <trkpt lat="49.6079" lon="5.47792">
        <ele>264.39999389648</ele>
        <time>2022-02-27T09:10:47.000Z</time>
      </trkpt>
      <trkpt lat="49.60797" lon="5.47784">
        <ele>265.20001220703</ele>
        <time>2022-02-27T09:10:49.000Z</time>
      </trkpt>
      <trkpt lat="49.60808" lon="5.47772">
        <ele>266.20001220703</ele>
        <time>2022-02-27T09:10:52.000Z</time>
      </trkpt>
      <trkpt lat="49.60821" lon="5.4776">
        <ele>267.39999389648</ele>
        <time>2022-02-27T09:10:55.000Z</time>
      </trkpt>
      <trkpt lat="49.60843" lon="5.47737">
        <ele>269.39999389648</ele>
        <time>2022-02-27T09:11:01.000Z</time>
      </trkpt>
      <trkpt lat="49.60846" lon="5.47733">
        <ele>269.79998779297</ele>
        <time>2022-02-27T09:11:02.000Z</time>
      </trkpt>
      <trkpt lat="49.6085" lon="5.47728">
        <ele>270.20001220703</ele>
        <time>2022-02-27T09:11:03.000Z</time>
      </trkpt>
      <trkpt lat="49.60862" lon="5.47709">
        <ele>271</ele>
        <time>2022-02-27T09:11:07.000Z</time>
      </trkpt>
      <trkpt lat="49.60867" lon="5.47699">
        <ele>271.39999389648</ele>
        <time>2022-02-27T09:11:09.000Z</time>
      </trkpt>
      <trkpt lat="49.6087" lon="5.47693">
        <ele>271.39999389648</ele>
        <time>2022-02-27T09:11:10.000Z</time>
      </trkpt>
      <trkpt lat="49.60874" lon="5.47681">
        <ele>271.20001220703</ele>
        <time>2022-02-27T09:11:12.000Z</time>
      </trkpt>
      <trkpt lat="49.60882" lon="5.47657">
        <ele>270.79998779297</ele>
        <time>2022-02-27T09:11:16.000Z</time>
      </trkpt>
      <trkpt lat="49.60886" lon="5.47644">
        <ele>270.79998779297</ele>
        <time>2022-02-27T09:11:18.000Z</time>
      </trkpt>
      <trkpt lat="49.60891" lon="5.47626">
        <ele>271.60000610352</ele>
        <time>2022-02-27T09:11:21.000Z</time>
      </trkpt>
      <trkpt lat="49.60903" lon="5.47589">
        <ele>272.39999389648</ele>
        <time>2022-02-27T09:11:27.000Z</time>
      </trkpt>
      <trkpt lat="49.60913" lon="5.4756">
        <ele>275.60000610352</ele>
        <time>2022-02-27T09:11:32.000Z</time>
      </trkpt>
      <trkpt lat="49.60915" lon="5.47555">
        <ele>276.39999389648</ele>
        <time>2022-02-27T09:11:33.000Z</time>
      </trkpt>
      <trkpt lat="49.60918" lon="5.4755">
        <ele>277</ele>
        <time>2022-02-27T09:11:34.000Z</time>
      </trkpt>
      <trkpt lat="49.6092" lon="5.47546">
        <ele>277.39999389648</ele>
        <time>2022-02-27T09:11:35.000Z</time>
      </trkpt>
      <trkpt lat="49.60928" lon="5.47535">
        <ele>278.79998779297</ele>
        <time>2022-02-27T09:11:38.000Z</time>
      </trkpt>
      <trkpt lat="49.60933" lon="5.47525">
        <ele>280.20001220703</ele>
        <time>2022-02-27T09:11:40.000Z</time>
      </trkpt>
      <trkpt lat="49.60936" lon="5.4752">
        <ele>281</ele>
        <time>2022-02-27T09:11:41.000Z</time>
      </trkpt>
      <trkpt lat="49.60942" lon="5.4751">
        <ele>283</ele>
        <time>2022-02-27T09:11:43.000Z</time>
      </trkpt>
      <trkpt lat="49.60951" lon="5.47495">
        <ele>285.79998779297</ele>
        <time>2022-02-27T09:11:46.000Z</time>
      </trkpt>
      <trkpt lat="49.60954" lon="5.4749">
        <ele>286.39999389648</ele>
        <time>2022-02-27T09:11:47.000Z</time>
      </trkpt>
      <trkpt lat="49.60975" lon="5.47463">
        <ele>288.60000610352</ele>
        <time>2022-02-27T09:11:53.000Z</time>
      </trkpt>
      <trkpt lat="49.60982" lon="5.47457">
        <ele>289</ele>
        <time>2022-02-27T09:11:55.000Z</time>
      </trkpt>
      <trkpt lat="49.60994" lon="5.4745">
        <ele>289.60000610352</ele>
        <time>2022-02-27T09:11:58.000Z</time>
      </trkpt>
      <trkpt lat="49.6101" lon="5.47435">
        <ele>290.39999389648</ele>
        <time>2022-02-27T09:12:02.000Z</time>
      </trkpt>
      <trkpt lat="49.61018" lon="5.47427">
        <ele>290.79998779297</ele>
        <time>2022-02-27T09:12:04.000Z</time>
      </trkpt>
      <trkpt lat="49.6104" lon="5.47404">
        <ele>291</ele>
        <time>2022-02-27T09:12:10.000Z</time>
      </trkpt>
      <trkpt lat="49.61059" lon="5.47388">
        <ele>291.39999389648</ele>
        <time>2022-02-27T09:12:15.000Z</time>
      </trkpt>
      <trkpt lat="49.61087" lon="5.47369">
        <ele>292.39999389648</ele>
        <time>2022-02-27T09:12:21.000Z</time>
      </trkpt>
      <trkpt lat="49.61092" lon="5.47367">
        <ele>292.39999389648</ele>
        <time>2022-02-27T09:12:22.000Z</time>
      </trkpt>
      <trkpt lat="49.6111" lon="5.47351">
        <ele>293.39999389648</ele>
        <time>2022-02-27T09:12:26.000Z</time>
      </trkpt>
      <trkpt lat="49.6113" lon="5.47325">
        <ele>294.39999389648</ele>
        <time>2022-02-27T09:12:31.000Z</time>
      </trkpt>
      <trkpt lat="49.61148" lon="5.47296">
        <ele>296.79998779297</ele>
        <time>2022-02-27T09:12:36.000Z</time>
      </trkpt>
      <trkpt lat="49.61155" lon="5.47284">
        <ele>297.20001220703</ele>
        <time>2022-02-27T09:12:38.000Z</time>
      </trkpt>
      <trkpt lat="49.61158" lon="5.47278">
        <ele>297.39999389648</ele>
        <time>2022-02-27T09:12:39.000Z</time>
      </trkpt>
      <trkpt lat="49.61174" lon="5.47244">
        <ele>298.60000610352</ele>
        <time>2022-02-27T09:12:44.000Z</time>
      </trkpt>
      <trkpt lat="49.61183" lon="5.47224">
        <ele>299.39999389648</ele>
        <time>2022-02-27T09:12:47.000Z</time>
      </trkpt>
      <trkpt lat="49.61194" lon="5.47203">
        <ele>300</ele>
        <time>2022-02-27T09:12:50.000Z</time>
      </trkpt>
      <trkpt lat="49.61203" lon="5.47191">
        <ele>300.60000610352</ele>
        <time>2022-02-27T09:12:52.000Z</time>
      </trkpt>
      <trkpt lat="49.61216" lon="5.47178">
        <ele>300.60000610352</ele>
        <time>2022-02-27T09:12:55.000Z</time>
      </trkpt>
      <trkpt lat="49.6122" lon="5.47174">
        <ele>300.60000610352</ele>
        <time>2022-02-27T09:12:56.000Z</time>
      </trkpt>
      <trkpt lat="49.61225" lon="5.47169">
        <ele>300.60000610352</ele>
        <time>2022-02-27T09:12:57.000Z</time>
      </trkpt>
      <trkpt lat="49.61243" lon="5.47155">
        <ele>301.20001220703</ele>
        <time>2022-02-27T09:13:01.000Z</time>
      </trkpt>
      <trkpt lat="49.61257" lon="5.47146">
        <ele>301.79998779297</ele>
        <time>2022-02-27T09:13:04.000Z</time>
      </trkpt>
      <trkpt lat="49.61266" lon="5.4714">
        <ele>302.39999389648</ele>
        <time>2022-02-27T09:13:06.000Z</time>
      </trkpt>
      <trkpt lat="49.6128" lon="5.47132">
        <ele>303</ele>
        <time>2022-02-27T09:13:09.000Z</time>
      </trkpt>
      <trkpt lat="49.61285" lon="5.47128">
        <ele>303</ele>
        <time>2022-02-27T09:13:10.000Z</time>
      </trkpt>
      <trkpt lat="49.61294" lon="5.4712">
        <ele>302.60000610352</ele>
        <time>2022-02-27T09:13:12.000Z</time>
      </trkpt>
      <trkpt lat="49.61307" lon="5.47104">
        <ele>302.20001220703</ele>
        <time>2022-02-27T09:13:15.000Z</time>
      </trkpt>
      <trkpt lat="49.61316" lon="5.47095">
        <ele>301.79998779297</ele>
        <time>2022-02-27T09:13:17.000Z</time>
      </trkpt>
      <trkpt lat="49.61321" lon="5.47091">
        <ele>301.79998779297</ele>
        <time>2022-02-27T09:13:18.000Z</time>
      </trkpt>
      <trkpt lat="49.61343" lon="5.47063">
        <ele>303.60000610352</ele>
        <time>2022-02-27T09:13:23.000Z</time>
      </trkpt>
      <trkpt lat="49.61371" lon="5.47023">
        <ele>304.60000610352</ele>
        <time>2022-02-27T09:13:30.000Z</time>
      </trkpt>
      <trkpt lat="49.61385" lon="5.47008">
        <ele>304.60000610352</ele>
        <time>2022-02-27T09:13:33.000Z</time>
      </trkpt>
      <trkpt lat="49.61394" lon="5.47">
        <ele>304.39999389648</ele>
        <time>2022-02-27T09:13:35.000Z</time>
      </trkpt>
      <trkpt lat="49.61425" lon="5.46983">
        <ele>305.20001220703</ele>
        <time>2022-02-27T09:13:41.000Z</time>
      </trkpt>
      <trkpt lat="49.61439" lon="5.46977">
        <ele>305.60000610352</ele>
        <time>2022-02-27T09:13:44.000Z</time>
      </trkpt>
      <trkpt lat="49.61458" lon="5.4697">
        <ele>305.79998779297</ele>
        <time>2022-02-27T09:13:48.000Z</time>
      </trkpt>
      <trkpt lat="49.61467" lon="5.46968">
        <ele>306</ele>
        <time>2022-02-27T09:13:50.000Z</time>
      </trkpt>
      <trkpt lat="49.61487" lon="5.46964">
        <ele>306.39999389648</ele>
        <time>2022-02-27T09:13:54.000Z</time>
      </trkpt>
      <trkpt lat="49.61491" lon="5.46962">
        <ele>306.39999389648</ele>
        <time>2022-02-27T09:13:55.000Z</time>
      </trkpt>
      <trkpt lat="49.6151" lon="5.46958">
        <ele>306.60000610352</ele>
        <time>2022-02-27T09:13:59.000Z</time>
      </trkpt>
      <trkpt lat="49.61515" lon="5.46957">
        <ele>306.60000610352</ele>
        <time>2022-02-27T09:14:00.000Z</time>
      </trkpt>
      <trkpt lat="49.61528" lon="5.4695">
        <ele>307</ele>
        <time>2022-02-27T09:14:03.000Z</time>
      </trkpt>
      <trkpt lat="49.61538" lon="5.46942">
        <ele>307.39999389648</ele>
        <time>2022-02-27T09:14:06.000Z</time>
      </trkpt>
      <trkpt lat="49.61541" lon="5.46939">
        <ele>307.60000610352</ele>
        <time>2022-02-27T09:14:07.000Z</time>
      </trkpt>
      <trkpt lat="49.61555" lon="5.46929">
        <ele>308.39999389648</ele>
        <time>2022-02-27T09:14:12.000Z</time>
      </trkpt>
      <trkpt lat="49.61558" lon="5.46928">
        <ele>308.60000610352</ele>
        <time>2022-02-27T09:14:13.000Z</time>
      </trkpt>
      <trkpt lat="49.61568" lon="5.46928">
        <ele>309</ele>
        <time>2022-02-27T09:14:16.000Z</time>
      </trkpt>
      <trkpt lat="49.61591" lon="5.46931">
        <ele>310</ele>
        <time>2022-02-27T09:14:23.000Z</time>
      </trkpt>
      <trkpt lat="49.61621" lon="5.46929">
        <ele>310.60000610352</ele>
        <time>2022-02-27T09:14:30.000Z</time>
      </trkpt>
      <trkpt lat="49.61632" lon="5.46934">
        <ele>310.79998779297</ele>
        <time>2022-02-27T09:14:33.000Z</time>
      </trkpt>
      <trkpt lat="49.61639" lon="5.46937">
        <ele>310.79998779297</ele>
        <time>2022-02-27T09:14:36.000Z</time>
      </trkpt>
      <trkpt lat="49.61654" lon="5.4693">
        <ele>311</ele>
        <time>2022-02-27T09:14:40.000Z</time>
      </trkpt>
      <trkpt lat="49.61657" lon="5.46927">
        <ele>311</ele>
        <time>2022-02-27T09:14:41.000Z</time>
      </trkpt>
      <trkpt lat="49.61669" lon="5.46915">
        <ele>311.60000610352</ele>
        <time>2022-02-27T09:14:45.000Z</time>
      </trkpt>
      <trkpt lat="49.61677" lon="5.46912">
        <ele>312.20001220703</ele>
        <time>2022-02-27T09:14:48.000Z</time>
      </trkpt>
      <trkpt lat="49.61681" lon="5.46911">
        <ele>312.39999389648</ele>
        <time>2022-02-27T09:14:49.000Z</time>
      </trkpt>
      <trkpt lat="49.61696" lon="5.46898">
        <ele>313.39999389648</ele>
        <time>2022-02-27T09:14:55.000Z</time>
      </trkpt>
      <trkpt lat="49.61698" lon="5.46894">
        <ele>313.60000610352</ele>
        <time>2022-02-27T09:14:56.000Z</time>
      </trkpt>
      <trkpt lat="49.6171" lon="5.46877">
        <ele>314.20001220703</ele>
        <time>2022-02-27T09:15:01.000Z</time>
      </trkpt>
      <trkpt lat="49.61713" lon="5.4687">
        <ele>314.39999389648</ele>
        <time>2022-02-27T09:15:03.000Z</time>
      </trkpt>
      <trkpt lat="49.61717" lon="5.46854">
        <ele>314.60000610352</ele>
        <time>2022-02-27T09:15:07.000Z</time>
      </trkpt>
      <trkpt lat="49.61722" lon="5.46829">
        <ele>314.79998779297</ele>
        <time>2022-02-27T09:15:13.000Z</time>
      </trkpt>
      <trkpt lat="49.61724" lon="5.46825">
        <ele>314.79998779297</ele>
        <time>2022-02-27T09:15:14.000Z</time>
      </trkpt>
      <trkpt lat="49.6173" lon="5.46802">
        <ele>316</ele>
        <time>2022-02-27T09:15:19.000Z</time>
      </trkpt>
      <trkpt lat="49.61732" lon="5.46797">
        <ele>316.20001220703</ele>
        <time>2022-02-27T09:15:22.000Z</time>
      </trkpt>
      <trkpt lat="49.61733" lon="5.4679">
        <ele>316.39999389648</ele>
        <time>2022-02-27T09:15:45.000Z</time>
      </trkpt>
      <trkpt lat="49.61733" lon="5.46785">
        <ele>316.39999389648</ele>
        <time>2022-02-27T09:15:46.000Z</time>
      </trkpt>
      <trkpt lat="49.61735" lon="5.46767">
        <ele>316.79998779297</ele>
        <time>2022-02-27T09:15:49.000Z</time>
      </trkpt>
      <trkpt lat="49.61736" lon="5.46753">
        <ele>317</ele>
        <time>2022-02-27T09:15:51.000Z</time>
      </trkpt>
      <trkpt lat="49.61737" lon="5.46724">
        <ele>318.20001220703</ele>
        <time>2022-02-27T09:15:57.000Z</time>
      </trkpt>
      <trkpt lat="49.61738" lon="5.46711">
        <ele>318.39999389648</ele>
        <time>2022-02-27T09:16:00.000Z</time>
      </trkpt>
      <trkpt lat="49.61739" lon="5.46693">
        <ele>318.60000610352</ele>
        <time>2022-02-27T09:16:04.000Z</time>
      </trkpt>
      <trkpt lat="49.61741" lon="5.46686">
        <ele>318.79998779297</ele>
        <time>2022-02-27T09:16:06.000Z</time>
      </trkpt>
      <trkpt lat="49.61747" lon="5.46668">
        <ele>319.39999389648</ele>
        <time>2022-02-27T09:16:11.000Z</time>
      </trkpt>
      <trkpt lat="49.6176" lon="5.46644">
        <ele>320.60000610352</ele>
        <time>2022-02-27T09:16:17.000Z</time>
      </trkpt>
      <trkpt lat="49.61763" lon="5.4664">
        <ele>320.79998779297</ele>
        <time>2022-02-27T09:16:18.000Z</time>
      </trkpt>
      <trkpt lat="49.61771" lon="5.46626">
        <ele>321.39999389648</ele>
        <time>2022-02-27T09:16:22.000Z</time>
      </trkpt>
      <trkpt lat="49.61781" lon="5.46606">
        <ele>322.20001220703</ele>
        <time>2022-02-27T09:16:27.000Z</time>
      </trkpt>
      <trkpt lat="49.61783" lon="5.466">
        <ele>322.39999389648</ele>
        <time>2022-02-27T09:16:28.000Z</time>
      </trkpt>
      <trkpt lat="49.61791" lon="5.46579">
        <ele>322.79998779297</ele>
        <time>2022-02-27T09:16:32.000Z</time>
      </trkpt>
      <trkpt lat="49.61796" lon="5.46561">
        <ele>323</ele>
        <time>2022-02-27T09:16:35.000Z</time>
      </trkpt>
      <trkpt lat="49.61799" lon="5.46548">
        <ele>323.39999389648</ele>
        <time>2022-02-27T09:16:38.000Z</time>
      </trkpt>
      <trkpt lat="49.61802" lon="5.46539">
        <ele>323.60000610352</ele>
        <time>2022-02-27T09:16:40.000Z</time>
      </trkpt>
      <trkpt lat="49.61803" lon="5.46537">
        <ele>323.79998779297</ele>
        <time>2022-02-27T09:16:41.000Z</time>
      </trkpt>
      <trkpt lat="49.61806" lon="5.46537">
        <ele>324</ele>
        <time>2022-02-27T09:16:44.000Z</time>
      </trkpt>
      <trkpt lat="49.61807" lon="5.46539">
        <ele>324</ele>
        <time>2022-02-27T09:16:45.000Z</time>
      </trkpt>
      <trkpt lat="49.61811" lon="5.46547">
        <ele>324.39999389648</ele>
        <time>2022-02-27T09:16:48.000Z</time>
      </trkpt>
      <trkpt lat="49.61812" lon="5.4655">
        <ele>324.60000610352</ele>
        <time>2022-02-27T09:16:49.000Z</time>
      </trkpt>
      <trkpt lat="49.61826" lon="5.4658">
        <ele>326</ele>
        <time>2022-02-27T09:16:55.000Z</time>
      </trkpt>
      <trkpt lat="49.61836" lon="5.46601">
        <ele>326.79998779297</ele>
        <time>2022-02-27T09:16:59.000Z</time>
      </trkpt>
      <trkpt lat="49.61843" lon="5.46619">
        <ele>327.60000610352</ele>
        <time>2022-02-27T09:17:02.000Z</time>
      </trkpt>
      <trkpt lat="49.61858" lon="5.46655">
        <ele>328.79998779297</ele>
        <time>2022-02-27T09:17:08.000Z</time>
      </trkpt>
      <trkpt lat="49.61865" lon="5.46672">
        <ele>329.20001220703</ele>
        <time>2022-02-27T09:17:12.000Z</time>
      </trkpt>
      <trkpt lat="49.61873" lon="5.46706">
        <ele>329.20001220703</ele>
        <time>2022-02-27T09:17:18.000Z</time>
      </trkpt>
      <trkpt lat="49.61885" lon="5.46747">
        <ele>330.39999389648</ele>
        <time>2022-02-27T09:17:24.000Z</time>
      </trkpt>
      <trkpt lat="49.61886" lon="5.46754">
        <ele>330.60000610352</ele>
        <time>2022-02-27T09:17:25.000Z</time>
      </trkpt>
      <trkpt lat="49.61889" lon="5.46767">
        <ele>330.79998779297</ele>
        <time>2022-02-27T09:17:27.000Z</time>
      </trkpt>
      <trkpt lat="49.61897" lon="5.46788">
        <ele>331.60000610352</ele>
        <time>2022-02-27T09:17:30.000Z</time>
      </trkpt>
      <trkpt lat="49.61914" lon="5.46829">
        <ele>332</ele>
        <time>2022-02-27T09:17:36.000Z</time>
      </trkpt>
      <trkpt lat="49.61922" lon="5.46848">
        <ele>332</ele>
        <time>2022-02-27T09:17:39.000Z</time>
      </trkpt>
      <trkpt lat="49.61924" lon="5.46861">
        <ele>331.39999389648</ele>
        <time>2022-02-27T09:17:41.000Z</time>
      </trkpt>
      <trkpt lat="49.61932" lon="5.46882">
        <ele>330.39999389648</ele>
        <time>2022-02-27T09:17:45.000Z</time>
      </trkpt>
      <trkpt lat="49.61939" lon="5.46888">
        <ele>331</ele>
        <time>2022-02-27T09:17:47.000Z</time>
      </trkpt>
      <trkpt lat="49.61947" lon="5.46898">
        <ele>331.20001220703</ele>
        <time>2022-02-27T09:17:50.000Z</time>
      </trkpt>
      <trkpt lat="49.61955" lon="5.46926">
        <ele>330.20001220703</ele>
        <time>2022-02-27T09:17:56.000Z</time>
      </trkpt>
      <trkpt lat="49.61957" lon="5.46932">
        <ele>330</ele>
        <time>2022-02-27T09:17:57.000Z</time>
      </trkpt>
      <trkpt lat="49.61965" lon="5.46966">
        <ele>328.39999389648</ele>
        <time>2022-02-27T09:18:03.000Z</time>
      </trkpt>
      <trkpt lat="49.61977" lon="5.47001">
        <ele>328.79998779297</ele>
        <time>2022-02-27T09:18:09.000Z</time>
      </trkpt>
      <trkpt lat="49.61991" lon="5.4704">
        <ele>329.39999389648</ele>
        <time>2022-02-27T09:18:15.000Z</time>
      </trkpt>
      <trkpt lat="49.61993" lon="5.47046">
        <ele>329.60000610352</ele>
        <time>2022-02-27T09:18:16.000Z</time>
      </trkpt>
      <trkpt lat="49.62002" lon="5.47055">
        <ele>330.20001220703</ele>
        <time>2022-02-27T09:18:19.000Z</time>
      </trkpt>
      <trkpt lat="49.62008" lon="5.47066">
        <ele>330.20001220703</ele>
        <time>2022-02-27T09:18:22.000Z</time>
      </trkpt>
      <trkpt lat="49.62008" lon="5.4707">
        <ele>330</ele>
        <time>2022-02-27T09:18:23.000Z</time>
      </trkpt>
      <trkpt lat="49.62009" lon="5.47092">
        <ele>329</ele>
        <time>2022-02-27T09:18:27.000Z</time>
      </trkpt>
      <trkpt lat="49.62016" lon="5.47117">
        <ele>328.79998779297</ele>
        <time>2022-02-27T09:18:31.000Z</time>
      </trkpt>
      <trkpt lat="49.6202" lon="5.47123">
        <ele>329</ele>
        <time>2022-02-27T09:18:32.000Z</time>
      </trkpt>
      <trkpt lat="49.62024" lon="5.47128">
        <ele>329.20001220703</ele>
        <time>2022-02-27T09:18:33.000Z</time>
      </trkpt>
      <trkpt lat="49.62032" lon="5.47149">
        <ele>328.79998779297</ele>
        <time>2022-02-27T09:18:37.000Z</time>
      </trkpt>
      <trkpt lat="49.62036" lon="5.47163">
        <ele>328.20001220703</ele>
        <time>2022-02-27T09:18:39.000Z</time>
      </trkpt>
      <trkpt lat="49.62039" lon="5.4717">
        <ele>327.39999389648</ele>
        <time>2022-02-27T09:18:40.000Z</time>
      </trkpt>
      <trkpt lat="49.62042" lon="5.47177">
        <ele>326.60000610352</ele>
        <time>2022-02-27T09:18:41.000Z</time>
      </trkpt>
      <trkpt lat="49.62045" lon="5.47182">
        <ele>326</ele>
        <time>2022-02-27T09:18:42.000Z</time>
      </trkpt>
      <trkpt lat="49.62048" lon="5.47187">
        <ele>325.39999389648</ele>
        <time>2022-02-27T09:18:43.000Z</time>
      </trkpt>
      <trkpt lat="49.62051" lon="5.47191">
        <ele>324.79998779297</ele>
        <time>2022-02-27T09:18:44.000Z</time>
      </trkpt>
      <trkpt lat="49.62053" lon="5.47195">
        <ele>324.39999389648</ele>
        <time>2022-02-27T09:18:45.000Z</time>
      </trkpt>
      <trkpt lat="49.62057" lon="5.47206">
        <ele>323.39999389648</ele>
        <time>2022-02-27T09:18:47.000Z</time>
      </trkpt>
      <trkpt lat="49.62059" lon="5.47216">
        <ele>322.60000610352</ele>
        <time>2022-02-27T09:18:49.000Z</time>
      </trkpt>
      <trkpt lat="49.62059" lon="5.4722">
        <ele>322.20001220703</ele>
        <time>2022-02-27T09:18:50.000Z</time>
      </trkpt>
      <trkpt lat="49.6206" lon="5.47224">
        <ele>321.79998779297</ele>
        <time>2022-02-27T09:18:51.000Z</time>
      </trkpt>
      <trkpt lat="49.62062" lon="5.47232">
        <ele>321.20001220703</ele>
        <time>2022-02-27T09:18:53.000Z</time>
      </trkpt>
      <trkpt lat="49.62067" lon="5.47244">
        <ele>320</ele>
        <time>2022-02-27T09:18:56.000Z</time>
      </trkpt>
      <trkpt lat="49.6207" lon="5.47252">
        <ele>319.20001220703</ele>
        <time>2022-02-27T09:18:59.000Z</time>
      </trkpt>
      <trkpt lat="49.6207" lon="5.47258">
        <ele>319.20001220703</ele>
        <time>2022-02-27T09:19:01.000Z</time>
      </trkpt>
      <trkpt lat="49.62067" lon="5.47262">
        <ele>319.60000610352</ele>
        <time>2022-02-27T09:19:04.000Z</time>
      </trkpt>
      <trkpt lat="49.62065" lon="5.47263">
        <ele>320</ele>
        <time>2022-02-27T09:19:06.000Z</time>
      </trkpt>
      <trkpt lat="49.62056" lon="5.47259">
        <ele>321.60000610352</ele>
        <time>2022-02-27T09:19:13.000Z</time>
      </trkpt>
      <trkpt lat="49.62054" lon="5.47258">
        <ele>321.79998779297</ele>
        <time>2022-02-27T09:19:14.000Z</time>
      </trkpt>
      <trkpt lat="49.62045" lon="5.47253">
        <ele>323.39999389648</ele>
        <time>2022-02-27T09:19:18.000Z</time>
      </trkpt>
      <trkpt lat="49.62042" lon="5.47252">
        <ele>323.79998779297</ele>
        <time>2022-02-27T09:19:19.000Z</time>
      </trkpt>
      <trkpt lat="49.62036" lon="5.4725">
        <ele>324.79998779297</ele>
        <time>2022-02-27T09:19:21.000Z</time>
      </trkpt>
      <trkpt lat="49.62031" lon="5.47249">
        <ele>324.79998779297</ele>
        <time>2022-02-27T09:19:23.000Z</time>
      </trkpt>
      <trkpt lat="49.62027" lon="5.47249">
        <ele>324.60000610352</ele>
        <time>2022-02-27T09:19:25.000Z</time>
      </trkpt>
      <trkpt lat="49.62024" lon="5.47248">
        <ele>324.39999389648</ele>
        <time>2022-02-27T09:19:26.000Z</time>
      </trkpt>
      <trkpt lat="49.62022" lon="5.47248">
        <ele>324.39999389648</ele>
        <time>2022-02-27T09:19:27.000Z</time>
      </trkpt>
      <trkpt lat="49.62018" lon="5.47247">
        <ele>324.20001220703</ele>
        <time>2022-02-27T09:19:29.000Z</time>
      </trkpt>
      <trkpt lat="49.62015" lon="5.47244">
        <ele>324</ele>
        <time>2022-02-27T09:19:31.000Z</time>
      </trkpt>
      <trkpt lat="49.62014" lon="5.47243">
        <ele>324</ele>
        <time>2022-02-27T09:19:32.000Z</time>
      </trkpt>
      <trkpt lat="49.62012" lon="5.47241">
        <ele>324</ele>
        <time>2022-02-27T09:19:33.000Z</time>
      </trkpt>
      <trkpt lat="49.62001" lon="5.47224">
        <ele>323.39999389648</ele>
        <time>2022-02-27T09:19:38.000Z</time>
      </trkpt>
      <trkpt lat="49.61993" lon="5.47217">
        <ele>323</ele>
        <time>2022-02-27T09:19:41.000Z</time>
      </trkpt>
      <trkpt lat="49.6199" lon="5.47215">
        <ele>322.79998779297</ele>
        <time>2022-02-27T09:19:42.000Z</time>
      </trkpt>
      <trkpt lat="49.61985" lon="5.47213">
        <ele>322.60000610352</ele>
        <time>2022-02-27T09:19:43.000Z</time>
      </trkpt>
      <trkpt lat="49.6198" lon="5.47214">
        <ele>322.39999389648</ele>
        <time>2022-02-27T09:19:45.000Z</time>
      </trkpt>
      <trkpt lat="49.61971" lon="5.47216">
        <ele>322</ele>
        <time>2022-02-27T09:19:48.000Z</time>
      </trkpt>
      <trkpt lat="49.6196" lon="5.47212">
        <ele>321.60000610352</ele>
        <time>2022-02-27T09:19:51.000Z</time>
      </trkpt>
      <trkpt lat="49.61951" lon="5.47206">
        <ele>321.20001220703</ele>
        <time>2022-02-27T09:19:53.000Z</time>
      </trkpt>
      <trkpt lat="49.61947" lon="5.47202">
        <ele>320.60000610352</ele>
        <time>2022-02-27T09:19:54.000Z</time>
      </trkpt>
      <trkpt lat="49.61943" lon="5.47197">
        <ele>320</ele>
        <time>2022-02-27T09:19:55.000Z</time>
      </trkpt>
      <trkpt lat="49.6194" lon="5.47192">
        <ele>319.79998779297</ele>
        <time>2022-02-27T09:19:56.000Z</time>
      </trkpt>
      <trkpt lat="49.61937" lon="5.47186">
        <ele>319.39999389648</ele>
        <time>2022-02-27T09:19:57.000Z</time>
      </trkpt>
      <trkpt lat="49.61934" lon="5.47178">
        <ele>319</ele>
        <time>2022-02-27T09:19:58.000Z</time>
      </trkpt>
      <trkpt lat="49.61926" lon="5.47165">
        <ele>318.20001220703</ele>
        <time>2022-02-27T09:20:00.000Z</time>
      </trkpt>
      <trkpt lat="49.61916" lon="5.47154">
        <ele>316.79998779297</ele>
        <time>2022-02-27T09:20:02.000Z</time>
      </trkpt>
      <trkpt lat="49.619" lon="5.47136">
        <ele>314.60000610352</ele>
        <time>2022-02-27T09:20:05.000Z</time>
      </trkpt>
      <trkpt lat="49.61895" lon="5.47128">
        <ele>313.79998779297</ele>
        <time>2022-02-27T09:20:06.000Z</time>
      </trkpt>
      <trkpt lat="49.6189" lon="5.4712">
        <ele>313</ele>
        <time>2022-02-27T09:20:07.000Z</time>
      </trkpt>
      <trkpt lat="49.61885" lon="5.47111">
        <ele>312.20001220703</ele>
        <time>2022-02-27T09:20:08.000Z</time>
      </trkpt>
      <trkpt lat="49.61876" lon="5.47093">
        <ele>310.79998779297</ele>
        <time>2022-02-27T09:20:10.000Z</time>
      </trkpt>
      <trkpt lat="49.61868" lon="5.47079">
        <ele>309.60000610352</ele>
        <time>2022-02-27T09:20:12.000Z</time>
      </trkpt>
      <trkpt lat="49.61864" lon="5.47072">
        <ele>309.39999389648</ele>
        <time>2022-02-27T09:20:13.000Z</time>
      </trkpt>
      <trkpt lat="49.6186" lon="5.47061">
        <ele>309.20001220703</ele>
        <time>2022-02-27T09:20:15.000Z</time>
      </trkpt>
      <trkpt lat="49.61851" lon="5.47039">
        <ele>309.39999389648</ele>
        <time>2022-02-27T09:20:20.000Z</time>
      </trkpt>
      <trkpt lat="49.6184" lon="5.47011">
        <ele>310.60000610352</ele>
        <time>2022-02-27T09:20:26.000Z</time>
      </trkpt>
      <trkpt lat="49.61829" lon="5.46982">
        <ele>311.39999389648</ele>
        <time>2022-02-27T09:20:33.000Z</time>
      </trkpt>
      <trkpt lat="49.61812" lon="5.46966">
        <ele>311.60000610352</ele>
        <time>2022-02-27T09:20:38.000Z</time>
      </trkpt>
      <trkpt lat="49.6179" lon="5.46955">
        <ele>311.79998779297</ele>
        <time>2022-02-27T09:20:44.000Z</time>
      </trkpt>
      <trkpt lat="49.61784" lon="5.46965">
        <ele>311</ele>
        <time>2022-02-27T09:20:48.000Z</time>
      </trkpt>
      <trkpt lat="49.6178" lon="5.46987">
        <ele>309</ele>
        <time>2022-02-27T09:20:52.000Z</time>
      </trkpt>
      <trkpt lat="49.6178" lon="5.46994">
        <ele>308.39999389648</ele>
        <time>2022-02-27T09:20:53.000Z</time>
      </trkpt>
      <trkpt lat="49.61781" lon="5.47002">
        <ele>307.60000610352</ele>
        <time>2022-02-27T09:20:54.000Z</time>
      </trkpt>
      <trkpt lat="49.61783" lon="5.47022">
        <ele>305.60000610352</ele>
        <time>2022-02-27T09:20:56.000Z</time>
      </trkpt>
      <trkpt lat="49.61784" lon="5.47032">
        <ele>304.60000610352</ele>
        <time>2022-02-27T09:20:57.000Z</time>
      </trkpt>
      <trkpt lat="49.61785" lon="5.47043">
        <ele>303.60000610352</ele>
        <time>2022-02-27T09:20:58.000Z</time>
      </trkpt>
      <trkpt lat="49.61786" lon="5.47053">
        <ele>302.79998779297</ele>
        <time>2022-02-27T09:20:59.000Z</time>
      </trkpt>
      <trkpt lat="49.61786" lon="5.47063">
        <ele>302</ele>
        <time>2022-02-27T09:21:00.000Z</time>
      </trkpt>
      <trkpt lat="49.61785" lon="5.47075">
        <ele>301.20001220703</ele>
        <time>2022-02-27T09:21:01.000Z</time>
      </trkpt>
      <trkpt lat="49.6178" lon="5.47098">
        <ele>299.60000610352</ele>
        <time>2022-02-27T09:21:03.000Z</time>
      </trkpt>
      <trkpt lat="49.61777" lon="5.47108">
        <ele>298.79998779297</ele>
        <time>2022-02-27T09:21:04.000Z</time>
      </trkpt>
      <trkpt lat="49.61773" lon="5.47118">
        <ele>298.20001220703</ele>
        <time>2022-02-27T09:21:05.000Z</time>
      </trkpt>
      <trkpt lat="49.61766" lon="5.47136">
        <ele>295</ele>
        <time>2022-02-27T09:21:07.000Z</time>
      </trkpt>
      <trkpt lat="49.61761" lon="5.47145">
        <ele>294.20001220703</ele>
        <time>2022-02-27T09:21:08.000Z</time>
      </trkpt>
      <trkpt lat="49.61756" lon="5.47153">
        <ele>293.20001220703</ele>
        <time>2022-02-27T09:21:09.000Z</time>
      </trkpt>
      <trkpt lat="49.61751" lon="5.4716">
        <ele>292.39999389648</ele>
        <time>2022-02-27T09:21:10.000Z</time>
      </trkpt>
      <trkpt lat="49.6174" lon="5.47173">
        <ele>290.60000610352</ele>
        <time>2022-02-27T09:21:12.000Z</time>
      </trkpt>
      <trkpt lat="49.61728" lon="5.47183">
        <ele>288.79998779297</ele>
        <time>2022-02-27T09:21:14.000Z</time>
      </trkpt>
      <trkpt lat="49.61721" lon="5.47188">
        <ele>287.79998779297</ele>
        <time>2022-02-27T09:21:15.000Z</time>
      </trkpt>
      <trkpt lat="49.61711" lon="5.472">
        <ele>286</ele>
        <time>2022-02-27T09:21:17.000Z</time>
      </trkpt>
      <trkpt lat="49.617" lon="5.47213">
        <ele>284.20001220703</ele>
        <time>2022-02-27T09:21:19.000Z</time>
      </trkpt>
      <trkpt lat="49.61695" lon="5.47219">
        <ele>284</ele>
        <time>2022-02-27T09:21:20.000Z</time>
      </trkpt>
      <trkpt lat="49.61684" lon="5.47234">
        <ele>284</ele>
        <time>2022-02-27T09:21:22.000Z</time>
      </trkpt>
      <trkpt lat="49.61679" lon="5.47243">
        <ele>284</ele>
        <time>2022-02-27T09:21:23.000Z</time>
      </trkpt>
      <trkpt lat="49.61667" lon="5.47261">
        <ele>284.20001220703</ele>
        <time>2022-02-27T09:21:25.000Z</time>
      </trkpt>
      <trkpt lat="49.61661" lon="5.47269">
        <ele>283.60000610352</ele>
        <time>2022-02-27T09:21:26.000Z</time>
      </trkpt>
      <trkpt lat="49.61655" lon="5.47275">
        <ele>282.79998779297</ele>
        <time>2022-02-27T09:21:27.000Z</time>
      </trkpt>
      <trkpt lat="49.61642" lon="5.47287">
        <ele>281.20001220703</ele>
        <time>2022-02-27T09:21:29.000Z</time>
      </trkpt>
      <trkpt lat="49.61616" lon="5.47312">
        <ele>279.39999389648</ele>
        <time>2022-02-27T09:21:33.000Z</time>
      </trkpt>
      <trkpt lat="49.61603" lon="5.47322">
        <ele>279.60000610352</ele>
        <time>2022-02-27T09:21:35.000Z</time>
      </trkpt>
      <trkpt lat="49.6159" lon="5.47332">
        <ele>279.60000610352</ele>
        <time>2022-02-27T09:21:37.000Z</time>
      </trkpt>
      <trkpt lat="49.61578" lon="5.4734">
        <ele>279.60000610352</ele>
        <time>2022-02-27T09:21:39.000Z</time>
      </trkpt>
      <trkpt lat="49.61567" lon="5.47349">
        <ele>278</ele>
        <time>2022-02-27T09:21:41.000Z</time>
      </trkpt>
      <trkpt lat="49.61536" lon="5.47368">
        <ele>273.60000610352</ele>
        <time>2022-02-27T09:21:46.000Z</time>
      </trkpt>
      <trkpt lat="49.61518" lon="5.47386">
        <ele>273</ele>
        <time>2022-02-27T09:21:49.000Z</time>
      </trkpt>
      <trkpt lat="49.61499" lon="5.47405">
        <ele>274.39999389648</ele>
        <time>2022-02-27T09:21:52.000Z</time>
      </trkpt>
      <trkpt lat="49.61475" lon="5.47429">
        <ele>274.20001220703</ele>
        <time>2022-02-27T09:21:56.000Z</time>
      </trkpt>
      <trkpt lat="49.61458" lon="5.47448">
        <ele>272.60000610352</ele>
        <time>2022-02-27T09:21:59.000Z</time>
      </trkpt>
      <trkpt lat="49.61441" lon="5.47468">
        <ele>271.79998779297</ele>
        <time>2022-02-27T09:22:02.000Z</time>
      </trkpt>
      <trkpt lat="49.61423" lon="5.47487">
        <ele>272.39999389648</ele>
        <time>2022-02-27T09:22:05.000Z</time>
      </trkpt>
      <trkpt lat="49.6141" lon="5.47499">
        <ele>272.79998779297</ele>
        <time>2022-02-27T09:22:07.000Z</time>
      </trkpt>
      <trkpt lat="49.61404" lon="5.47505">
        <ele>272.79998779297</ele>
        <time>2022-02-27T09:22:08.000Z</time>
      </trkpt>
      <trkpt lat="49.61387" lon="5.47525">
        <ele>269</ele>
        <time>2022-02-27T09:22:11.000Z</time>
      </trkpt>
      <trkpt lat="49.61378" lon="5.4754">
        <ele>266.79998779297</ele>
        <time>2022-02-27T09:22:13.000Z</time>
      </trkpt>
      <trkpt lat="49.6137" lon="5.47557">
        <ele>265.60000610352</ele>
        <time>2022-02-27T09:22:15.000Z</time>
      </trkpt>
      <trkpt lat="49.61365" lon="5.47575">
        <ele>266</ele>
        <time>2022-02-27T09:22:17.000Z</time>
      </trkpt>
      <trkpt lat="49.61358" lon="5.47591">
        <ele>266.60000610352</ele>
        <time>2022-02-27T09:22:19.000Z</time>
      </trkpt>
      <trkpt lat="49.6135" lon="5.47604">
        <ele>267.20001220703</ele>
        <time>2022-02-27T09:22:21.000Z</time>
      </trkpt>
      <trkpt lat="49.61318" lon="5.47648">
        <ele>263.39999389648</ele>
        <time>2022-02-27T09:22:28.000Z</time>
      </trkpt>
      <trkpt lat="49.61308" lon="5.47664">
        <ele>261.60000610352</ele>
        <time>2022-02-27T09:22:30.000Z</time>
      </trkpt>
      <trkpt lat="49.61298" lon="5.4768">
        <ele>258.79998779297</ele>
        <time>2022-02-27T09:22:32.000Z</time>
      </trkpt>
      <trkpt lat="49.61289" lon="5.47697">
        <ele>256.20001220703</ele>
        <time>2022-02-27T09:22:34.000Z</time>
      </trkpt>
      <trkpt lat="49.61284" lon="5.47706">
        <ele>255</ele>
        <time>2022-02-27T09:22:35.000Z</time>
      </trkpt>
      <trkpt lat="49.61272" lon="5.47732">
        <ele>255.19999694824</ele>
        <time>2022-02-27T09:22:38.000Z</time>
      </trkpt>
      <trkpt lat="49.61267" lon="5.47749">
        <ele>255.39999389648</ele>
        <time>2022-02-27T09:22:40.000Z</time>
      </trkpt>
      <trkpt lat="49.61264" lon="5.47765">
        <ele>255.39999389648</ele>
        <time>2022-02-27T09:22:42.000Z</time>
      </trkpt>
      <trkpt lat="49.61263" lon="5.47779">
        <ele>255.19999694824</ele>
        <time>2022-02-27T09:22:44.000Z</time>
      </trkpt>
      <trkpt lat="49.61263" lon="5.47786">
        <ele>254.39999389648</ele>
        <time>2022-02-27T09:22:45.000Z</time>
      </trkpt>
      <trkpt lat="49.61271" lon="5.47801">
        <ele>252.80000305176</ele>
        <time>2022-02-27T09:22:48.000Z</time>
      </trkpt>
      <trkpt lat="49.61274" lon="5.47803">
        <ele>253</ele>
        <time>2022-02-27T09:22:49.000Z</time>
      </trkpt>
      <trkpt lat="49.61282" lon="5.47806">
        <ele>253.60000610352</ele>
        <time>2022-02-27T09:22:51.000Z</time>
      </trkpt>
      <trkpt lat="49.61297" lon="5.47814">
        <ele>255</ele>
        <time>2022-02-27T09:22:55.000Z</time>
      </trkpt>
      <trkpt lat="49.61318" lon="5.47825">
        <ele>257.20001220703</ele>
        <time>2022-02-27T09:23:01.000Z</time>
      </trkpt>
      <trkpt lat="49.6134" lon="5.47829">
        <ele>259</ele>
        <time>2022-02-27T09:23:06.000Z</time>
      </trkpt>
      <trkpt lat="49.61368" lon="5.47825">
        <ele>260.79998779297</ele>
        <time>2022-02-27T09:23:11.000Z</time>
      </trkpt>
      <trkpt lat="49.61373" lon="5.47824">
        <ele>260.79998779297</ele>
        <time>2022-02-27T09:23:12.000Z</time>
      </trkpt>
      <trkpt lat="49.61397" lon="5.47823">
        <ele>261.20001220703</ele>
        <time>2022-02-27T09:23:17.000Z</time>
      </trkpt>
      <trkpt lat="49.61402" lon="5.47823">
        <ele>261.39999389648</ele>
        <time>2022-02-27T09:23:18.000Z</time>
      </trkpt>
      <trkpt lat="49.6141" lon="5.47824">
        <ele>261.60000610352</ele>
        <time>2022-02-27T09:23:20.000Z</time>
      </trkpt>
      <trkpt lat="49.6143" lon="5.47827">
        <ele>262.60000610352</ele>
        <time>2022-02-27T09:23:24.000Z</time>
      </trkpt>
      <trkpt lat="49.61454" lon="5.4783">
        <ele>263.39999389648</ele>
        <time>2022-02-27T09:23:29.000Z</time>
      </trkpt>
      <trkpt lat="49.61474" lon="5.47838">
        <ele>263.60000610352</ele>
        <time>2022-02-27T09:23:33.000Z</time>
      </trkpt>
      <trkpt lat="49.61483" lon="5.47843">
        <ele>263.60000610352</ele>
        <time>2022-02-27T09:23:35.000Z</time>
      </trkpt>
      <trkpt lat="49.61505" lon="5.47859">
        <ele>264.20001220703</ele>
        <time>2022-02-27T09:23:40.000Z</time>
      </trkpt>
      <trkpt lat="49.61524" lon="5.4787">
        <ele>264.60000610352</ele>
        <time>2022-02-27T09:23:44.000Z</time>
      </trkpt>
      <trkpt lat="49.6153" lon="5.47872">
        <ele>265</ele>
        <time>2022-02-27T09:23:45.000Z</time>
      </trkpt>
      <trkpt lat="49.61542" lon="5.47875">
        <ele>265.39999389648</ele>
        <time>2022-02-27T09:23:47.000Z</time>
      </trkpt>
      <trkpt lat="49.61558" lon="5.47877">
        <ele>265.60000610352</ele>
        <time>2022-02-27T09:23:50.000Z</time>
      </trkpt>
      <trkpt lat="49.61568" lon="5.47879">
        <ele>265.79998779297</ele>
        <time>2022-02-27T09:23:52.000Z</time>
      </trkpt>
      <trkpt lat="49.61594" lon="5.47882">
        <ele>266.39999389648</ele>
        <time>2022-02-27T09:23:57.000Z</time>
      </trkpt>
      <trkpt lat="49.61605" lon="5.47885">
        <ele>267</ele>
        <time>2022-02-27T09:23:59.000Z</time>
      </trkpt>
      <trkpt lat="49.6162" lon="5.47891">
        <ele>268</ele>
        <time>2022-02-27T09:24:02.000Z</time>
      </trkpt>
      <trkpt lat="49.61634" lon="5.479">
        <ele>269</ele>
        <time>2022-02-27T09:24:05.000Z</time>
      </trkpt>
      <trkpt lat="49.61655" lon="5.47919">
        <ele>271.39999389648</ele>
        <time>2022-02-27T09:24:11.000Z</time>
      </trkpt>
      <trkpt lat="49.61659" lon="5.47921">
        <ele>271.60000610352</ele>
        <time>2022-02-27T09:24:12.000Z</time>
      </trkpt>
      <trkpt lat="49.61675" lon="5.47926">
        <ele>273</ele>
        <time>2022-02-27T09:24:16.000Z</time>
      </trkpt>
      <trkpt lat="49.61681" lon="5.47925">
        <ele>273.20001220703</ele>
        <time>2022-02-27T09:24:17.000Z</time>
      </trkpt>
      <trkpt lat="49.61696" lon="5.47917">
        <ele>273.79998779297</ele>
        <time>2022-02-27T09:24:20.000Z</time>
      </trkpt>
      <trkpt lat="49.61702" lon="5.47914">
        <ele>273.79998779297</ele>
        <time>2022-02-27T09:24:21.000Z</time>
      </trkpt>
      <trkpt lat="49.61729" lon="5.479">
        <ele>274</ele>
        <time>2022-02-27T09:24:26.000Z</time>
      </trkpt>
      <trkpt lat="49.61734" lon="5.47897">
        <ele>273.79998779297</ele>
        <time>2022-02-27T09:24:27.000Z</time>
      </trkpt>
      <trkpt lat="49.61758" lon="5.47889">
        <ele>272.60000610352</ele>
        <time>2022-02-27T09:24:32.000Z</time>
      </trkpt>
      <trkpt lat="49.61763" lon="5.47887">
        <ele>272.60000610352</ele>
        <time>2022-02-27T09:24:33.000Z</time>
      </trkpt>
      <trkpt lat="49.61789" lon="5.47879">
        <ele>272.39999389648</ele>
        <time>2022-02-27T09:24:38.000Z</time>
      </trkpt>
      <trkpt lat="49.61808" lon="5.47873">
        <ele>272.79998779297</ele>
        <time>2022-02-27T09:24:42.000Z</time>
      </trkpt>
      <trkpt lat="49.61824" lon="5.47869">
        <ele>273.20001220703</ele>
        <time>2022-02-27T09:24:46.000Z</time>
      </trkpt>
      <trkpt lat="49.61838" lon="5.47864">
        <ele>273.60000610352</ele>
        <time>2022-02-27T09:24:49.000Z</time>
      </trkpt>
      <trkpt lat="49.61856" lon="5.47858">
        <ele>274</ele>
        <time>2022-02-27T09:24:53.000Z</time>
      </trkpt>
      <trkpt lat="49.61879" lon="5.47851">
        <ele>274.79998779297</ele>
        <time>2022-02-27T09:24:58.000Z</time>
      </trkpt>
      <trkpt lat="49.61884" lon="5.4785">
        <ele>275.20001220703</ele>
        <time>2022-02-27T09:24:59.000Z</time>
      </trkpt>
      <trkpt lat="49.61907" lon="5.47848">
        <ele>276.20001220703</ele>
        <time>2022-02-27T09:25:04.000Z</time>
      </trkpt>
      <trkpt lat="49.61911" lon="5.47848">
        <ele>276.20001220703</ele>
        <time>2022-02-27T09:25:05.000Z</time>
      </trkpt>
      <trkpt lat="49.61916" lon="5.47849">
        <ele>276.39999389648</ele>
        <time>2022-02-27T09:25:06.000Z</time>
      </trkpt>
      <trkpt lat="49.61936" lon="5.47853">
        <ele>275.20001220703</ele>
        <time>2022-02-27T09:25:10.000Z</time>
      </trkpt>
      <trkpt lat="49.6195" lon="5.47857">
        <ele>274.20001220703</ele>
        <time>2022-02-27T09:25:13.000Z</time>
      </trkpt>
      <trkpt lat="49.61964" lon="5.47859">
        <ele>274.60000610352</ele>
        <time>2022-02-27T09:25:16.000Z</time>
      </trkpt>
      <trkpt lat="49.61969" lon="5.47858">
        <ele>275</ele>
        <time>2022-02-27T09:25:17.000Z</time>
      </trkpt>
      <trkpt lat="49.61985" lon="5.47852">
        <ele>276</ele>
        <time>2022-02-27T09:25:20.000Z</time>
      </trkpt>
      <trkpt lat="49.61995" lon="5.47846">
        <ele>276.60000610352</ele>
        <time>2022-02-27T09:25:22.000Z</time>
      </trkpt>
      <trkpt lat="49.62031" lon="5.47825">
        <ele>283.20001220703</ele>
        <time>2022-02-27T09:25:29.000Z</time>
      </trkpt>
      <trkpt lat="49.62036" lon="5.4782">
        <ele>284.39999389648</ele>
        <time>2022-02-27T09:25:30.000Z</time>
      </trkpt>
      <trkpt lat="49.6205" lon="5.47811">
        <ele>285.79998779297</ele>
        <time>2022-02-27T09:25:33.000Z</time>
      </trkpt>
      <trkpt lat="49.62058" lon="5.47803">
        <ele>284.60000610352</ele>
        <time>2022-02-27T09:25:35.000Z</time>
      </trkpt>
      <trkpt lat="49.62069" lon="5.4779">
        <ele>284.79998779297</ele>
        <time>2022-02-27T09:25:38.000Z</time>
      </trkpt>
      <trkpt lat="49.62082" lon="5.47776">
        <ele>285.79998779297</ele>
        <time>2022-02-27T09:25:41.000Z</time>
      </trkpt>
      <trkpt lat="49.62093" lon="5.47761">
        <ele>286.39999389648</ele>
        <time>2022-02-27T09:25:44.000Z</time>
      </trkpt>
      <trkpt lat="49.62112" lon="5.47737">
        <ele>286.79998779297</ele>
        <time>2022-02-27T09:25:49.000Z</time>
      </trkpt>
      <trkpt lat="49.62116" lon="5.47731">
        <ele>286.79998779297</ele>
        <time>2022-02-27T09:25:50.000Z</time>
      </trkpt>
      <trkpt lat="49.62132" lon="5.47701">
        <ele>289.39999389648</ele>
        <time>2022-02-27T09:25:55.000Z</time>
      </trkpt>
      <trkpt lat="49.62139" lon="5.47682">
        <ele>292</ele>
        <time>2022-02-27T09:25:58.000Z</time>
      </trkpt>
      <trkpt lat="49.62147" lon="5.47653">
        <ele>294.60000610352</ele>
        <time>2022-02-27T09:26:02.000Z</time>
      </trkpt>
      <trkpt lat="49.62161" lon="5.47611">
        <ele>292.60000610352</ele>
        <time>2022-02-27T09:26:08.000Z</time>
      </trkpt>
      <trkpt lat="49.62165" lon="5.47605">
        <ele>292.20001220703</ele>
        <time>2022-02-27T09:26:09.000Z</time>
      </trkpt>
      <trkpt lat="49.62176" lon="5.47588">
        <ele>289.79998779297</ele>
        <time>2022-02-27T09:26:12.000Z</time>
      </trkpt>
      <trkpt lat="49.6218" lon="5.47584">
        <ele>288.79998779297</ele>
        <time>2022-02-27T09:26:13.000Z</time>
      </trkpt>
      <trkpt lat="49.62199" lon="5.47577">
        <ele>283.60000610352</ele>
        <time>2022-02-27T09:26:17.000Z</time>
      </trkpt>
      <trkpt lat="49.62204" lon="5.47577">
        <ele>283</ele>
        <time>2022-02-27T09:26:18.000Z</time>
      </trkpt>
      <trkpt lat="49.62214" lon="5.47578">
        <ele>284.20001220703</ele>
        <time>2022-02-27T09:26:20.000Z</time>
      </trkpt>
      <trkpt lat="49.62222" lon="5.47579">
        <ele>285.20001220703</ele>
        <time>2022-02-27T09:26:22.000Z</time>
      </trkpt>
      <trkpt lat="49.62235" lon="5.47582">
        <ele>286.79998779297</ele>
        <time>2022-02-27T09:26:25.000Z</time>
      </trkpt>
      <trkpt lat="49.62249" lon="5.47584">
        <ele>287.20001220703</ele>
        <time>2022-02-27T09:26:28.000Z</time>
      </trkpt>
      <trkpt lat="49.62253" lon="5.47585">
        <ele>287.39999389648</ele>
        <time>2022-02-27T09:26:29.000Z</time>
      </trkpt>
      <trkpt lat="49.62276" lon="5.47589">
        <ele>288.20001220703</ele>
        <time>2022-02-27T09:26:34.000Z</time>
      </trkpt>
      <trkpt lat="49.62298" lon="5.47593">
        <ele>289.60000610352</ele>
        <time>2022-02-27T09:26:39.000Z</time>
      </trkpt>
      <trkpt lat="49.62303" lon="5.47592">
        <ele>289.79998779297</ele>
        <time>2022-02-27T09:26:40.000Z</time>
      </trkpt>
      <trkpt lat="49.62342" lon="5.4758">
        <ele>290.60000610352</ele>
        <time>2022-02-27T09:26:47.000Z</time>
      </trkpt>
      <trkpt lat="49.62372" lon="5.47565">
        <ele>290.20001220703</ele>
        <time>2022-02-27T09:26:53.000Z</time>
      </trkpt>
      <trkpt lat="49.62377" lon="5.47563">
        <ele>290.20001220703</ele>
        <time>2022-02-27T09:26:54.000Z</time>
      </trkpt>
      <trkpt lat="49.62397" lon="5.47551">
        <ele>289.20001220703</ele>
        <time>2022-02-27T09:26:59.000Z</time>
      </trkpt>
      <trkpt lat="49.62402" lon="5.47549">
        <ele>289.20001220703</ele>
        <time>2022-02-27T09:27:00.000Z</time>
      </trkpt>
      <trkpt lat="49.62425" lon="5.47542">
        <ele>291.20001220703</ele>
        <time>2022-02-27T09:27:05.000Z</time>
      </trkpt>
      <trkpt lat="49.6243" lon="5.47541">
        <ele>291.60000610352</ele>
        <time>2022-02-27T09:27:06.000Z</time>
      </trkpt>
      <trkpt lat="49.62448" lon="5.47532">
        <ele>292</ele>
        <time>2022-02-27T09:27:10.000Z</time>
      </trkpt>
      <trkpt lat="49.62458" lon="5.47524">
        <ele>292.39999389648</ele>
        <time>2022-02-27T09:27:12.000Z</time>
      </trkpt>
      <trkpt lat="49.62462" lon="5.47518">
        <ele>293.20001220703</ele>
        <time>2022-02-27T09:27:13.000Z</time>
      </trkpt>
      <trkpt lat="49.62471" lon="5.47505">
        <ele>294.39999389648</ele>
        <time>2022-02-27T09:27:15.000Z</time>
      </trkpt>
      <trkpt lat="49.62475" lon="5.47499">
        <ele>295</ele>
        <time>2022-02-27T09:27:16.000Z</time>
      </trkpt>
      <trkpt lat="49.62479" lon="5.47492">
        <ele>295.60000610352</ele>
        <time>2022-02-27T09:27:17.000Z</time>
      </trkpt>
      <trkpt lat="49.62482" lon="5.47485">
        <ele>295.20001220703</ele>
        <time>2022-02-27T09:27:18.000Z</time>
      </trkpt>
      <trkpt lat="49.62488" lon="5.47462">
        <ele>295</ele>
        <time>2022-02-27T09:27:21.000Z</time>
      </trkpt>
      <trkpt lat="49.62489" lon="5.47454">
        <ele>296</ele>
        <time>2022-02-27T09:27:22.000Z</time>
      </trkpt>
      <trkpt lat="49.62491" lon="5.4743">
        <ele>298.79998779297</ele>
        <time>2022-02-27T09:27:25.000Z</time>
      </trkpt>
      <trkpt lat="49.62491" lon="5.47422">
        <ele>299.79998779297</ele>
        <time>2022-02-27T09:27:26.000Z</time>
      </trkpt>
      <trkpt lat="49.62491" lon="5.47415">
        <ele>300</ele>
        <time>2022-02-27T09:27:27.000Z</time>
      </trkpt>
      <trkpt lat="49.6249" lon="5.474">
        <ele>300.39999389648</ele>
        <time>2022-02-27T09:27:29.000Z</time>
      </trkpt>
      <trkpt lat="49.62489" lon="5.47387">
        <ele>300.79998779297</ele>
        <time>2022-02-27T09:27:31.000Z</time>
      </trkpt>
      <trkpt lat="49.62488" lon="5.47374">
        <ele>301.39999389648</ele>
        <time>2022-02-27T09:27:33.000Z</time>
      </trkpt>
      <trkpt lat="49.62488" lon="5.47368">
        <ele>301.79998779297</ele>
        <time>2022-02-27T09:27:34.000Z</time>
      </trkpt>
      <trkpt lat="49.62487" lon="5.47336">
        <ele>303.39999389648</ele>
        <time>2022-02-27T09:27:39.000Z</time>
      </trkpt>
      <trkpt lat="49.62487" lon="5.47329">
        <ele>303.60000610352</ele>
        <time>2022-02-27T09:27:40.000Z</time>
      </trkpt>
      <trkpt lat="49.62484" lon="5.473">
        <ele>304.60000610352</ele>
        <time>2022-02-27T09:27:44.000Z</time>
      </trkpt>
      <trkpt lat="49.62479" lon="5.47269">
        <ele>305.39999389648</ele>
        <time>2022-02-27T09:27:48.000Z</time>
      </trkpt>
      <trkpt lat="49.6247" lon="5.47214">
        <ele>307.20001220703</ele>
        <time>2022-02-27T09:27:55.000Z</time>
      </trkpt>
      <trkpt lat="49.62467" lon="5.47192">
        <ele>306.39999389648</ele>
        <time>2022-02-27T09:27:58.000Z</time>
      </trkpt>
      <trkpt lat="49.62467" lon="5.47179">
        <ele>305.79998779297</ele>
        <time>2022-02-27T09:28:00.000Z</time>
      </trkpt>
      <trkpt lat="49.62468" lon="5.47172">
        <ele>305.39999389648</ele>
        <time>2022-02-27T09:28:01.000Z</time>
      </trkpt>
      <trkpt lat="49.62471" lon="5.47141">
        <ele>304.20001220703</ele>
        <time>2022-02-27T09:28:06.000Z</time>
      </trkpt>
      <trkpt lat="49.62478" lon="5.47116">
        <ele>303.60000610352</ele>
        <time>2022-02-27T09:28:11.000Z</time>
      </trkpt>
      <trkpt lat="49.62491" lon="5.47089">
        <ele>302.60000610352</ele>
        <time>2022-02-27T09:28:17.000Z</time>
      </trkpt>
      <trkpt lat="49.62499" lon="5.47071">
        <ele>302.79998779297</ele>
        <time>2022-02-27T09:28:21.000Z</time>
      </trkpt>
      <trkpt lat="49.62501" lon="5.47066">
        <ele>302.79998779297</ele>
        <time>2022-02-27T09:28:22.000Z</time>
      </trkpt>
      <trkpt lat="49.62511" lon="5.47048">
        <ele>303</ele>
        <time>2022-02-27T09:28:26.000Z</time>
      </trkpt>
      <trkpt lat="49.62514" lon="5.47045">
        <ele>303.20001220703</ele>
        <time>2022-02-27T09:28:27.000Z</time>
      </trkpt>
      <trkpt lat="49.62526" lon="5.47032">
        <ele>303.79998779297</ele>
        <time>2022-02-27T09:28:31.000Z</time>
      </trkpt>
      <trkpt lat="49.62529" lon="5.47029">
        <ele>304.20001220703</ele>
        <time>2022-02-27T09:28:32.000Z</time>
      </trkpt>
      <trkpt lat="49.62545" lon="5.47011">
        <ele>307</ele>
        <time>2022-02-27T09:28:37.000Z</time>
      </trkpt>
      <trkpt lat="49.62548" lon="5.47006">
        <ele>307.60000610352</ele>
        <time>2022-02-27T09:28:38.000Z</time>
      </trkpt>
      <trkpt lat="49.62569" lon="5.46974">
        <ele>309.39999389648</ele>
        <time>2022-02-27T09:28:46.000Z</time>
      </trkpt>
      <trkpt lat="49.62579" lon="5.4695">
        <ele>310.39999389648</ele>
        <time>2022-02-27T09:28:51.000Z</time>
      </trkpt>
      <trkpt lat="49.62584" lon="5.4694">
        <ele>311.20001220703</ele>
        <time>2022-02-27T09:28:53.000Z</time>
      </trkpt>
      <trkpt lat="49.62591" lon="5.46921">
        <ele>311.79998779297</ele>
        <time>2022-02-27T09:28:57.000Z</time>
      </trkpt>
      <trkpt lat="49.62593" lon="5.46917">
        <ele>311.79998779297</ele>
        <time>2022-02-27T09:28:58.000Z</time>
      </trkpt>
      <trkpt lat="49.626" lon="5.469">
        <ele>311.79998779297</ele>
        <time>2022-02-27T09:29:02.000Z</time>
      </trkpt>
      <trkpt lat="49.62602" lon="5.46896">
        <ele>311.60000610352</ele>
        <time>2022-02-27T09:29:03.000Z</time>
      </trkpt>
      <trkpt lat="49.62613" lon="5.46873">
        <ele>312</ele>
        <time>2022-02-27T09:29:08.000Z</time>
      </trkpt>
      <trkpt lat="49.62615" lon="5.46869">
        <ele>311.79998779297</ele>
        <time>2022-02-27T09:29:09.000Z</time>
      </trkpt>
      <trkpt lat="49.62631" lon="5.46849">
        <ele>313.20001220703</ele>
        <time>2022-02-27T09:29:15.000Z</time>
      </trkpt>
      <trkpt lat="49.62641" lon="5.46838">
        <ele>314.39999389648</ele>
        <time>2022-02-27T09:29:19.000Z</time>
      </trkpt>
      <trkpt lat="49.62649" lon="5.46827">
        <ele>315.39999389648</ele>
        <time>2022-02-27T09:29:22.000Z</time>
      </trkpt>
      <trkpt lat="49.62669" lon="5.4681">
        <ele>314.60000610352</ele>
        <time>2022-02-27T09:29:28.000Z</time>
      </trkpt>
      <trkpt lat="49.62674" lon="5.46804">
        <ele>314.20001220703</ele>
        <time>2022-02-27T09:29:30.000Z</time>
      </trkpt>
      <trkpt lat="49.62687" lon="5.46792">
        <ele>314.39999389648</ele>
        <time>2022-02-27T09:29:34.000Z</time>
      </trkpt>
      <trkpt lat="49.62698" lon="5.4678">
        <ele>314.79998779297</ele>
        <time>2022-02-27T09:29:38.000Z</time>
      </trkpt>
      <trkpt lat="49.62703" lon="5.46775">
        <ele>315</ele>
        <time>2022-02-27T09:29:40.000Z</time>
      </trkpt>
      <trkpt lat="49.62708" lon="5.46772">
        <ele>315.79998779297</ele>
        <time>2022-02-27T09:29:43.000Z</time>
      </trkpt>
      <trkpt lat="49.62712" lon="5.46772">
        <ele>316.20001220703</ele>
        <time>2022-02-27T09:29:48.000Z</time>
      </trkpt>
      <trkpt lat="49.6274" lon="5.46785">
        <ele>319.39999389648</ele>
        <time>2022-02-27T09:30:03.000Z</time>
      </trkpt>
      <trkpt lat="49.62744" lon="5.4679">
        <ele>319.79998779297</ele>
        <time>2022-02-27T09:30:05.000Z</time>
      </trkpt>
      <trkpt lat="49.62748" lon="5.46796">
        <ele>320.20001220703</ele>
        <time>2022-02-27T09:30:07.000Z</time>
      </trkpt>
      <trkpt lat="49.62752" lon="5.46801">
        <ele>320.60000610352</ele>
        <time>2022-02-27T09:30:09.000Z</time>
      </trkpt>
      <trkpt lat="49.62754" lon="5.46803">
        <ele>320.79998779297</ele>
        <time>2022-02-27T09:30:10.000Z</time>
      </trkpt>
      <trkpt lat="49.62758" lon="5.46806">
        <ele>321.39999389648</ele>
        <time>2022-02-27T09:30:12.000Z</time>
      </trkpt>
      <trkpt lat="49.62766" lon="5.46814">
        <ele>322.20001220703</ele>
        <time>2022-02-27T09:30:17.000Z</time>
      </trkpt>
      <trkpt lat="49.62777" lon="5.46823">
        <ele>323.60000610352</ele>
        <time>2022-02-27T09:30:23.000Z</time>
      </trkpt>
      <trkpt lat="49.62779" lon="5.46825">
        <ele>323.79998779297</ele>
        <time>2022-02-27T09:30:24.000Z</time>
      </trkpt>
      <trkpt lat="49.62792" lon="5.46838">
        <ele>324.79998779297</ele>
        <time>2022-02-27T09:30:30.000Z</time>
      </trkpt>
      <trkpt lat="49.62801" lon="5.46851">
        <ele>325.20001220703</ele>
        <time>2022-02-27T09:30:35.000Z</time>
      </trkpt>
      <trkpt lat="49.62807" lon="5.46861">
        <ele>325.39999389648</ele>
        <time>2022-02-27T09:30:38.000Z</time>
      </trkpt>
      <trkpt lat="49.62814" lon="5.46871">
        <ele>325.60000610352</ele>
        <time>2022-02-27T09:30:43.000Z</time>
      </trkpt>
      <trkpt lat="49.62822" lon="5.46882">
        <ele>325.79998779297</ele>
        <time>2022-02-27T09:30:48.000Z</time>
      </trkpt>
      <trkpt lat="49.62837" lon="5.46899">
        <ele>325.20001220703</ele>
        <time>2022-02-27T09:30:55.000Z</time>
      </trkpt>
      <trkpt lat="49.62849" lon="5.46918">
        <ele>324</ele>
        <time>2022-02-27T09:31:01.000Z</time>
      </trkpt>
      <trkpt lat="49.62861" lon="5.46936">
        <ele>323.20001220703</ele>
        <time>2022-02-27T09:31:06.000Z</time>
      </trkpt>
      <trkpt lat="49.62865" lon="5.46942">
        <ele>322.79998779297</ele>
        <time>2022-02-27T09:31:07.000Z</time>
      </trkpt>
      <trkpt lat="49.62868" lon="5.46948">
        <ele>322.39999389648</ele>
        <time>2022-02-27T09:31:08.000Z</time>
      </trkpt>
      <trkpt lat="49.62871" lon="5.46953">
        <ele>322.20001220703</ele>
        <time>2022-02-27T09:31:09.000Z</time>
      </trkpt>
      <trkpt lat="49.62875" lon="5.46958">
        <ele>322</ele>
        <time>2022-02-27T09:31:10.000Z</time>
      </trkpt>
      <trkpt lat="49.62878" lon="5.46962">
        <ele>321.79998779297</ele>
        <time>2022-02-27T09:31:11.000Z</time>
      </trkpt>
      <trkpt lat="49.62881" lon="5.46965">
        <ele>321.60000610352</ele>
        <time>2022-02-27T09:31:12.000Z</time>
      </trkpt>
      <trkpt lat="49.62888" lon="5.46975">
        <ele>322</ele>
        <time>2022-02-27T09:31:15.000Z</time>
      </trkpt>
      <trkpt lat="49.62894" lon="5.46987">
        <ele>322.39999389648</ele>
        <time>2022-02-27T09:31:19.000Z</time>
      </trkpt>
      <trkpt lat="49.62908" lon="5.47011">
        <ele>323.39999389648</ele>
        <time>2022-02-27T09:31:26.000Z</time>
      </trkpt>
      <trkpt lat="49.62919" lon="5.47033">
        <ele>324.20001220703</ele>
        <time>2022-02-27T09:31:32.000Z</time>
      </trkpt>
      <trkpt lat="49.62921" lon="5.47036">
        <ele>324.39999389648</ele>
        <time>2022-02-27T09:31:33.000Z</time>
      </trkpt>
      <trkpt lat="49.62931" lon="5.4705">
        <ele>325</ele>
        <time>2022-02-27T09:31:38.000Z</time>
      </trkpt>
      <trkpt lat="49.62933" lon="5.47053">
        <ele>325.20001220703</ele>
        <time>2022-02-27T09:31:39.000Z</time>
      </trkpt>
      <trkpt lat="49.62939" lon="5.47061">
        <ele>325.79998779297</ele>
        <time>2022-02-27T09:31:42.000Z</time>
      </trkpt>
      <trkpt lat="49.62945" lon="5.47067">
        <ele>326.20001220703</ele>
        <time>2022-02-27T09:31:44.000Z</time>
      </trkpt>
      <trkpt lat="49.6295" lon="5.47072">
        <ele>326.60000610352</ele>
        <time>2022-02-27T09:31:46.000Z</time>
      </trkpt>
      <trkpt lat="49.62959" lon="5.47081">
        <ele>327.60000610352</ele>
        <time>2022-02-27T09:31:50.000Z</time>
      </trkpt>
      <trkpt lat="49.62973" lon="5.47094">
        <ele>329.20001220703</ele>
        <time>2022-02-27T09:31:56.000Z</time>
      </trkpt>
      <trkpt lat="49.62976" lon="5.47095">
        <ele>329.39999389648</ele>
        <time>2022-02-27T09:31:57.000Z</time>
      </trkpt>
      <trkpt lat="49.62986" lon="5.47099">
        <ele>330.20001220703</ele>
        <time>2022-02-27T09:32:00.000Z</time>
      </trkpt>
      <trkpt lat="49.62992" lon="5.47101">
        <ele>330.79998779297</ele>
        <time>2022-02-27T09:32:02.000Z</time>
      </trkpt>
      <trkpt lat="49.62995" lon="5.47103">
        <ele>331</ele>
        <time>2022-02-27T09:32:03.000Z</time>
      </trkpt>
      <trkpt lat="49.63003" lon="5.47106">
        <ele>331.79998779297</ele>
        <time>2022-02-27T09:32:06.000Z</time>
      </trkpt>
      <trkpt lat="49.63009" lon="5.47108">
        <ele>332.20001220703</ele>
        <time>2022-02-27T09:32:08.000Z</time>
      </trkpt>
      <trkpt lat="49.63012" lon="5.47108">
        <ele>332.39999389648</ele>
        <time>2022-02-27T09:32:09.000Z</time>
      </trkpt>
      <trkpt lat="49.63019" lon="5.47103">
        <ele>333.60000610352</ele>
        <time>2022-02-27T09:32:12.000Z</time>
      </trkpt>
      <trkpt lat="49.6302" lon="5.471">
        <ele>333.79998779297</ele>
        <time>2022-02-27T09:32:13.000Z</time>
      </trkpt>
      <trkpt lat="49.63019" lon="5.47092">
        <ele>333.79998779297</ele>
        <time>2022-02-27T09:32:15.000Z</time>
      </trkpt>
      <trkpt lat="49.63018" lon="5.47088">
        <ele>333.79998779297</ele>
        <time>2022-02-27T09:32:16.000Z</time>
      </trkpt>
      <trkpt lat="49.63016" lon="5.4708">
        <ele>333.79998779297</ele>
        <time>2022-02-27T09:32:18.000Z</time>
      </trkpt>
      <trkpt lat="49.63008" lon="5.4706">
        <ele>333.20001220703</ele>
        <time>2022-02-27T09:32:22.000Z</time>
      </trkpt>
      <trkpt lat="49.62996" lon="5.4702">
        <ele>331.39999389648</ele>
        <time>2022-02-27T09:32:29.000Z</time>
      </trkpt>
      <trkpt lat="49.62993" lon="5.47002">
        <ele>331</ele>
        <time>2022-02-27T09:32:32.000Z</time>
      </trkpt>
      <trkpt lat="49.62991" lon="5.46977">
        <ele>330.60000610352</ele>
        <time>2022-02-27T09:32:36.000Z</time>
      </trkpt>
      <trkpt lat="49.62986" lon="5.4694">
        <ele>331.39999389648</ele>
        <time>2022-02-27T09:32:41.000Z</time>
      </trkpt>
      <trkpt lat="49.62985" lon="5.46934">
        <ele>331.60000610352</ele>
        <time>2022-02-27T09:32:42.000Z</time>
      </trkpt>
      <trkpt lat="49.62978" lon="5.46898">
        <ele>332</ele>
        <time>2022-02-27T09:32:48.000Z</time>
      </trkpt>
      <trkpt lat="49.62975" lon="5.46854">
        <ele>331.60000610352</ele>
        <time>2022-02-27T09:32:55.000Z</time>
      </trkpt>
      <trkpt lat="49.62973" lon="5.46831">
        <ele>331.39999389648</ele>
        <time>2022-02-27T09:32:59.000Z</time>
      </trkpt>
      <trkpt lat="49.6297" lon="5.46819">
        <ele>331.39999389648</ele>
        <time>2022-02-27T09:33:01.000Z</time>
      </trkpt>
      <trkpt lat="49.62964" lon="5.46773">
        <ele>331.60000610352</ele>
        <time>2022-02-27T09:33:07.000Z</time>
      </trkpt>
      <trkpt lat="49.6296" lon="5.46741">
        <ele>331.60000610352</ele>
        <time>2022-02-27T09:33:11.000Z</time>
      </trkpt>
      <trkpt lat="49.62959" lon="5.46733">
        <ele>331.60000610352</ele>
        <time>2022-02-27T09:33:12.000Z</time>
      </trkpt>
      <trkpt lat="49.62953" lon="5.467">
        <ele>331.20001220703</ele>
        <time>2022-02-27T09:33:16.000Z</time>
      </trkpt>
      <trkpt lat="49.62949" lon="5.46676">
        <ele>331.20001220703</ele>
        <time>2022-02-27T09:33:19.000Z</time>
      </trkpt>
      <trkpt lat="49.62947" lon="5.46669">
        <ele>331.20001220703</ele>
        <time>2022-02-27T09:33:20.000Z</time>
      </trkpt>
      <trkpt lat="49.62935" lon="5.46638">
        <ele>330.39999389648</ele>
        <time>2022-02-27T09:33:24.000Z</time>
      </trkpt>
      <trkpt lat="49.62926" lon="5.46611">
        <ele>329.79998779297</ele>
        <time>2022-02-27T09:33:28.000Z</time>
      </trkpt>
      <trkpt lat="49.62923" lon="5.46596">
        <ele>329.60000610352</ele>
        <time>2022-02-27T09:33:30.000Z</time>
      </trkpt>
      <trkpt lat="49.62918" lon="5.46576">
        <ele>329.39999389648</ele>
        <time>2022-02-27T09:33:33.000Z</time>
      </trkpt>
      <trkpt lat="49.62911" lon="5.46556">
        <ele>329</ele>
        <time>2022-02-27T09:33:36.000Z</time>
      </trkpt>
      <trkpt lat="49.62894" lon="5.46519">
        <ele>331</ele>
        <time>2022-02-27T09:33:42.000Z</time>
      </trkpt>
      <trkpt lat="49.62875" lon="5.46477">
        <ele>334.20001220703</ele>
        <time>2022-02-27T09:33:49.000Z</time>
      </trkpt>
      <trkpt lat="49.62865" lon="5.46462">
        <ele>335.39999389648</ele>
        <time>2022-02-27T09:33:52.000Z</time>
      </trkpt>
      <trkpt lat="49.62859" lon="5.46451">
        <ele>336</ele>
        <time>2022-02-27T09:33:54.000Z</time>
      </trkpt>
      <trkpt lat="49.62856" lon="5.46447">
        <ele>336.39999389648</ele>
        <time>2022-02-27T09:33:55.000Z</time>
      </trkpt>
      <trkpt lat="49.62845" lon="5.46433">
        <ele>337.20001220703</ele>
        <time>2022-02-27T09:33:58.000Z</time>
      </trkpt>
      <trkpt lat="49.62834" lon="5.4642">
        <ele>338.20001220703</ele>
        <time>2022-02-27T09:34:01.000Z</time>
      </trkpt>
      <trkpt lat="49.62831" lon="5.46416">
        <ele>338.39999389648</ele>
        <time>2022-02-27T09:34:02.000Z</time>
      </trkpt>
      <trkpt lat="49.62827" lon="5.46412">
        <ele>338.79998779297</ele>
        <time>2022-02-27T09:34:03.000Z</time>
      </trkpt>
      <trkpt lat="49.62804" lon="5.4639">
        <ele>340</ele>
        <time>2022-02-27T09:34:08.000Z</time>
      </trkpt>
      <trkpt lat="49.628" lon="5.46386">
        <ele>340.20001220703</ele>
        <time>2022-02-27T09:34:09.000Z</time>
      </trkpt>
      <trkpt lat="49.62788" lon="5.46374">
        <ele>340.39999389648</ele>
        <time>2022-02-27T09:34:12.000Z</time>
      </trkpt>
      <trkpt lat="49.62772" lon="5.46359">
        <ele>340</ele>
        <time>2022-02-27T09:34:16.000Z</time>
      </trkpt>
      <trkpt lat="49.62736" lon="5.46325">
        <ele>338.60000610352</ele>
        <time>2022-02-27T09:34:25.000Z</time>
      </trkpt>
      <trkpt lat="49.62701" lon="5.46283">
        <ele>337.60000610352</ele>
        <time>2022-02-27T09:34:33.000Z</time>
      </trkpt>
      <trkpt lat="49.62672" lon="5.46247">
        <ele>338.20001220703</ele>
        <time>2022-02-27T09:34:40.000Z</time>
      </trkpt>
      <trkpt lat="49.62652" lon="5.46222">
        <ele>338.60000610352</ele>
        <time>2022-02-27T09:34:45.000Z</time>
      </trkpt>
      <trkpt lat="49.62627" lon="5.46188">
        <ele>337.20001220703</ele>
        <time>2022-02-27T09:34:51.000Z</time>
      </trkpt>
      <trkpt lat="49.62624" lon="5.46181">
        <ele>336.79998779297</ele>
        <time>2022-02-27T09:34:52.000Z</time>
      </trkpt>
      <trkpt lat="49.62618" lon="5.46157">
        <ele>335.79998779297</ele>
        <time>2022-02-27T09:34:55.000Z</time>
      </trkpt>
      <trkpt lat="49.62604" lon="5.46102">
        <ele>334.20001220703</ele>
        <time>2022-02-27T09:35:01.000Z</time>
      </trkpt>
      <trkpt lat="49.626" lon="5.46093">
        <ele>333.79998779297</ele>
        <time>2022-02-27T09:35:02.000Z</time>
      </trkpt>
      <trkpt lat="49.62583" lon="5.46058">
        <ele>332.79998779297</ele>
        <time>2022-02-27T09:35:06.000Z</time>
      </trkpt>
      <trkpt lat="49.62573" lon="5.4604">
        <ele>332.39999389648</ele>
        <time>2022-02-27T09:35:08.000Z</time>
      </trkpt>
      <trkpt lat="49.62563" lon="5.46022">
        <ele>332.20001220703</ele>
        <time>2022-02-27T09:35:10.000Z</time>
      </trkpt>
      <trkpt lat="49.62548" lon="5.45995">
        <ele>332</ele>
        <time>2022-02-27T09:35:13.000Z</time>
      </trkpt>
      <trkpt lat="49.62539" lon="5.45977">
        <ele>332</ele>
        <time>2022-02-27T09:35:15.000Z</time>
      </trkpt>
      <trkpt lat="49.62524" lon="5.4595">
        <ele>332</ele>
        <time>2022-02-27T09:35:18.000Z</time>
      </trkpt>
      <trkpt lat="49.62507" lon="5.45918">
        <ele>332.20001220703</ele>
        <time>2022-02-27T09:35:22.000Z</time>
      </trkpt>
      <trkpt lat="49.62485" lon="5.4588">
        <ele>332.39999389648</ele>
        <time>2022-02-27T09:35:28.000Z</time>
      </trkpt>
      <trkpt lat="49.62475" lon="5.4586">
        <ele>333.20001220703</ele>
        <time>2022-02-27T09:35:31.000Z</time>
      </trkpt>
      <trkpt lat="49.62466" lon="5.45838">
        <ele>333.79998779297</ele>
        <time>2022-02-27T09:35:34.000Z</time>
      </trkpt>
      <trkpt lat="49.62452" lon="5.45786">
        <ele>334.79998779297</ele>
        <time>2022-02-27T09:35:41.000Z</time>
      </trkpt>
      <trkpt lat="49.6245" lon="5.4578">
        <ele>334.60000610352</ele>
        <time>2022-02-27T09:35:42.000Z</time>
      </trkpt>
      <trkpt lat="49.62445" lon="5.45749">
        <ele>334</ele>
        <time>2022-02-27T09:35:47.000Z</time>
      </trkpt>
      <trkpt lat="49.62447" lon="5.45741">
        <ele>334</ele>
        <time>2022-02-27T09:35:51.000Z</time>
      </trkpt>
      <trkpt lat="49.62448" lon="5.45742">
        <ele>334.20001220703</ele>
        <time>2022-02-27T09:35:54.000Z</time>
      </trkpt>
      <trkpt lat="49.6245" lon="5.45749">
        <ele>334.39999389648</ele>
        <time>2022-02-27T09:35:57.000Z</time>
      </trkpt>
      <trkpt lat="49.62454" lon="5.45756">
        <ele>334.39999389648</ele>
        <time>2022-02-27T09:35:59.000Z</time>
      </trkpt>
      <trkpt lat="49.62459" lon="5.45763">
        <ele>334.39999389648</ele>
        <time>2022-02-27T09:36:01.000Z</time>
      </trkpt>
      <trkpt lat="49.62462" lon="5.45767">
        <ele>334.39999389648</ele>
        <time>2022-02-27T09:36:02.000Z</time>
      </trkpt>
      <trkpt lat="49.62482" lon="5.45799">
        <ele>334.20001220703</ele>
        <time>2022-02-27T09:36:09.000Z</time>
      </trkpt>
      <trkpt lat="49.62488" lon="5.4581">
        <ele>334.20001220703</ele>
        <time>2022-02-27T09:36:11.000Z</time>
      </trkpt>
      <trkpt lat="49.62501" lon="5.45834">
        <ele>333.79998779297</ele>
        <time>2022-02-27T09:36:15.000Z</time>
      </trkpt>
      <trkpt lat="49.62507" lon="5.45846">
        <ele>333.60000610352</ele>
        <time>2022-02-27T09:36:17.000Z</time>
      </trkpt>
      <trkpt lat="49.62513" lon="5.45857">
        <ele>333.60000610352</ele>
        <time>2022-02-27T09:36:19.000Z</time>
      </trkpt>
      <trkpt lat="49.62531" lon="5.45887">
        <ele>332.79998779297</ele>
        <time>2022-02-27T09:36:25.000Z</time>
      </trkpt>
      <trkpt lat="49.62555" lon="5.45913">
        <ele>333.39999389648</ele>
        <time>2022-02-27T09:36:31.000Z</time>
      </trkpt>
      <trkpt lat="49.62585" lon="5.45945">
        <ele>334</ele>
        <time>2022-02-27T09:36:39.000Z</time>
      </trkpt>
      <trkpt lat="49.62608" lon="5.45971">
        <ele>334.60000610352</ele>
        <time>2022-02-27T09:36:45.000Z</time>
      </trkpt>
      <trkpt lat="49.62617" lon="5.4598">
        <ele>335</ele>
        <time>2022-02-27T09:36:47.000Z</time>
      </trkpt>
      <trkpt lat="49.62638" lon="5.46">
        <ele>335.20001220703</ele>
        <time>2022-02-27T09:36:52.000Z</time>
      </trkpt>
      <trkpt lat="49.62664" lon="5.46026">
        <ele>335.60000610352</ele>
        <time>2022-02-27T09:36:59.000Z</time>
      </trkpt>
      <trkpt lat="49.62674" lon="5.46036">
        <ele>335.60000610352</ele>
        <time>2022-02-27T09:37:02.000Z</time>
      </trkpt>
      <trkpt lat="49.62686" lon="5.4605">
        <ele>335.79998779297</ele>
        <time>2022-02-27T09:37:06.000Z</time>
      </trkpt>
      <trkpt lat="49.62705" lon="5.46069">
        <ele>336.79998779297</ele>
        <time>2022-02-27T09:37:12.000Z</time>
      </trkpt>
      <trkpt lat="49.62722" lon="5.46087">
        <ele>338.20001220703</ele>
        <time>2022-02-27T09:37:16.000Z</time>
      </trkpt>
      <trkpt lat="49.6273" lon="5.46095">
        <ele>339</ele>
        <time>2022-02-27T09:37:18.000Z</time>
      </trkpt>
      <trkpt lat="49.62738" lon="5.46104">
        <ele>339.60000610352</ele>
        <time>2022-02-27T09:37:20.000Z</time>
      </trkpt>
      <trkpt lat="49.62757" lon="5.46123">
        <ele>341.20001220703</ele>
        <time>2022-02-27T09:37:25.000Z</time>
      </trkpt>
      <trkpt lat="49.62785" lon="5.46153">
        <ele>343</ele>
        <time>2022-02-27T09:37:31.000Z</time>
      </trkpt>
      <trkpt lat="49.62791" lon="5.46157">
        <ele>342.79998779297</ele>
        <time>2022-02-27T09:37:32.000Z</time>
      </trkpt>
      <trkpt lat="49.62807" lon="5.46171">
        <ele>342.20001220703</ele>
        <time>2022-02-27T09:37:35.000Z</time>
      </trkpt>
      <trkpt lat="49.62829" lon="5.46195">
        <ele>341.39999389648</ele>
        <time>2022-02-27T09:37:41.000Z</time>
      </trkpt>
      <trkpt lat="49.62844" lon="5.46212">
        <ele>341</ele>
        <time>2022-02-27T09:37:45.000Z</time>
      </trkpt>
      <trkpt lat="49.62852" lon="5.46221">
        <ele>340.79998779297</ele>
        <time>2022-02-27T09:37:47.000Z</time>
      </trkpt>
      <trkpt lat="49.62874" lon="5.46245">
        <ele>341.39999389648</ele>
        <time>2022-02-27T09:37:53.000Z</time>
      </trkpt>
      <trkpt lat="49.62887" lon="5.46257">
        <ele>341.20001220703</ele>
        <time>2022-02-27T09:37:57.000Z</time>
      </trkpt>
      <trkpt lat="49.6289" lon="5.46256">
        <ele>340.79998779297</ele>
        <time>2022-02-27T09:37:58.000Z</time>
      </trkpt>
      <trkpt lat="49.62907" lon="5.46243">
        <ele>338.79998779297</ele>
        <time>2022-02-27T09:38:03.000Z</time>
      </trkpt>
      <trkpt lat="49.62912" lon="5.4623">
        <ele>337.39999389648</ele>
        <time>2022-02-27T09:38:06.000Z</time>
      </trkpt>
      <trkpt lat="49.62915" lon="5.46217">
        <ele>336.20001220703</ele>
        <time>2022-02-27T09:38:08.000Z</time>
      </trkpt>
      <trkpt lat="49.62916" lon="5.46194">
        <ele>334.79998779297</ele>
        <time>2022-02-27T09:38:11.000Z</time>
      </trkpt>
      <trkpt lat="49.62916" lon="5.46177">
        <ele>333.60000610352</ele>
        <time>2022-02-27T09:38:13.000Z</time>
      </trkpt>
      <trkpt lat="49.62915" lon="5.46169">
        <ele>333.20001220703</ele>
        <time>2022-02-27T09:38:14.000Z</time>
      </trkpt>
      <trkpt lat="49.62909" lon="5.46141">
        <ele>331.79998779297</ele>
        <time>2022-02-27T09:38:17.000Z</time>
      </trkpt>
      <trkpt lat="49.62907" lon="5.46121">
        <ele>330.39999389648</ele>
        <time>2022-02-27T09:38:19.000Z</time>
      </trkpt>
      <trkpt lat="49.62907" lon="5.46112">
        <ele>329.60000610352</ele>
        <time>2022-02-27T09:38:20.000Z</time>
      </trkpt>
      <trkpt lat="49.62907" lon="5.46093">
        <ele>328</ele>
        <time>2022-02-27T09:38:22.000Z</time>
      </trkpt>
      <trkpt lat="49.62907" lon="5.46082">
        <ele>327.20001220703</ele>
        <time>2022-02-27T09:38:23.000Z</time>
      </trkpt>
      <trkpt lat="49.62906" lon="5.46063">
        <ele>326.39999389648</ele>
        <time>2022-02-27T09:38:26.000Z</time>
      </trkpt>
      <trkpt lat="49.62905" lon="5.46054">
        <ele>326</ele>
        <time>2022-02-27T09:38:27.000Z</time>
      </trkpt>
      <trkpt lat="49.62903" lon="5.46045">
        <ele>326</ele>
        <time>2022-02-27T09:38:28.000Z</time>
      </trkpt>
      <trkpt lat="49.62902" lon="5.46015">
        <ele>325.60000610352</ele>
        <time>2022-02-27T09:38:31.000Z</time>
      </trkpt>
      <trkpt lat="49.62904" lon="5.46005">
        <ele>325.39999389648</ele>
        <time>2022-02-27T09:38:32.000Z</time>
      </trkpt>
      <trkpt lat="49.62905" lon="5.45984">
        <ele>324.39999389648</ele>
        <time>2022-02-27T09:38:34.000Z</time>
      </trkpt>
      <trkpt lat="49.62905" lon="5.45974">
        <ele>324</ele>
        <time>2022-02-27T09:38:35.000Z</time>
      </trkpt>
      <trkpt lat="49.62905" lon="5.45956">
        <ele>323</ele>
        <time>2022-02-27T09:38:37.000Z</time>
      </trkpt>
      <trkpt lat="49.62907" lon="5.45933">
        <ele>321.79998779297</ele>
        <time>2022-02-27T09:38:40.000Z</time>
      </trkpt>
      <trkpt lat="49.62912" lon="5.45911">
        <ele>320.39999389648</ele>
        <time>2022-02-27T09:38:43.000Z</time>
      </trkpt>
      <trkpt lat="49.62914" lon="5.45904">
        <ele>320</ele>
        <time>2022-02-27T09:38:44.000Z</time>
      </trkpt>
      <trkpt lat="49.62927" lon="5.45867">
        <ele>317.39999389648</ele>
        <time>2022-02-27T09:38:49.000Z</time>
      </trkpt>
      <trkpt lat="49.62932" lon="5.45853">
        <ele>316.79998779297</ele>
        <time>2022-02-27T09:38:51.000Z</time>
      </trkpt>
      <trkpt lat="49.62935" lon="5.45847">
        <ele>316.60000610352</ele>
        <time>2022-02-27T09:38:52.000Z</time>
      </trkpt>
      <trkpt lat="49.62942" lon="5.45836">
        <ele>316.39999389648</ele>
        <time>2022-02-27T09:38:54.000Z</time>
      </trkpt>
      <trkpt lat="49.62948" lon="5.45824">
        <ele>316.20001220703</ele>
        <time>2022-02-27T09:38:56.000Z</time>
      </trkpt>
      <trkpt lat="49.62955" lon="5.45805">
        <ele>316.39999389648</ele>
        <time>2022-02-27T09:38:59.000Z</time>
      </trkpt>
      <trkpt lat="49.62968" lon="5.45773">
        <ele>318</ele>
        <time>2022-02-27T09:39:05.000Z</time>
      </trkpt>
      <trkpt lat="49.62971" lon="5.45767">
        <ele>318.39999389648</ele>
        <time>2022-02-27T09:39:06.000Z</time>
      </trkpt>
      <trkpt lat="49.62975" lon="5.45747">
        <ele>319.60000610352</ele>
        <time>2022-02-27T09:39:09.000Z</time>
      </trkpt>
      <trkpt lat="49.62975" lon="5.4574">
        <ele>320</ele>
        <time>2022-02-27T09:39:10.000Z</time>
      </trkpt>
      <trkpt lat="49.62975" lon="5.45712">
        <ele>318.79998779297</ele>
        <time>2022-02-27T09:39:14.000Z</time>
      </trkpt>
      <trkpt lat="49.62973" lon="5.45701">
        <ele>318.39999389648</ele>
        <time>2022-02-27T09:39:16.000Z</time>
      </trkpt>
      <trkpt lat="49.6297" lon="5.45689">
        <ele>318.20001220703</ele>
        <time>2022-02-27T09:39:18.000Z</time>
      </trkpt>
      <trkpt lat="49.62963" lon="5.45665">
        <ele>317.60000610352</ele>
        <time>2022-02-27T09:39:22.000Z</time>
      </trkpt>
      <trkpt lat="49.62966" lon="5.45654">
        <ele>317.20001220703</ele>
        <time>2022-02-27T09:39:24.000Z</time>
      </trkpt>
      <trkpt lat="49.62973" lon="5.45651">
        <ele>316.79998779297</ele>
        <time>2022-02-27T09:39:27.000Z</time>
      </trkpt>
      <trkpt lat="49.62983" lon="5.45655">
        <ele>316.39999389648</ele>
        <time>2022-02-27T09:39:30.000Z</time>
      </trkpt>
      <trkpt lat="49.62991" lon="5.45658">
        <ele>316.20001220703</ele>
        <time>2022-02-27T09:39:32.000Z</time>
      </trkpt>
      <trkpt lat="49.63006" lon="5.45666">
        <ele>315.79998779297</ele>
        <time>2022-02-27T09:39:36.000Z</time>
      </trkpt>
      <trkpt lat="49.63014" lon="5.45671">
        <ele>315.60000610352</ele>
        <time>2022-02-27T09:39:38.000Z</time>
      </trkpt>
      <trkpt lat="49.63056" lon="5.45689">
        <ele>315.20001220703</ele>
        <time>2022-02-27T09:39:47.000Z</time>
      </trkpt>
      <trkpt lat="49.6307" lon="5.45695">
        <ele>315</ele>
        <time>2022-02-27T09:39:50.000Z</time>
      </trkpt>
      <trkpt lat="49.63086" lon="5.45702">
        <ele>315</ele>
        <time>2022-02-27T09:39:54.000Z</time>
      </trkpt>
      <trkpt lat="49.63092" lon="5.45705">
        <ele>315</ele>
        <time>2022-02-27T09:39:56.000Z</time>
      </trkpt>
      <trkpt lat="49.63101" lon="5.45708">
        <ele>315</ele>
        <time>2022-02-27T09:39:59.000Z</time>
      </trkpt>
      <trkpt lat="49.63123" lon="5.45706">
        <ele>314.20001220703</ele>
        <time>2022-02-27T09:40:05.000Z</time>
      </trkpt>
      <trkpt lat="49.63133" lon="5.45698">
        <ele>313.60000610352</ele>
        <time>2022-02-27T09:40:11.000Z</time>
      </trkpt>
      <trkpt lat="49.63141" lon="5.45693">
        <ele>313</ele>
        <time>2022-02-27T09:40:15.000Z</time>
      </trkpt>
      <trkpt lat="49.63144" lon="5.45691">
        <ele>312.79998779297</ele>
        <time>2022-02-27T09:40:16.000Z</time>
      </trkpt>
      <trkpt lat="49.63149" lon="5.45688">
        <ele>312.60000610352</ele>
        <time>2022-02-27T09:40:18.000Z</time>
      </trkpt>
      <trkpt lat="49.63155" lon="5.45684">
        <ele>312.20001220703</ele>
        <time>2022-02-27T09:40:21.000Z</time>
      </trkpt>
      <trkpt lat="49.63157" lon="5.45683">
        <ele>312.20001220703</ele>
        <time>2022-02-27T09:40:22.000Z</time>
      </trkpt>
      <trkpt lat="49.63159" lon="5.45682">
        <ele>312</ele>
        <time>2022-02-27T09:40:23.000Z</time>
      </trkpt>
      <trkpt lat="49.63165" lon="5.45676">
        <ele>311.79998779297</ele>
        <time>2022-02-27T09:40:26.000Z</time>
      </trkpt>
      <trkpt lat="49.63169" lon="5.45673">
        <ele>312</ele>
        <time>2022-02-27T09:40:28.000Z</time>
      </trkpt>
      <trkpt lat="49.63171" lon="5.45672">
        <ele>312</ele>
        <time>2022-02-27T09:40:29.000Z</time>
      </trkpt>
      <trkpt lat="49.63179" lon="5.4567">
        <ele>312.39999389648</ele>
        <time>2022-02-27T09:40:32.000Z</time>
      </trkpt>
      <trkpt lat="49.63185" lon="5.45671">
        <ele>312.60000610352</ele>
        <time>2022-02-27T09:40:35.000Z</time>
      </trkpt>
      <trkpt lat="49.63193" lon="5.45672">
        <ele>313</ele>
        <time>2022-02-27T09:40:39.000Z</time>
      </trkpt>
      <trkpt lat="49.63202" lon="5.45675">
        <ele>313.39999389648</ele>
        <time>2022-02-27T09:40:43.000Z</time>
      </trkpt>
      <trkpt lat="49.63212" lon="5.45679">
        <ele>314.79998779297</ele>
        <time>2022-02-27T09:40:47.000Z</time>
      </trkpt>
      <trkpt lat="49.63219" lon="5.45681">
        <ele>315.79998779297</ele>
        <time>2022-02-27T09:40:50.000Z</time>
      </trkpt>
      <trkpt lat="49.6322" lon="5.45682">
        <ele>316</ele>
        <time>2022-02-27T09:40:51.000Z</time>
      </trkpt>
      <trkpt lat="49.63225" lon="5.45683">
        <ele>316.60000610352</ele>
        <time>2022-02-27T09:40:53.000Z</time>
      </trkpt>
      <trkpt lat="49.63234" lon="5.45688">
        <ele>318</ele>
        <time>2022-02-27T09:40:57.000Z</time>
      </trkpt>
      <trkpt lat="49.63237" lon="5.45689">
        <ele>318.20001220703</ele>
        <time>2022-02-27T09:40:58.000Z</time>
      </trkpt>
      <trkpt lat="49.6324" lon="5.4569">
        <ele>318.60000610352</ele>
        <time>2022-02-27T09:40:59.000Z</time>
      </trkpt>
      <trkpt lat="49.63248" lon="5.45693">
        <ele>319.79998779297</ele>
        <time>2022-02-27T09:41:02.000Z</time>
      </trkpt>
      <trkpt lat="49.63254" lon="5.45695">
        <ele>320.60000610352</ele>
        <time>2022-02-27T09:41:04.000Z</time>
      </trkpt>
      <trkpt lat="49.63257" lon="5.45697">
        <ele>321</ele>
        <time>2022-02-27T09:41:05.000Z</time>
      </trkpt>
      <trkpt lat="49.63269" lon="5.45703">
        <ele>322.60000610352</ele>
        <time>2022-02-27T09:41:09.000Z</time>
      </trkpt>
      <trkpt lat="49.63276" lon="5.45707">
        <ele>323.60000610352</ele>
        <time>2022-02-27T09:41:11.000Z</time>
      </trkpt>
      <trkpt lat="49.63279" lon="5.45708">
        <ele>324.20001220703</ele>
        <time>2022-02-27T09:41:12.000Z</time>
      </trkpt>
      <trkpt lat="49.63291" lon="5.45712">
        <ele>325.60000610352</ele>
        <time>2022-02-27T09:41:15.000Z</time>
      </trkpt>
      <trkpt lat="49.63298" lon="5.45714">
        <ele>326.39999389648</ele>
        <time>2022-02-27T09:41:17.000Z</time>
      </trkpt>
      <trkpt lat="49.63301" lon="5.45714">
        <ele>326.60000610352</ele>
        <time>2022-02-27T09:41:18.000Z</time>
      </trkpt>
      <trkpt lat="49.63313" lon="5.4572">
        <ele>327.79998779297</ele>
        <time>2022-02-27T09:41:22.000Z</time>
      </trkpt>
      <trkpt lat="49.6332" lon="5.45726">
        <ele>328.60000610352</ele>
        <time>2022-02-27T09:41:25.000Z</time>
      </trkpt>
      <trkpt lat="49.63329" lon="5.45731">
        <ele>329.20001220703</ele>
        <time>2022-02-27T09:41:28.000Z</time>
      </trkpt>
      <trkpt lat="49.6334" lon="5.45739">
        <ele>330.20001220703</ele>
        <time>2022-02-27T09:41:33.000Z</time>
      </trkpt>
      <trkpt lat="49.63366" lon="5.45759">
        <ele>332.60000610352</ele>
        <time>2022-02-27T09:41:41.000Z</time>
      </trkpt>
      <trkpt lat="49.63368" lon="5.45763">
        <ele>332.79998779297</ele>
        <time>2022-02-27T09:41:42.000Z</time>
      </trkpt>
      <trkpt lat="49.63386" lon="5.45789">
        <ele>333.20001220703</ele>
        <time>2022-02-27T09:41:48.000Z</time>
      </trkpt>
      <trkpt lat="49.63404" lon="5.45818">
        <ele>334.20001220703</ele>
        <time>2022-02-27T09:41:54.000Z</time>
      </trkpt>
      <trkpt lat="49.6342" lon="5.4585">
        <ele>335</ele>
        <time>2022-02-27T09:42:00.000Z</time>
      </trkpt>
      <trkpt lat="49.63431" lon="5.4587">
        <ele>335</ele>
        <time>2022-02-27T09:42:04.000Z</time>
      </trkpt>
      <trkpt lat="49.63436" lon="5.4588">
        <ele>335</ele>
        <time>2022-02-27T09:42:06.000Z</time>
      </trkpt>
      <trkpt lat="49.63459" lon="5.45915">
        <ele>336.39999389648</ele>
        <time>2022-02-27T09:42:13.000Z</time>
      </trkpt>
      <trkpt lat="49.63463" lon="5.4592">
        <ele>336.60000610352</ele>
        <time>2022-02-27T09:42:14.000Z</time>
      </trkpt>
      <trkpt lat="49.63488" lon="5.45953">
        <ele>337.60000610352</ele>
        <time>2022-02-27T09:42:21.000Z</time>
      </trkpt>
      <trkpt lat="49.63492" lon="5.45958">
        <ele>337.60000610352</ele>
        <time>2022-02-27T09:42:22.000Z</time>
      </trkpt>
      <trkpt lat="49.63504" lon="5.45987">
        <ele>337.79998779297</ele>
        <time>2022-02-27T09:42:27.000Z</time>
      </trkpt>
      <trkpt lat="49.63509" lon="5.45997">
        <ele>338</ele>
        <time>2022-02-27T09:42:29.000Z</time>
      </trkpt>
      <trkpt lat="49.63519" lon="5.46021">
        <ele>338.20001220703</ele>
        <time>2022-02-27T09:42:33.000Z</time>
      </trkpt>
      <trkpt lat="49.63528" lon="5.46041">
        <ele>338.60000610352</ele>
        <time>2022-02-27T09:42:36.000Z</time>
      </trkpt>
      <trkpt lat="49.63539" lon="5.46065">
        <ele>338.39999389648</ele>
        <time>2022-02-27T09:42:40.000Z</time>
      </trkpt>
      <trkpt lat="49.63548" lon="5.46083">
        <ele>338.20001220703</ele>
        <time>2022-02-27T09:42:43.000Z</time>
      </trkpt>
      <trkpt lat="49.63563" lon="5.46107">
        <ele>338.20001220703</ele>
        <time>2022-02-27T09:42:47.000Z</time>
      </trkpt>
      <trkpt lat="49.63588" lon="5.46133">
        <ele>338.79998779297</ele>
        <time>2022-02-27T09:42:53.000Z</time>
      </trkpt>
      <trkpt lat="49.63614" lon="5.46161">
        <ele>340.39999389648</ele>
        <time>2022-02-27T09:42:59.000Z</time>
      </trkpt>
      <trkpt lat="49.63646" lon="5.46196">
        <ele>340.60000610352</ele>
        <time>2022-02-27T09:43:06.000Z</time>
      </trkpt>
      <trkpt lat="49.63661" lon="5.4621">
        <ele>340.60000610352</ele>
        <time>2022-02-27T09:43:09.000Z</time>
      </trkpt>
      <trkpt lat="49.63667" lon="5.46213">
        <ele>340.60000610352</ele>
        <time>2022-02-27T09:43:10.000Z</time>
      </trkpt>
      <trkpt lat="49.63678" lon="5.46218">
        <ele>340.79998779297</ele>
        <time>2022-02-27T09:43:12.000Z</time>
      </trkpt>
      <trkpt lat="49.63689" lon="5.4622">
        <ele>340.79998779297</ele>
        <time>2022-02-27T09:43:14.000Z</time>
      </trkpt>
      <trkpt lat="49.637" lon="5.4622">
        <ele>341</ele>
        <time>2022-02-27T09:43:16.000Z</time>
      </trkpt>
      <trkpt lat="49.63705" lon="5.46219">
        <ele>341</ele>
        <time>2022-02-27T09:43:17.000Z</time>
      </trkpt>
      <trkpt lat="49.63716" lon="5.46219">
        <ele>340.60000610352</ele>
        <time>2022-02-27T09:43:19.000Z</time>
      </trkpt>
      <trkpt lat="49.63732" lon="5.46218">
        <ele>340</ele>
        <time>2022-02-27T09:43:22.000Z</time>
      </trkpt>
      <trkpt lat="49.63737" lon="5.46218">
        <ele>339.79998779297</ele>
        <time>2022-02-27T09:43:23.000Z</time>
      </trkpt>
      <trkpt lat="49.63742" lon="5.46218">
        <ele>339.60000610352</ele>
        <time>2022-02-27T09:43:24.000Z</time>
      </trkpt>
      <trkpt lat="49.6377" lon="5.4622">
        <ele>338.60000610352</ele>
        <time>2022-02-27T09:43:29.000Z</time>
      </trkpt>
      <trkpt lat="49.6378" lon="5.4622">
        <ele>338.20001220703</ele>
        <time>2022-02-27T09:43:31.000Z</time>
      </trkpt>
      <trkpt lat="49.63785" lon="5.46221">
        <ele>338.20001220703</ele>
        <time>2022-02-27T09:43:32.000Z</time>
      </trkpt>
      <trkpt lat="49.63801" lon="5.46219">
        <ele>337.79998779297</ele>
        <time>2022-02-27T09:43:35.000Z</time>
      </trkpt>
      <trkpt lat="49.63814" lon="5.46219">
        <ele>337.60000610352</ele>
        <time>2022-02-27T09:43:37.000Z</time>
      </trkpt>
      <trkpt lat="49.63843" lon="5.46217">
        <ele>337.20001220703</ele>
        <time>2022-02-27T09:43:42.000Z</time>
      </trkpt>
      <trkpt lat="49.63849" lon="5.46217">
        <ele>337.20001220703</ele>
        <time>2022-02-27T09:43:43.000Z</time>
      </trkpt>
      <trkpt lat="49.63869" lon="5.46216">
        <ele>337</ele>
        <time>2022-02-27T09:43:46.000Z</time>
      </trkpt>
      <trkpt lat="49.63883" lon="5.46217">
        <ele>338.39999389648</ele>
        <time>2022-02-27T09:43:48.000Z</time>
      </trkpt>
      <trkpt lat="49.6389" lon="5.46217">
        <ele>339</ele>
        <time>2022-02-27T09:43:49.000Z</time>
      </trkpt>
      <trkpt lat="49.63896" lon="5.46217">
        <ele>339.60000610352</ele>
        <time>2022-02-27T09:43:50.000Z</time>
      </trkpt>
      <trkpt lat="49.63901" lon="5.46216">
        <ele>340</ele>
        <time>2022-02-27T09:43:51.000Z</time>
      </trkpt>
      <trkpt lat="49.63911" lon="5.46213">
        <ele>341.20001220703</ele>
        <time>2022-02-27T09:43:53.000Z</time>
      </trkpt>
      <trkpt lat="49.63921" lon="5.46208">
        <ele>342.39999389648</ele>
        <time>2022-02-27T09:43:55.000Z</time>
      </trkpt>
      <trkpt lat="49.63931" lon="5.46201">
        <ele>343.79998779297</ele>
        <time>2022-02-27T09:43:57.000Z</time>
      </trkpt>
      <trkpt lat="49.63942" lon="5.46194">
        <ele>345</ele>
        <time>2022-02-27T09:43:59.000Z</time>
      </trkpt>
      <trkpt lat="49.63952" lon="5.46188">
        <ele>346</ele>
        <time>2022-02-27T09:44:01.000Z</time>
      </trkpt>
      <trkpt lat="49.63964" lon="5.46184">
        <ele>346.79998779297</ele>
        <time>2022-02-27T09:44:03.000Z</time>
      </trkpt>
      <trkpt lat="49.63979" lon="5.4618">
        <ele>347.60000610352</ele>
        <time>2022-02-27T09:44:06.000Z</time>
      </trkpt>
      <trkpt lat="49.64" lon="5.4618">
        <ele>348.60000610352</ele>
        <time>2022-02-27T09:44:10.000Z</time>
      </trkpt>
      <trkpt lat="49.64011" lon="5.46181">
        <ele>348.79998779297</ele>
        <time>2022-02-27T09:44:12.000Z</time>
      </trkpt>
      <trkpt lat="49.64031" lon="5.46183">
        <ele>349</ele>
        <time>2022-02-27T09:44:16.000Z</time>
      </trkpt>
      <trkpt lat="49.64074" lon="5.46185">
        <ele>350</ele>
        <time>2022-02-27T09:44:24.000Z</time>
      </trkpt>
      <trkpt lat="49.64102" lon="5.46187">
        <ele>350.39999389648</ele>
        <time>2022-02-27T09:44:29.000Z</time>
      </trkpt>
      <trkpt lat="49.64113" lon="5.46187">
        <ele>350.60000610352</ele>
        <time>2022-02-27T09:44:31.000Z</time>
      </trkpt>
      <trkpt lat="49.64128" lon="5.46186">
        <ele>350.20001220703</ele>
        <time>2022-02-27T09:44:33.000Z</time>
      </trkpt>
      <trkpt lat="49.64135" lon="5.46184">
        <ele>349.79998779297</ele>
        <time>2022-02-27T09:44:34.000Z</time>
      </trkpt>
      <trkpt lat="49.64143" lon="5.46182">
        <ele>349.39999389648</ele>
        <time>2022-02-27T09:44:35.000Z</time>
      </trkpt>
      <trkpt lat="49.64173" lon="5.46166">
        <ele>348.79998779297</ele>
        <time>2022-02-27T09:44:39.000Z</time>
      </trkpt>
      <trkpt lat="49.64193" lon="5.46158">
        <ele>349</ele>
        <time>2022-02-27T09:44:41.000Z</time>
      </trkpt>
      <trkpt lat="49.64203" lon="5.46155">
        <ele>349.20001220703</ele>
        <time>2022-02-27T09:44:42.000Z</time>
      </trkpt>
      <trkpt lat="49.64214" lon="5.46152">
        <ele>348.39999389648</ele>
        <time>2022-02-27T09:44:43.000Z</time>
      </trkpt>
      <trkpt lat="49.64226" lon="5.4615">
        <ele>347.39999389648</ele>
        <time>2022-02-27T09:44:44.000Z</time>
      </trkpt>
      <trkpt lat="49.64237" lon="5.46148">
        <ele>346.39999389648</ele>
        <time>2022-02-27T09:44:45.000Z</time>
      </trkpt>
      <trkpt lat="49.64248" lon="5.46147">
        <ele>345.20001220703</ele>
        <time>2022-02-27T09:44:46.000Z</time>
      </trkpt>
      <trkpt lat="49.64259" lon="5.46148">
        <ele>344.20001220703</ele>
        <time>2022-02-27T09:44:47.000Z</time>
      </trkpt>
      <trkpt lat="49.6427" lon="5.46149">
        <ele>343</ele>
        <time>2022-02-27T09:44:48.000Z</time>
      </trkpt>
      <trkpt lat="49.64281" lon="5.46151">
        <ele>342</ele>
        <time>2022-02-27T09:44:49.000Z</time>
      </trkpt>
      <trkpt lat="49.64291" lon="5.46155">
        <ele>341.20001220703</ele>
        <time>2022-02-27T09:44:50.000Z</time>
      </trkpt>
      <trkpt lat="49.64311" lon="5.4616">
        <ele>339.79998779297</ele>
        <time>2022-02-27T09:44:52.000Z</time>
      </trkpt>
      <trkpt lat="49.6433" lon="5.46165">
        <ele>338.39999389648</ele>
        <time>2022-02-27T09:44:54.000Z</time>
      </trkpt>
      <trkpt lat="49.64348" lon="5.46168">
        <ele>337</ele>
        <time>2022-02-27T09:44:56.000Z</time>
      </trkpt>
      <trkpt lat="49.64367" lon="5.46168">
        <ele>335.79998779297</ele>
        <time>2022-02-27T09:44:58.000Z</time>
      </trkpt>
      <trkpt lat="49.64376" lon="5.46167">
        <ele>335.60000610352</ele>
        <time>2022-02-27T09:44:59.000Z</time>
      </trkpt>
      <trkpt lat="49.64413" lon="5.46155">
        <ele>335.20001220703</ele>
        <time>2022-02-27T09:45:03.000Z</time>
      </trkpt>
      <trkpt lat="49.6443" lon="5.46149">
        <ele>334.79998779297</ele>
        <time>2022-02-27T09:45:05.000Z</time>
      </trkpt>
      <trkpt lat="49.64453" lon="5.4614">
        <ele>334</ele>
        <time>2022-02-27T09:45:08.000Z</time>
      </trkpt>
      <trkpt lat="49.64483" lon="5.46121">
        <ele>333.60000610352</ele>
        <time>2022-02-27T09:45:13.000Z</time>
      </trkpt>
      <trkpt lat="49.64493" lon="5.46115">
        <ele>333.39999389648</ele>
        <time>2022-02-27T09:45:15.000Z</time>
      </trkpt>
      <trkpt lat="49.64525" lon="5.46098">
        <ele>333</ele>
        <time>2022-02-27T09:45:21.000Z</time>
      </trkpt>
      <trkpt lat="49.64547" lon="5.46088">
        <ele>334</ele>
        <time>2022-02-27T09:45:25.000Z</time>
      </trkpt>
      <trkpt lat="49.64562" lon="5.46081">
        <ele>335.60000610352</ele>
        <time>2022-02-27T09:45:28.000Z</time>
      </trkpt>
      <trkpt lat="49.64566" lon="5.46078">
        <ele>336</ele>
        <time>2022-02-27T09:45:29.000Z</time>
      </trkpt>
      <trkpt lat="49.64574" lon="5.46074">
        <ele>336.60000610352</ele>
        <time>2022-02-27T09:45:31.000Z</time>
      </trkpt>
      <trkpt lat="49.6458" lon="5.46069">
        <ele>337.20001220703</ele>
        <time>2022-02-27T09:45:33.000Z</time>
      </trkpt>
      <trkpt lat="49.64586" lon="5.46063">
        <ele>337.79998779297</ele>
        <time>2022-02-27T09:45:35.000Z</time>
      </trkpt>
      <trkpt lat="49.64594" lon="5.46056">
        <ele>338.39999389648</ele>
        <time>2022-02-27T09:45:37.000Z</time>
      </trkpt>
      <trkpt lat="49.64603" lon="5.4605">
        <ele>339.20001220703</ele>
        <time>2022-02-27T09:45:39.000Z</time>
      </trkpt>
      <trkpt lat="49.64612" lon="5.46044">
        <ele>340.39999389648</ele>
        <time>2022-02-27T09:45:41.000Z</time>
      </trkpt>
      <trkpt lat="49.64622" lon="5.46037">
        <ele>341.39999389648</ele>
        <time>2022-02-27T09:45:43.000Z</time>
      </trkpt>
      <trkpt lat="49.64636" lon="5.4603">
        <ele>343</ele>
        <time>2022-02-27T09:45:46.000Z</time>
      </trkpt>
      <trkpt lat="49.6465" lon="5.46025">
        <ele>344.60000610352</ele>
        <time>2022-02-27T09:45:49.000Z</time>
      </trkpt>
      <trkpt lat="49.64655" lon="5.46024">
        <ele>345.20001220703</ele>
        <time>2022-02-27T09:45:50.000Z</time>
      </trkpt>
      <trkpt lat="49.64677" lon="5.46021">
        <ele>347.39999389648</ele>
        <time>2022-02-27T09:45:55.000Z</time>
      </trkpt>
      <trkpt lat="49.64708" lon="5.46016">
        <ele>348.39999389648</ele>
        <time>2022-02-27T09:46:01.000Z</time>
      </trkpt>
      <trkpt lat="49.64712" lon="5.46015">
        <ele>348.39999389648</ele>
        <time>2022-02-27T09:46:02.000Z</time>
      </trkpt>
      <trkpt lat="49.6474" lon="5.4601">
        <ele>348.60000610352</ele>
        <time>2022-02-27T09:46:08.000Z</time>
      </trkpt>
      <trkpt lat="49.64774" lon="5.46009">
        <ele>349</ele>
        <time>2022-02-27T09:46:15.000Z</time>
      </trkpt>
      <trkpt lat="49.648" lon="5.4601">
        <ele>348.79998779297</ele>
        <time>2022-02-27T09:46:21.000Z</time>
      </trkpt>
      <trkpt lat="49.64805" lon="5.4601">
        <ele>348.60000610352</ele>
        <time>2022-02-27T09:46:22.000Z</time>
      </trkpt>
      <trkpt lat="49.64833" lon="5.46011">
        <ele>348</ele>
        <time>2022-02-27T09:46:28.000Z</time>
      </trkpt>
      <trkpt lat="49.64874" lon="5.46017">
        <ele>348.60000610352</ele>
        <time>2022-02-27T09:46:35.000Z</time>
      </trkpt>
      <trkpt lat="49.64907" lon="5.46022">
        <ele>349.20001220703</ele>
        <time>2022-02-27T09:46:41.000Z</time>
      </trkpt>
      <trkpt lat="49.64927" lon="5.46025">
        <ele>349.39999389648</ele>
        <time>2022-02-27T09:46:45.000Z</time>
      </trkpt>
      <trkpt lat="49.64937" lon="5.46026">
        <ele>349.39999389648</ele>
        <time>2022-02-27T09:46:47.000Z</time>
      </trkpt>
      <trkpt lat="49.64971" lon="5.46029">
        <ele>349.39999389648</ele>
        <time>2022-02-27T09:46:53.000Z</time>
      </trkpt>
      <trkpt lat="49.64976" lon="5.4603">
        <ele>349.60000610352</ele>
        <time>2022-02-27T09:46:54.000Z</time>
      </trkpt>
      <trkpt lat="49.64993" lon="5.4603">
        <ele>349.79998779297</ele>
        <time>2022-02-27T09:46:57.000Z</time>
      </trkpt>
      <trkpt lat="49.65004" lon="5.46032">
        <ele>350</ele>
        <time>2022-02-27T09:46:59.000Z</time>
      </trkpt>
      <trkpt lat="49.65016" lon="5.46033">
        <ele>350.20001220703</ele>
        <time>2022-02-27T09:47:01.000Z</time>
      </trkpt>
      <trkpt lat="49.65027" lon="5.46035">
        <ele>350.39999389648</ele>
        <time>2022-02-27T09:47:03.000Z</time>
      </trkpt>
      <trkpt lat="49.65036" lon="5.46038">
        <ele>350.79998779297</ele>
        <time>2022-02-27T09:47:05.000Z</time>
      </trkpt>
      <trkpt lat="49.65045" lon="5.46042">
        <ele>351.39999389648</ele>
        <time>2022-02-27T09:47:07.000Z</time>
      </trkpt>
      <trkpt lat="49.65055" lon="5.46046">
        <ele>352</ele>
        <time>2022-02-27T09:47:09.000Z</time>
      </trkpt>
      <trkpt lat="49.65069" lon="5.46054">
        <ele>353</ele>
        <time>2022-02-27T09:47:12.000Z</time>
      </trkpt>
      <trkpt lat="49.65078" lon="5.46059">
        <ele>353.60000610352</ele>
        <time>2022-02-27T09:47:14.000Z</time>
      </trkpt>
      <trkpt lat="49.65092" lon="5.46067">
        <ele>354.60000610352</ele>
        <time>2022-02-27T09:47:17.000Z</time>
      </trkpt>
      <trkpt lat="49.65106" lon="5.46078">
        <ele>355.60000610352</ele>
        <time>2022-02-27T09:47:20.000Z</time>
      </trkpt>
      <trkpt lat="49.6511" lon="5.46081">
        <ele>355.79998779297</ele>
        <time>2022-02-27T09:47:21.000Z</time>
      </trkpt>
      <trkpt lat="49.65118" lon="5.46088">
        <ele>356.39999389648</ele>
        <time>2022-02-27T09:47:23.000Z</time>
      </trkpt>
      <trkpt lat="49.65137" lon="5.46101">
        <ele>356.79998779297</ele>
        <time>2022-02-27T09:47:27.000Z</time>
      </trkpt>
      <trkpt lat="49.65168" lon="5.46116">
        <ele>357.39999389648</ele>
        <time>2022-02-27T09:47:32.000Z</time>
      </trkpt>
      <trkpt lat="49.6519" lon="5.46126">
        <ele>357.79998779297</ele>
        <time>2022-02-27T09:47:35.000Z</time>
      </trkpt>
      <trkpt lat="49.65206" lon="5.46133">
        <ele>357.79998779297</ele>
        <time>2022-02-27T09:47:37.000Z</time>
      </trkpt>
      <trkpt lat="49.65221" lon="5.4614">
        <ele>356.79998779297</ele>
        <time>2022-02-27T09:47:39.000Z</time>
      </trkpt>
      <trkpt lat="49.6523" lon="5.46143">
        <ele>356.39999389648</ele>
        <time>2022-02-27T09:47:40.000Z</time>
      </trkpt>
      <trkpt lat="49.65251" lon="5.46155">
        <ele>354.79998779297</ele>
        <time>2022-02-27T09:47:43.000Z</time>
      </trkpt>
      <trkpt lat="49.65257" lon="5.46158">
        <ele>354.60000610352</ele>
        <time>2022-02-27T09:47:44.000Z</time>
      </trkpt>
      <trkpt lat="49.65266" lon="5.46164">
        <ele>353.79998779297</ele>
        <time>2022-02-27T09:47:46.000Z</time>
      </trkpt>
      <trkpt lat="49.65268" lon="5.46174">
        <ele>353.39999389648</ele>
        <time>2022-02-27T09:47:48.000Z</time>
      </trkpt>
      <trkpt lat="49.65265" lon="5.46184">
        <ele>353.20001220703</ele>
        <time>2022-02-27T09:47:50.000Z</time>
      </trkpt>
      <trkpt lat="49.65262" lon="5.46189">
        <ele>353.20001220703</ele>
        <time>2022-02-27T09:47:51.000Z</time>
      </trkpt>
      <trkpt lat="49.65247" lon="5.4623">
        <ele>353.60000610352</ele>
        <time>2022-02-27T09:47:57.000Z</time>
      </trkpt>
      <trkpt lat="49.65223" lon="5.46285">
        <ele>354.60000610352</ele>
        <time>2022-02-27T09:48:05.000Z</time>
      </trkpt>
      <trkpt lat="49.65203" lon="5.46325">
        <ele>355</ele>
        <time>2022-02-27T09:48:11.000Z</time>
      </trkpt>
      <trkpt lat="49.65175" lon="5.46378">
        <ele>352.60000610352</ele>
        <time>2022-02-27T09:48:19.000Z</time>
      </trkpt>
      <trkpt lat="49.65149" lon="5.46411">
        <ele>350.60000610352</ele>
        <time>2022-02-27T09:48:25.000Z</time>
      </trkpt>
      <trkpt lat="49.65144" lon="5.46416">
        <ele>350.39999389648</ele>
        <time>2022-02-27T09:48:26.000Z</time>
      </trkpt>
      <trkpt lat="49.65121" lon="5.46439">
        <ele>349.60000610352</ele>
        <time>2022-02-27T09:48:31.000Z</time>
      </trkpt>
      <trkpt lat="49.65106" lon="5.46451">
        <ele>349.20001220703</ele>
        <time>2022-02-27T09:48:34.000Z</time>
      </trkpt>
      <trkpt lat="49.65092" lon="5.46461">
        <ele>349.39999389648</ele>
        <time>2022-02-27T09:48:37.000Z</time>
      </trkpt>
      <trkpt lat="49.65083" lon="5.46467">
        <ele>349.39999389648</ele>
        <time>2022-02-27T09:48:39.000Z</time>
      </trkpt>
      <trkpt lat="49.65049" lon="5.46484">
        <ele>349.79998779297</ele>
        <time>2022-02-27T09:48:46.000Z</time>
      </trkpt>
      <trkpt lat="49.6503" lon="5.4649">
        <ele>350.39999389648</ele>
        <time>2022-02-27T09:48:50.000Z</time>
      </trkpt>
      <trkpt lat="49.65015" lon="5.46495">
        <ele>350.60000610352</ele>
        <time>2022-02-27T09:48:53.000Z</time>
      </trkpt>
      <trkpt lat="49.64988" lon="5.46507">
        <ele>351.39999389648</ele>
        <time>2022-02-27T09:48:58.000Z</time>
      </trkpt>
      <trkpt lat="49.64977" lon="5.46512">
        <ele>352.20001220703</ele>
        <time>2022-02-27T09:49:00.000Z</time>
      </trkpt>
      <trkpt lat="49.6493" lon="5.46531">
        <ele>354.20001220703</ele>
        <time>2022-02-27T09:49:08.000Z</time>
      </trkpt>
      <trkpt lat="49.64891" lon="5.46547">
        <ele>353</ele>
        <time>2022-02-27T09:49:15.000Z</time>
      </trkpt>
      <trkpt lat="49.64879" lon="5.46551">
        <ele>352.60000610352</ele>
        <time>2022-02-27T09:49:17.000Z</time>
      </trkpt>
      <trkpt lat="49.64855" lon="5.4656">
        <ele>352.79998779297</ele>
        <time>2022-02-27T09:49:21.000Z</time>
      </trkpt>
      <trkpt lat="49.64849" lon="5.46562">
        <ele>352.79998779297</ele>
        <time>2022-02-27T09:49:22.000Z</time>
      </trkpt>
      <trkpt lat="49.64824" lon="5.46572">
        <ele>353.39999389648</ele>
        <time>2022-02-27T09:49:26.000Z</time>
      </trkpt>
      <trkpt lat="49.64812" lon="5.46578">
        <ele>353.60000610352</ele>
        <time>2022-02-27T09:49:28.000Z</time>
      </trkpt>
      <trkpt lat="49.64806" lon="5.4658">
        <ele>353.20001220703</ele>
        <time>2022-02-27T09:49:29.000Z</time>
      </trkpt>
      <trkpt lat="49.6476" lon="5.466">
        <ele>351</ele>
        <time>2022-02-27T09:49:36.000Z</time>
      </trkpt>
      <trkpt lat="49.64718" lon="5.46614">
        <ele>349.20001220703</ele>
        <time>2022-02-27T09:49:43.000Z</time>
      </trkpt>
      <trkpt lat="49.64699" lon="5.46621">
        <ele>348.60000610352</ele>
        <time>2022-02-27T09:49:46.000Z</time>
      </trkpt>
      <trkpt lat="49.6468" lon="5.46628">
        <ele>347.79998779297</ele>
        <time>2022-02-27T09:49:49.000Z</time>
      </trkpt>
      <trkpt lat="49.64645" lon="5.46643">
        <ele>346.39999389648</ele>
        <time>2022-02-27T09:49:55.000Z</time>
      </trkpt>
      <trkpt lat="49.6464" lon="5.46646">
        <ele>346.39999389648</ele>
        <time>2022-02-27T09:49:56.000Z</time>
      </trkpt>
      <trkpt lat="49.64623" lon="5.46653">
        <ele>345.39999389648</ele>
        <time>2022-02-27T09:49:59.000Z</time>
      </trkpt>
      <trkpt lat="49.64617" lon="5.46654">
        <ele>345.20001220703</ele>
        <time>2022-02-27T09:50:00.000Z</time>
      </trkpt>
      <trkpt lat="49.646" lon="5.4666">
        <ele>345</ele>
        <time>2022-02-27T09:50:03.000Z</time>
      </trkpt>
      <trkpt lat="49.64583" lon="5.46667">
        <ele>345</ele>
        <time>2022-02-27T09:50:06.000Z</time>
      </trkpt>
      <trkpt lat="49.64577" lon="5.46669">
        <ele>345</ele>
        <time>2022-02-27T09:50:07.000Z</time>
      </trkpt>
      <trkpt lat="49.64535" lon="5.46686">
        <ele>342</ele>
        <time>2022-02-27T09:50:14.000Z</time>
      </trkpt>
      <trkpt lat="49.64529" lon="5.46688">
        <ele>341.79998779297</ele>
        <time>2022-02-27T09:50:15.000Z</time>
      </trkpt>
      <trkpt lat="49.64508" lon="5.46696">
        <ele>341</ele>
        <time>2022-02-27T09:50:19.000Z</time>
      </trkpt>
      <trkpt lat="49.64503" lon="5.46697">
        <ele>340.79998779297</ele>
        <time>2022-02-27T09:50:20.000Z</time>
      </trkpt>
      <trkpt lat="49.64474" lon="5.46719">
        <ele>340.20001220703</ele>
        <time>2022-02-27T09:50:26.000Z</time>
      </trkpt>
      <trkpt lat="49.6447" lon="5.46737">
        <ele>340.39999389648</ele>
        <time>2022-02-27T09:50:29.000Z</time>
      </trkpt>
      <trkpt lat="49.64471" lon="5.46746">
        <ele>340.39999389648</ele>
        <time>2022-02-27T09:50:30.000Z</time>
      </trkpt>
      <trkpt lat="49.64473" lon="5.4677">
        <ele>340.60000610352</ele>
        <time>2022-02-27T09:50:33.000Z</time>
      </trkpt>
      <trkpt lat="49.64476" lon="5.46789">
        <ele>340.60000610352</ele>
        <time>2022-02-27T09:50:35.000Z</time>
      </trkpt>
      <trkpt lat="49.64478" lon="5.46798">
        <ele>340.60000610352</ele>
        <time>2022-02-27T09:50:36.000Z</time>
      </trkpt>
      <trkpt lat="49.64487" lon="5.46832">
        <ele>341.20001220703</ele>
        <time>2022-02-27T09:50:40.000Z</time>
      </trkpt>
      <trkpt lat="49.64503" lon="5.469">
        <ele>342.60000610352</ele>
        <time>2022-02-27T09:50:48.000Z</time>
      </trkpt>
      <trkpt lat="49.64508" lon="5.46932">
        <ele>342.60000610352</ele>
        <time>2022-02-27T09:50:52.000Z</time>
      </trkpt>
      <trkpt lat="49.64508" lon="5.46948">
        <ele>342.79998779297</ele>
        <time>2022-02-27T09:50:54.000Z</time>
      </trkpt>
      <trkpt lat="49.6451" lon="5.46998">
        <ele>343.60000610352</ele>
        <time>2022-02-27T09:51:00.000Z</time>
      </trkpt>
      <trkpt lat="49.64511" lon="5.47022">
        <ele>344</ele>
        <time>2022-02-27T09:51:03.000Z</time>
      </trkpt>
      <trkpt lat="49.64512" lon="5.47038">
        <ele>344.20001220703</ele>
        <time>2022-02-27T09:51:05.000Z</time>
      </trkpt>
      <trkpt lat="49.64514" lon="5.47046">
        <ele>344.39999389648</ele>
        <time>2022-02-27T09:51:06.000Z</time>
      </trkpt>
      <trkpt lat="49.64522" lon="5.4708">
        <ele>345.39999389648</ele>
        <time>2022-02-27T09:51:10.000Z</time>
      </trkpt>
      <trkpt lat="49.64539" lon="5.4714">
        <ele>347.20001220703</ele>
        <time>2022-02-27T09:51:17.000Z</time>
      </trkpt>
      <trkpt lat="49.64549" lon="5.47179">
        <ele>348.39999389648</ele>
        <time>2022-02-27T09:51:22.000Z</time>
      </trkpt>
      <trkpt lat="49.64551" lon="5.47186">
        <ele>348.60000610352</ele>
        <time>2022-02-27T09:51:23.000Z</time>
      </trkpt>
      <trkpt lat="49.64557" lon="5.47207">
        <ele>349.20001220703</ele>
        <time>2022-02-27T09:51:26.000Z</time>
      </trkpt>
      <trkpt lat="49.64562" lon="5.47221">
        <ele>349.39999389648</ele>
        <time>2022-02-27T09:51:28.000Z</time>
      </trkpt>
      <trkpt lat="49.64572" lon="5.47239">
        <ele>348.79998779297</ele>
        <time>2022-02-27T09:51:31.000Z</time>
      </trkpt>
      <trkpt lat="49.6458" lon="5.47251">
        <ele>348.39999389648</ele>
        <time>2022-02-27T09:51:33.000Z</time>
      </trkpt>
      <trkpt lat="49.64589" lon="5.47269">
        <ele>347.79998779297</ele>
        <time>2022-02-27T09:51:36.000Z</time>
      </trkpt>
      <trkpt lat="49.64598" lon="5.47284">
        <ele>347.20001220703</ele>
        <time>2022-02-27T09:51:39.000Z</time>
      </trkpt>
      <trkpt lat="49.64603" lon="5.47309">
        <ele>346.79998779297</ele>
        <time>2022-02-27T09:51:43.000Z</time>
      </trkpt>
      <trkpt lat="49.64595" lon="5.47322">
        <ele>347.20001220703</ele>
        <time>2022-02-27T09:51:46.000Z</time>
      </trkpt>
      <trkpt lat="49.64592" lon="5.47327">
        <ele>347.39999389648</ele>
        <time>2022-02-27T09:51:47.000Z</time>
      </trkpt>
      <trkpt lat="49.64575" lon="5.47345">
        <ele>348</ele>
        <time>2022-02-27T09:51:51.000Z</time>
      </trkpt>
      <trkpt lat="49.64571" lon="5.47349">
        <ele>348.39999389648</ele>
        <time>2022-02-27T09:51:52.000Z</time>
      </trkpt>
      <trkpt lat="49.6455" lon="5.47363">
        <ele>349.39999389648</ele>
        <time>2022-02-27T09:51:56.000Z</time>
      </trkpt>
      <trkpt lat="49.64538" lon="5.4737">
        <ele>350</ele>
        <time>2022-02-27T09:51:58.000Z</time>
      </trkpt>
      <trkpt lat="49.645" lon="5.47396">
        <ele>350.60000610352</ele>
        <time>2022-02-27T09:52:05.000Z</time>
      </trkpt>
      <trkpt lat="49.64464" lon="5.4742">
        <ele>353</ele>
        <time>2022-02-27T09:52:12.000Z</time>
      </trkpt>
      <trkpt lat="49.64453" lon="5.47426">
        <ele>354.39999389648</ele>
        <time>2022-02-27T09:52:14.000Z</time>
      </trkpt>
      <trkpt lat="49.64432" lon="5.47433">
        <ele>355</ele>
        <time>2022-02-27T09:52:18.000Z</time>
      </trkpt>
      <trkpt lat="49.64393" lon="5.47443">
        <ele>356.79998779297</ele>
        <time>2022-02-27T09:52:25.000Z</time>
      </trkpt>
      <trkpt lat="49.64378" lon="5.47448">
        <ele>357.60000610352</ele>
        <time>2022-02-27T09:52:28.000Z</time>
      </trkpt>
      <trkpt lat="49.64361" lon="5.47455">
        <ele>358.39999389648</ele>
        <time>2022-02-27T09:52:31.000Z</time>
      </trkpt>
      <trkpt lat="49.6434" lon="5.47467">
        <ele>358</ele>
        <time>2022-02-27T09:52:35.000Z</time>
      </trkpt>
      <trkpt lat="49.64328" lon="5.47473">
        <ele>357.60000610352</ele>
        <time>2022-02-27T09:52:37.000Z</time>
      </trkpt>
      <trkpt lat="49.64312" lon="5.4748">
        <ele>357</ele>
        <time>2022-02-27T09:52:40.000Z</time>
      </trkpt>
      <trkpt lat="49.64303" lon="5.47484">
        <ele>356.60000610352</ele>
        <time>2022-02-27T09:52:42.000Z</time>
      </trkpt>
      <trkpt lat="49.64292" lon="5.47487">
        <ele>356.20001220703</ele>
        <time>2022-02-27T09:52:44.000Z</time>
      </trkpt>
      <trkpt lat="49.64282" lon="5.47489">
        <ele>356</ele>
        <time>2022-02-27T09:52:46.000Z</time>
      </trkpt>
      <trkpt lat="49.64262" lon="5.47492">
        <ele>356</ele>
        <time>2022-02-27T09:52:50.000Z</time>
      </trkpt>
      <trkpt lat="49.64257" lon="5.47493">
        <ele>356</ele>
        <time>2022-02-27T09:52:51.000Z</time>
      </trkpt>
      <trkpt lat="49.64252" lon="5.47493">
        <ele>356</ele>
        <time>2022-02-27T09:52:52.000Z</time>
      </trkpt>
      <trkpt lat="49.64211" lon="5.47498">
        <ele>356.20001220703</ele>
        <time>2022-02-27T09:53:00.000Z</time>
      </trkpt>
      <trkpt lat="49.64175" lon="5.47508">
        <ele>357.39999389648</ele>
        <time>2022-02-27T09:53:07.000Z</time>
      </trkpt>
      <trkpt lat="49.64143" lon="5.4752">
        <ele>358</ele>
        <time>2022-02-27T09:53:13.000Z</time>
      </trkpt>
      <trkpt lat="49.64114" lon="5.47528">
        <ele>358.20001220703</ele>
        <time>2022-02-27T09:53:19.000Z</time>
      </trkpt>
      <trkpt lat="49.64095" lon="5.4755">
        <ele>357.20001220703</ele>
        <time>2022-02-27T09:53:24.000Z</time>
      </trkpt>
      <trkpt lat="49.64076" lon="5.47577">
        <ele>355.79998779297</ele>
        <time>2022-02-27T09:53:29.000Z</time>
      </trkpt>
      <trkpt lat="49.64069" lon="5.47589">
        <ele>355</ele>
        <time>2022-02-27T09:53:31.000Z</time>
      </trkpt>
      <trkpt lat="49.64061" lon="5.47604">
        <ele>354</ele>
        <time>2022-02-27T09:53:33.000Z</time>
      </trkpt>
      <trkpt lat="49.64052" lon="5.4762">
        <ele>352.60000610352</ele>
        <time>2022-02-27T09:53:35.000Z</time>
      </trkpt>
      <trkpt lat="49.6404" lon="5.4764">
        <ele>351.20001220703</ele>
        <time>2022-02-27T09:53:37.000Z</time>
      </trkpt>
      <trkpt lat="49.64027" lon="5.47664">
        <ele>350.79998779297</ele>
        <time>2022-02-27T09:53:40.000Z</time>
      </trkpt>
      <trkpt lat="49.6402" lon="5.47678">
        <ele>350.60000610352</ele>
        <time>2022-02-27T09:53:42.000Z</time>
      </trkpt>
      <trkpt lat="49.6401" lon="5.47696">
        <ele>350.39999389648</ele>
        <time>2022-02-27T09:53:45.000Z</time>
      </trkpt>
      <trkpt lat="49.64007" lon="5.477">
        <ele>350.20001220703</ele>
        <time>2022-02-27T09:53:46.000Z</time>
      </trkpt>
      <trkpt lat="49.64004" lon="5.47703">
        <ele>350.20001220703</ele>
        <time>2022-02-27T09:53:47.000Z</time>
      </trkpt>
      <trkpt lat="49.63982" lon="5.47728">
        <ele>349.39999389648</ele>
        <time>2022-02-27T09:53:54.000Z</time>
      </trkpt>
      <trkpt lat="49.6397" lon="5.47745">
        <ele>349.20001220703</ele>
        <time>2022-02-27T09:53:58.000Z</time>
      </trkpt>
      <trkpt lat="49.63966" lon="5.4775">
        <ele>349</ele>
        <time>2022-02-27T09:53:59.000Z</time>
      </trkpt>
      <trkpt lat="49.63954" lon="5.4777">
        <ele>348.39999389648</ele>
        <time>2022-02-27T09:54:03.000Z</time>
      </trkpt>
      <trkpt lat="49.63951" lon="5.47779">
        <ele>348.39999389648</ele>
        <time>2022-02-27T09:54:05.000Z</time>
      </trkpt>
      <trkpt lat="49.63945" lon="5.47804">
        <ele>347.79998779297</ele>
        <time>2022-02-27T09:54:10.000Z</time>
      </trkpt>
      <trkpt lat="49.63944" lon="5.4781">
        <ele>347.79998779297</ele>
        <time>2022-02-27T09:54:11.000Z</time>
      </trkpt>
      <trkpt lat="49.63941" lon="5.47822">
        <ele>347.39999389648</ele>
        <time>2022-02-27T09:54:13.000Z</time>
      </trkpt>
      <trkpt lat="49.63935" lon="5.47846">
        <ele>346.79998779297</ele>
        <time>2022-02-27T09:54:17.000Z</time>
      </trkpt>
      <trkpt lat="49.63924" lon="5.47878">
        <ele>345.60000610352</ele>
        <time>2022-02-27T09:54:22.000Z</time>
      </trkpt>
      <trkpt lat="49.63911" lon="5.47905">
        <ele>344</ele>
        <time>2022-02-27T09:54:27.000Z</time>
      </trkpt>
      <trkpt lat="49.63908" lon="5.47908">
        <ele>343.79998779297</ele>
        <time>2022-02-27T09:54:28.000Z</time>
      </trkpt>
      <trkpt lat="49.63893" lon="5.47923">
        <ele>342.79998779297</ele>
        <time>2022-02-27T09:54:33.000Z</time>
      </trkpt>
      <trkpt lat="49.63879" lon="5.47942">
        <ele>342</ele>
        <time>2022-02-27T09:54:37.000Z</time>
      </trkpt>
      <trkpt lat="49.63876" lon="5.47945">
        <ele>341.79998779297</ele>
        <time>2022-02-27T09:54:38.000Z</time>
      </trkpt>
      <trkpt lat="49.63856" lon="5.47957">
        <ele>340.79998779297</ele>
        <time>2022-02-27T09:54:43.000Z</time>
      </trkpt>
      <trkpt lat="49.63851" lon="5.47959">
        <ele>340.60000610352</ele>
        <time>2022-02-27T09:54:44.000Z</time>
      </trkpt>
      <trkpt lat="49.63823" lon="5.47976">
        <ele>339.20001220703</ele>
        <time>2022-02-27T09:54:50.000Z</time>
      </trkpt>
      <trkpt lat="49.63801" lon="5.47985">
        <ele>338.39999389648</ele>
        <time>2022-02-27T09:54:56.000Z</time>
      </trkpt>
      <trkpt lat="49.63797" lon="5.47987">
        <ele>338.20001220703</ele>
        <time>2022-02-27T09:54:57.000Z</time>
      </trkpt>
      <trkpt lat="49.63782" lon="5.47993">
        <ele>338</ele>
        <time>2022-02-27T09:55:01.000Z</time>
      </trkpt>
      <trkpt lat="49.63761" lon="5.48005">
        <ele>338</ele>
        <time>2022-02-27T09:55:06.000Z</time>
      </trkpt>
      <trkpt lat="49.63756" lon="5.48007">
        <ele>338</ele>
        <time>2022-02-27T09:55:07.000Z</time>
      </trkpt>
      <trkpt lat="49.63746" lon="5.48014">
        <ele>338</ele>
        <time>2022-02-27T09:55:09.000Z</time>
      </trkpt>
      <trkpt lat="49.63737" lon="5.48019">
        <ele>337.79998779297</ele>
        <time>2022-02-27T09:55:11.000Z</time>
      </trkpt>
      <trkpt lat="49.63732" lon="5.48021">
        <ele>337.60000610352</ele>
        <time>2022-02-27T09:55:12.000Z</time>
      </trkpt>
      <trkpt lat="49.63727" lon="5.48023">
        <ele>337.60000610352</ele>
        <time>2022-02-27T09:55:13.000Z</time>
      </trkpt>
      <trkpt lat="49.63717" lon="5.48029">
        <ele>337.39999389648</ele>
        <time>2022-02-27T09:55:16.000Z</time>
      </trkpt>
      <trkpt lat="49.63714" lon="5.48031">
        <ele>337.39999389648</ele>
        <time>2022-02-27T09:55:17.000Z</time>
      </trkpt>
      <trkpt lat="49.63695" lon="5.48038">
        <ele>337</ele>
        <time>2022-02-27T09:55:22.000Z</time>
      </trkpt>
      <trkpt lat="49.63687" lon="5.4804">
        <ele>336.79998779297</ele>
        <time>2022-02-27T09:55:24.000Z</time>
      </trkpt>
      <trkpt lat="49.63672" lon="5.4804">
        <ele>336.39999389648</ele>
        <time>2022-02-27T09:55:27.000Z</time>
      </trkpt>
      <trkpt lat="49.63656" lon="5.48036">
        <ele>336</ele>
        <time>2022-02-27T09:55:30.000Z</time>
      </trkpt>
      <trkpt lat="49.63641" lon="5.48029">
        <ele>335.79998779297</ele>
        <time>2022-02-27T09:55:33.000Z</time>
      </trkpt>
      <trkpt lat="49.63635" lon="5.48027">
        <ele>335.60000610352</ele>
        <time>2022-02-27T09:55:34.000Z</time>
      </trkpt>
      <trkpt lat="49.63614" lon="5.48017">
        <ele>335</ele>
        <time>2022-02-27T09:55:38.000Z</time>
      </trkpt>
      <trkpt lat="49.636" lon="5.48012">
        <ele>334</ele>
        <time>2022-02-27T09:55:41.000Z</time>
      </trkpt>
      <trkpt lat="49.63586" lon="5.48006">
        <ele>333.20001220703</ele>
        <time>2022-02-27T09:55:44.000Z</time>
      </trkpt>
      <trkpt lat="49.63582" lon="5.48006">
        <ele>332.79998779297</ele>
        <time>2022-02-27T09:55:45.000Z</time>
      </trkpt>
      <trkpt lat="49.63577" lon="5.48006">
        <ele>332.60000610352</ele>
        <time>2022-02-27T09:55:46.000Z</time>
      </trkpt>
      <trkpt lat="49.63568" lon="5.48006">
        <ele>331.79998779297</ele>
        <time>2022-02-27T09:55:48.000Z</time>
      </trkpt>
      <trkpt lat="49.63562" lon="5.4801">
        <ele>331.20001220703</ele>
        <time>2022-02-27T09:55:50.000Z</time>
      </trkpt>
      <trkpt lat="49.63558" lon="5.48011">
        <ele>330.79998779297</ele>
        <time>2022-02-27T09:55:51.000Z</time>
      </trkpt>
      <trkpt lat="49.63548" lon="5.48016">
        <ele>329.79998779297</ele>
        <time>2022-02-27T09:55:54.000Z</time>
      </trkpt>
      <trkpt lat="49.63544" lon="5.48018">
        <ele>329.39999389648</ele>
        <time>2022-02-27T09:55:55.000Z</time>
      </trkpt>
      <trkpt lat="49.63536" lon="5.48023">
        <ele>328.60000610352</ele>
        <time>2022-02-27T09:55:57.000Z</time>
      </trkpt>
      <trkpt lat="49.63522" lon="5.48032">
        <ele>327.79998779297</ele>
        <time>2022-02-27T09:56:00.000Z</time>
      </trkpt>
      <trkpt lat="49.63513" lon="5.48037">
        <ele>326.79998779297</ele>
        <time>2022-02-27T09:56:02.000Z</time>
      </trkpt>
      <trkpt lat="49.63505" lon="5.4804">
        <ele>325.79998779297</ele>
        <time>2022-02-27T09:56:04.000Z</time>
      </trkpt>
      <trkpt lat="49.63497" lon="5.48045">
        <ele>324.60000610352</ele>
        <time>2022-02-27T09:56:06.000Z</time>
      </trkpt>
      <trkpt lat="49.6349" lon="5.48052">
        <ele>323.39999389648</ele>
        <time>2022-02-27T09:56:08.000Z</time>
      </trkpt>
      <trkpt lat="49.63483" lon="5.48056">
        <ele>322.20001220703</ele>
        <time>2022-02-27T09:56:10.000Z</time>
      </trkpt>
      <trkpt lat="49.63477" lon="5.4806">
        <ele>321.39999389648</ele>
        <time>2022-02-27T09:56:12.000Z</time>
      </trkpt>
      <trkpt lat="49.6347" lon="5.48067">
        <ele>320</ele>
        <time>2022-02-27T09:56:14.000Z</time>
      </trkpt>
      <trkpt lat="49.63461" lon="5.48073">
        <ele>317.79998779297</ele>
        <time>2022-02-27T09:56:16.000Z</time>
      </trkpt>
      <trkpt lat="49.63451" lon="5.48077">
        <ele>316.20001220703</ele>
        <time>2022-02-27T09:56:18.000Z</time>
      </trkpt>
      <trkpt lat="49.63447" lon="5.48078">
        <ele>316.20001220703</ele>
        <time>2022-02-27T09:56:19.000Z</time>
      </trkpt>
      <trkpt lat="49.63442" lon="5.48079">
        <ele>316.39999389648</ele>
        <time>2022-02-27T09:56:20.000Z</time>
      </trkpt>
      <trkpt lat="49.63437" lon="5.48079">
        <ele>316.79998779297</ele>
        <time>2022-02-27T09:56:21.000Z</time>
      </trkpt>
      <trkpt lat="49.63428" lon="5.48077">
        <ele>317.39999389648</ele>
        <time>2022-02-27T09:56:23.000Z</time>
      </trkpt>
      <trkpt lat="49.63423" lon="5.48076">
        <ele>318</ele>
        <time>2022-02-27T09:56:24.000Z</time>
      </trkpt>
      <trkpt lat="49.63408" lon="5.48077">
        <ele>318.60000610352</ele>
        <time>2022-02-27T09:56:27.000Z</time>
      </trkpt>
      <trkpt lat="49.63403" lon="5.48082">
        <ele>318.20001220703</ele>
        <time>2022-02-27T09:56:28.000Z</time>
      </trkpt>
      <trkpt lat="49.63389" lon="5.48104">
        <ele>313.60000610352</ele>
        <time>2022-02-27T09:56:32.000Z</time>
      </trkpt>
      <trkpt lat="49.63386" lon="5.4811">
        <ele>312.20001220703</ele>
        <time>2022-02-27T09:56:33.000Z</time>
      </trkpt>
      <trkpt lat="49.63369" lon="5.48133">
        <ele>307</ele>
        <time>2022-02-27T09:56:38.000Z</time>
      </trkpt>
      <trkpt lat="49.63364" lon="5.48141">
        <ele>306</ele>
        <time>2022-02-27T09:56:40.000Z</time>
      </trkpt>
      <trkpt lat="49.63355" lon="5.48152">
        <ele>304.79998779297</ele>
        <time>2022-02-27T09:56:43.000Z</time>
      </trkpt>
      <trkpt lat="49.6335" lon="5.48157">
        <ele>304.39999389648</ele>
        <time>2022-02-27T09:56:45.000Z</time>
      </trkpt>
      <trkpt lat="49.63325" lon="5.48181">
        <ele>302.39999389648</ele>
        <time>2022-02-27T09:56:52.000Z</time>
      </trkpt>
      <trkpt lat="49.63317" lon="5.48184">
        <ele>302.39999389648</ele>
        <time>2022-02-27T09:56:54.000Z</time>
      </trkpt>
      <trkpt lat="49.63298" lon="5.48193">
        <ele>301.39999389648</ele>
        <time>2022-02-27T09:56:58.000Z</time>
      </trkpt>
      <trkpt lat="49.63266" lon="5.48211">
        <ele>300.20001220703</ele>
        <time>2022-02-27T09:57:04.000Z</time>
      </trkpt>
      <trkpt lat="49.63243" lon="5.48234">
        <ele>300.60000610352</ele>
        <time>2022-02-27T09:57:10.000Z</time>
      </trkpt>
      <trkpt lat="49.63226" lon="5.48249">
        <ele>300</ele>
        <time>2022-02-27T09:57:15.000Z</time>
      </trkpt>
      <trkpt lat="49.63202" lon="5.48266">
        <ele>295.20001220703</ele>
        <time>2022-02-27T09:57:21.000Z</time>
      </trkpt>
      <trkpt lat="49.63178" lon="5.48277">
        <ele>294.20001220703</ele>
        <time>2022-02-27T09:57:27.000Z</time>
      </trkpt>
      <trkpt lat="49.63153" lon="5.48288">
        <ele>292.79998779297</ele>
        <time>2022-02-27T09:57:32.000Z</time>
      </trkpt>
      <trkpt lat="49.63148" lon="5.48289">
        <ele>292.79998779297</ele>
        <time>2022-02-27T09:57:33.000Z</time>
      </trkpt>
      <trkpt lat="49.63113" lon="5.483">
        <ele>292</ele>
        <time>2022-02-27T09:57:40.000Z</time>
      </trkpt>
      <trkpt lat="49.63086" lon="5.48308">
        <ele>291.79998779297</ele>
        <time>2022-02-27T09:57:46.000Z</time>
      </trkpt>
      <trkpt lat="49.6306" lon="5.48307">
        <ele>291.79998779297</ele>
        <time>2022-02-27T09:57:52.000Z</time>
      </trkpt>
      <trkpt lat="49.63036" lon="5.48307">
        <ele>291.39999389648</ele>
        <time>2022-02-27T09:57:56.000Z</time>
      </trkpt>
      <trkpt lat="49.63029" lon="5.48306">
        <ele>291.39999389648</ele>
        <time>2022-02-27T09:57:57.000Z</time>
      </trkpt>
      <trkpt lat="49.63024" lon="5.48305">
        <ele>291.60000610352</ele>
        <time>2022-02-27T09:57:58.000Z</time>
      </trkpt>
      <trkpt lat="49.62992" lon="5.48306">
        <ele>291.39999389648</ele>
        <time>2022-02-27T09:58:03.000Z</time>
      </trkpt>
      <trkpt lat="49.6298" lon="5.48303">
        <ele>291.79998779297</ele>
        <time>2022-02-27T09:58:05.000Z</time>
      </trkpt>
      <trkpt lat="49.62951" lon="5.48301">
        <ele>291.79998779297</ele>
        <time>2022-02-27T09:58:10.000Z</time>
      </trkpt>
      <trkpt lat="49.62924" lon="5.48295">
        <ele>293.60000610352</ele>
        <time>2022-02-27T09:58:15.000Z</time>
      </trkpt>
      <trkpt lat="49.62918" lon="5.48295">
        <ele>293.60000610352</ele>
        <time>2022-02-27T09:58:16.000Z</time>
      </trkpt>
      <trkpt lat="49.62897" lon="5.48297">
        <ele>294</ele>
        <time>2022-02-27T09:58:20.000Z</time>
      </trkpt>
      <trkpt lat="49.62891" lon="5.48296">
        <ele>294.20001220703</ele>
        <time>2022-02-27T09:58:21.000Z</time>
      </trkpt>
      <trkpt lat="49.62886" lon="5.48297">
        <ele>294</ele>
        <time>2022-02-27T09:58:22.000Z</time>
      </trkpt>
      <trkpt lat="49.62871" lon="5.48302">
        <ele>293.79998779297</ele>
        <time>2022-02-27T09:58:25.000Z</time>
      </trkpt>
      <trkpt lat="49.62849" lon="5.48307">
        <ele>297</ele>
        <time>2022-02-27T09:58:30.000Z</time>
      </trkpt>
      <trkpt lat="49.62834" lon="5.48315">
        <ele>299</ele>
        <time>2022-02-27T09:58:33.000Z</time>
      </trkpt>
      <trkpt lat="49.62823" lon="5.48324">
        <ele>299.60000610352</ele>
        <time>2022-02-27T09:58:35.000Z</time>
      </trkpt>
      <trkpt lat="49.62813" lon="5.48334">
        <ele>299.60000610352</ele>
        <time>2022-02-27T09:58:37.000Z</time>
      </trkpt>
      <trkpt lat="49.6281" lon="5.48338">
        <ele>299.20001220703</ele>
        <time>2022-02-27T09:58:38.000Z</time>
      </trkpt>
      <trkpt lat="49.62797" lon="5.48356">
        <ele>297.39999389648</ele>
        <time>2022-02-27T09:58:41.000Z</time>
      </trkpt>
      <trkpt lat="49.62783" lon="5.48376">
        <ele>295</ele>
        <time>2022-02-27T09:58:44.000Z</time>
      </trkpt>
      <trkpt lat="49.62768" lon="5.48399">
        <ele>293.20001220703</ele>
        <time>2022-02-27T09:58:48.000Z</time>
      </trkpt>
      <trkpt lat="49.62753" lon="5.48421">
        <ele>292.20001220703</ele>
        <time>2022-02-27T09:58:52.000Z</time>
      </trkpt>
      <trkpt lat="49.62742" lon="5.48437">
        <ele>291.79998779297</ele>
        <time>2022-02-27T09:58:55.000Z</time>
      </trkpt>
      <trkpt lat="49.62736" lon="5.48448">
        <ele>291.79998779297</ele>
        <time>2022-02-27T09:58:57.000Z</time>
      </trkpt>
      <trkpt lat="49.62724" lon="5.48467">
        <ele>291.60000610352</ele>
        <time>2022-02-27T09:59:01.000Z</time>
      </trkpt>
      <trkpt lat="49.62703" lon="5.48506">
        <ele>291.60000610352</ele>
        <time>2022-02-27T09:59:07.000Z</time>
      </trkpt>
      <trkpt lat="49.62687" lon="5.48544">
        <ele>290.60000610352</ele>
        <time>2022-02-27T09:59:13.000Z</time>
      </trkpt>
      <trkpt lat="49.62674" lon="5.48581">
        <ele>286.79998779297</ele>
        <time>2022-02-27T09:59:18.000Z</time>
      </trkpt>
      <trkpt lat="49.62668" lon="5.48596">
        <ele>285.20001220703</ele>
        <time>2022-02-27T09:59:20.000Z</time>
      </trkpt>
      <trkpt lat="49.62646" lon="5.48629">
        <ele>282.39999389648</ele>
        <time>2022-02-27T09:59:25.000Z</time>
      </trkpt>
      <trkpt lat="49.62641" lon="5.48634">
        <ele>282.20001220703</ele>
        <time>2022-02-27T09:59:26.000Z</time>
      </trkpt>
      <trkpt lat="49.62629" lon="5.48645">
        <ele>283.20001220703</ele>
        <time>2022-02-27T09:59:28.000Z</time>
      </trkpt>
      <trkpt lat="49.62617" lon="5.48651">
        <ele>282.60000610352</ele>
        <time>2022-02-27T09:59:30.000Z</time>
      </trkpt>
      <trkpt lat="49.62605" lon="5.48654">
        <ele>283.79998779297</ele>
        <time>2022-02-27T09:59:32.000Z</time>
      </trkpt>
      <trkpt lat="49.62594" lon="5.48654">
        <ele>285.60000610352</ele>
        <time>2022-02-27T09:59:34.000Z</time>
      </trkpt>
      <trkpt lat="49.62563" lon="5.48659">
        <ele>289.60000610352</ele>
        <time>2022-02-27T09:59:39.000Z</time>
      </trkpt>
      <trkpt lat="49.62556" lon="5.48662">
        <ele>290</ele>
        <time>2022-02-27T09:59:40.000Z</time>
      </trkpt>
      <trkpt lat="49.62551" lon="5.48664">
        <ele>290.39999389648</ele>
        <time>2022-02-27T09:59:41.000Z</time>
      </trkpt>
      <trkpt lat="49.62531" lon="5.48686">
        <ele>289.39999389648</ele>
        <time>2022-02-27T09:59:44.000Z</time>
      </trkpt>
      <trkpt lat="49.62526" lon="5.48692">
        <ele>288.79998779297</ele>
        <time>2022-02-27T09:59:45.000Z</time>
      </trkpt>
      <trkpt lat="49.62516" lon="5.48704">
        <ele>288.60000610352</ele>
        <time>2022-02-27T09:59:47.000Z</time>
      </trkpt>
      <trkpt lat="49.62499" lon="5.48723">
        <ele>290.60000610352</ele>
        <time>2022-02-27T09:59:51.000Z</time>
      </trkpt>
      <trkpt lat="49.6249" lon="5.4874">
        <ele>289.79998779297</ele>
        <time>2022-02-27T09:59:54.000Z</time>
      </trkpt>
      <trkpt lat="49.62484" lon="5.4875">
        <ele>289.39999389648</ele>
        <time>2022-02-27T09:59:56.000Z</time>
      </trkpt>
      <trkpt lat="49.62481" lon="5.48755">
        <ele>289.20001220703</ele>
        <time>2022-02-27T09:59:57.000Z</time>
      </trkpt>
      <trkpt lat="49.62463" lon="5.48782">
        <ele>287.79998779297</ele>
        <time>2022-02-27T10:00:01.000Z</time>
      </trkpt>
      <trkpt lat="49.62452" lon="5.488">
        <ele>287</ele>
        <time>2022-02-27T10:00:04.000Z</time>
      </trkpt>
      <trkpt lat="49.62439" lon="5.48818">
        <ele>283</ele>
        <time>2022-02-27T10:00:08.000Z</time>
      </trkpt>
      <trkpt lat="49.62431" lon="5.48826">
        <ele>281.39999389648</ele>
        <time>2022-02-27T10:00:10.000Z</time>
      </trkpt>
      <trkpt lat="49.62413" lon="5.48838">
        <ele>278.79998779297</ele>
        <time>2022-02-27T10:00:14.000Z</time>
      </trkpt>
      <trkpt lat="49.62395" lon="5.48844">
        <ele>278.39999389648</ele>
        <time>2022-02-27T10:00:17.000Z</time>
      </trkpt>
      <trkpt lat="49.62383" lon="5.48843">
        <ele>279.39999389648</ele>
        <time>2022-02-27T10:00:19.000Z</time>
      </trkpt>
      <trkpt lat="49.62378" lon="5.48841">
        <ele>280</ele>
        <time>2022-02-27T10:00:20.000Z</time>
      </trkpt>
      <trkpt lat="49.62354" lon="5.48833">
        <ele>283.60000610352</ele>
        <time>2022-02-27T10:00:24.000Z</time>
      </trkpt>
      <trkpt lat="49.62342" lon="5.48827">
        <ele>286</ele>
        <time>2022-02-27T10:00:26.000Z</time>
      </trkpt>
      <trkpt lat="49.62328" lon="5.48812">
        <ele>290</ele>
        <time>2022-02-27T10:00:28.000Z</time>
      </trkpt>
      <trkpt lat="49.62322" lon="5.48805">
        <ele>291.79998779297</ele>
        <time>2022-02-27T10:00:29.000Z</time>
      </trkpt>
      <trkpt lat="49.62317" lon="5.48798">
        <ele>293.20001220703</ele>
        <time>2022-02-27T10:00:30.000Z</time>
      </trkpt>
      <trkpt lat="49.62311" lon="5.48787">
        <ele>294.20001220703</ele>
        <time>2022-02-27T10:00:32.000Z</time>
      </trkpt>
      <trkpt lat="49.62307" lon="5.48771">
        <ele>295</ele>
        <time>2022-02-27T10:00:35.000Z</time>
      </trkpt>
      <trkpt lat="49.62306" lon="5.48767">
        <ele>295.20001220703</ele>
        <time>2022-02-27T10:00:36.000Z</time>
      </trkpt>
      <trkpt lat="49.62305" lon="5.48758">
        <ele>295.60000610352</ele>
        <time>2022-02-27T10:00:38.000Z</time>
      </trkpt>
      <trkpt lat="49.62305" lon="5.48743">
        <ele>296</ele>
        <time>2022-02-27T10:00:41.000Z</time>
      </trkpt>
      <trkpt lat="49.62306" lon="5.48713">
        <ele>298.20001220703</ele>
        <time>2022-02-27T10:00:46.000Z</time>
      </trkpt>
      <trkpt lat="49.62304" lon="5.48692">
        <ele>298.60000610352</ele>
        <time>2022-02-27T10:00:50.000Z</time>
      </trkpt>
      <trkpt lat="49.62304" lon="5.48688">
        <ele>298.79998779297</ele>
        <time>2022-02-27T10:00:51.000Z</time>
      </trkpt>
      <trkpt lat="49.62301" lon="5.48681">
        <ele>299</ele>
        <time>2022-02-27T10:00:53.000Z</time>
      </trkpt>
      <trkpt lat="49.62295" lon="5.48669">
        <ele>299.60000610352</ele>
        <time>2022-02-27T10:00:56.000Z</time>
      </trkpt>
      <trkpt lat="49.62293" lon="5.48666">
        <ele>299.79998779297</ele>
        <time>2022-02-27T10:00:57.000Z</time>
      </trkpt>
      <trkpt lat="49.62285" lon="5.48654">
        <ele>300.60000610352</ele>
        <time>2022-02-27T10:01:00.000Z</time>
      </trkpt>
      <trkpt lat="49.62273" lon="5.4864">
        <ele>301.60000610352</ele>
        <time>2022-02-27T10:01:02.000Z</time>
      </trkpt>
      <trkpt lat="49.62258" lon="5.48624">
        <ele>303.39999389648</ele>
        <time>2022-02-27T10:01:05.000Z</time>
      </trkpt>
      <trkpt lat="49.62249" lon="5.48618">
        <ele>304.20001220703</ele>
        <time>2022-02-27T10:01:08.000Z</time>
      </trkpt>
      <trkpt lat="49.62241" lon="5.48618">
        <ele>304.79998779297</ele>
        <time>2022-02-27T10:01:10.000Z</time>
      </trkpt>
      <trkpt lat="49.62234" lon="5.48619">
        <ele>305</ele>
        <time>2022-02-27T10:01:12.000Z</time>
      </trkpt>
      <trkpt lat="49.62231" lon="5.48621">
        <ele>305.20001220703</ele>
        <time>2022-02-27T10:01:13.000Z</time>
      </trkpt>
      <trkpt lat="49.62228" lon="5.48625">
        <ele>305</ele>
        <time>2022-02-27T10:01:14.000Z</time>
      </trkpt>
      <trkpt lat="49.62227" lon="5.4863">
        <ele>304.79998779297</ele>
        <time>2022-02-27T10:01:15.000Z</time>
      </trkpt>
      <trkpt lat="49.62226" lon="5.48635">
        <ele>304.60000610352</ele>
        <time>2022-02-27T10:01:16.000Z</time>
      </trkpt>
      <trkpt lat="49.62225" lon="5.48647">
        <ele>304.20001220703</ele>
        <time>2022-02-27T10:01:18.000Z</time>
      </trkpt>
      <trkpt lat="49.62224" lon="5.48671">
        <ele>303.20001220703</ele>
        <time>2022-02-27T10:01:22.000Z</time>
      </trkpt>
      <trkpt lat="49.62224" lon="5.4869">
        <ele>302.20001220703</ele>
        <time>2022-02-27T10:01:25.000Z</time>
      </trkpt>
      <trkpt lat="49.62221" lon="5.48704">
        <ele>301.20001220703</ele>
        <time>2022-02-27T10:01:28.000Z</time>
      </trkpt>
      <trkpt lat="49.62216" lon="5.48711">
        <ele>301</ele>
        <time>2022-02-27T10:01:30.000Z</time>
      </trkpt>
      <trkpt lat="49.62212" lon="5.48711">
        <ele>301</ele>
        <time>2022-02-27T10:01:31.000Z</time>
      </trkpt>
      <trkpt lat="49.62208" lon="5.4871">
        <ele>301.20001220703</ele>
        <time>2022-02-27T10:01:32.000Z</time>
      </trkpt>
      <trkpt lat="49.62198" lon="5.48705">
        <ele>302</ele>
        <time>2022-02-27T10:01:34.000Z</time>
      </trkpt>
      <trkpt lat="49.6219" lon="5.48698">
        <ele>303.20001220703</ele>
        <time>2022-02-27T10:01:36.000Z</time>
      </trkpt>
      <trkpt lat="49.62186" lon="5.48694">
        <ele>303.79998779297</ele>
        <time>2022-02-27T10:01:37.000Z</time>
      </trkpt>
      <trkpt lat="49.62173" lon="5.48677">
        <ele>305.79998779297</ele>
        <time>2022-02-27T10:01:41.000Z</time>
      </trkpt>
      <trkpt lat="49.62166" lon="5.48668">
        <ele>306.79998779297</ele>
        <time>2022-02-27T10:01:43.000Z</time>
      </trkpt>
      <trkpt lat="49.62164" lon="5.48663">
        <ele>307.39999389648</ele>
        <time>2022-02-27T10:01:44.000Z</time>
      </trkpt>
      <trkpt lat="49.62162" lon="5.48658">
        <ele>308</ele>
        <time>2022-02-27T10:01:45.000Z</time>
      </trkpt>
      <trkpt lat="49.62151" lon="5.48635">
        <ele>310.20001220703</ele>
        <time>2022-02-27T10:01:49.000Z</time>
      </trkpt>
      <trkpt lat="49.62146" lon="5.48622">
        <ele>311.20001220703</ele>
        <time>2022-02-27T10:01:51.000Z</time>
      </trkpt>
      <trkpt lat="49.62139" lon="5.48609">
        <ele>312.39999389648</ele>
        <time>2022-02-27T10:01:53.000Z</time>
      </trkpt>
      <trkpt lat="49.62135" lon="5.48603">
        <ele>313</ele>
        <time>2022-02-27T10:01:54.000Z</time>
      </trkpt>
      <trkpt lat="49.62129" lon="5.4859">
        <ele>314.20001220703</ele>
        <time>2022-02-27T10:01:56.000Z</time>
      </trkpt>
      <trkpt lat="49.62125" lon="5.48578">
        <ele>315.20001220703</ele>
        <time>2022-02-27T10:01:58.000Z</time>
      </trkpt>
      <trkpt lat="49.62123" lon="5.48571">
        <ele>315.60000610352</ele>
        <time>2022-02-27T10:01:59.000Z</time>
      </trkpt>
      <trkpt lat="49.62122" lon="5.48563">
        <ele>316.20001220703</ele>
        <time>2022-02-27T10:02:00.000Z</time>
      </trkpt>
      <trkpt lat="49.62121" lon="5.48546">
        <ele>316.79998779297</ele>
        <time>2022-02-27T10:02:02.000Z</time>
      </trkpt>
      <trkpt lat="49.6212" lon="5.48537">
        <ele>316.79998779297</ele>
        <time>2022-02-27T10:02:03.000Z</time>
      </trkpt>
      <trkpt lat="49.62119" lon="5.4852">
        <ele>317</ele>
        <time>2022-02-27T10:02:05.000Z</time>
      </trkpt>
      <trkpt lat="49.62117" lon="5.48488">
        <ele>317</ele>
        <time>2022-02-27T10:02:09.000Z</time>
      </trkpt>
      <trkpt lat="49.62117" lon="5.4848">
        <ele>317</ele>
        <time>2022-02-27T10:02:10.000Z</time>
      </trkpt>
      <trkpt lat="49.62117" lon="5.48472">
        <ele>317</ele>
        <time>2022-02-27T10:02:11.000Z</time>
      </trkpt>
      <trkpt lat="49.62116" lon="5.48441">
        <ele>317</ele>
        <time>2022-02-27T10:02:15.000Z</time>
      </trkpt>
      <trkpt lat="49.62115" lon="5.48427">
        <ele>317.20001220703</ele>
        <time>2022-02-27T10:02:17.000Z</time>
      </trkpt>
      <trkpt lat="49.62114" lon="5.48373">
        <ele>316.60000610352</ele>
        <time>2022-02-27T10:02:23.000Z</time>
      </trkpt>
      <trkpt lat="49.62114" lon="5.4835">
        <ele>315.20001220703</ele>
        <time>2022-02-27T10:02:25.000Z</time>
      </trkpt>
      <trkpt lat="49.62112" lon="5.48331">
        <ele>314.20001220703</ele>
        <time>2022-02-27T10:02:27.000Z</time>
      </trkpt>
      <trkpt lat="49.62109" lon="5.48323">
        <ele>313.79998779297</ele>
        <time>2022-02-27T10:02:28.000Z</time>
      </trkpt>
      <trkpt lat="49.621" lon="5.48312">
        <ele>313.60000610352</ele>
        <time>2022-02-27T10:02:30.000Z</time>
      </trkpt>
      <trkpt lat="49.62089" lon="5.48307">
        <ele>313.79998779297</ele>
        <time>2022-02-27T10:02:32.000Z</time>
      </trkpt>
      <trkpt lat="49.62084" lon="5.48304">
        <ele>314</ele>
        <time>2022-02-27T10:02:33.000Z</time>
      </trkpt>
      <trkpt lat="49.62073" lon="5.48297">
        <ele>314.20001220703</ele>
        <time>2022-02-27T10:02:35.000Z</time>
      </trkpt>
      <trkpt lat="49.62055" lon="5.48288">
        <ele>314.39999389648</ele>
        <time>2022-02-27T10:02:38.000Z</time>
      </trkpt>
      <trkpt lat="49.62049" lon="5.48285">
        <ele>314.60000610352</ele>
        <time>2022-02-27T10:02:39.000Z</time>
      </trkpt>
      <trkpt lat="49.6202" lon="5.48267">
        <ele>315.20001220703</ele>
        <time>2022-02-27T10:02:44.000Z</time>
      </trkpt>
      <trkpt lat="49.62015" lon="5.48262">
        <ele>315.20001220703</ele>
        <time>2022-02-27T10:02:45.000Z</time>
      </trkpt>
      <trkpt lat="49.62005" lon="5.48252">
        <ele>315.20001220703</ele>
        <time>2022-02-27T10:02:47.000Z</time>
      </trkpt>
      <trkpt lat="49.61994" lon="5.48241">
        <ele>315.20001220703</ele>
        <time>2022-02-27T10:02:49.000Z</time>
      </trkpt>
      <trkpt lat="49.61964" lon="5.4821">
        <ele>314.79998779297</ele>
        <time>2022-02-27T10:02:55.000Z</time>
      </trkpt>
      <trkpt lat="49.61945" lon="5.48189">
        <ele>313.20001220703</ele>
        <time>2022-02-27T10:02:59.000Z</time>
      </trkpt>
      <trkpt lat="49.61938" lon="5.48184">
        <ele>312.60000610352</ele>
        <time>2022-02-27T10:03:01.000Z</time>
      </trkpt>
      <trkpt lat="49.61913" lon="5.4817">
        <ele>310.60000610352</ele>
        <time>2022-02-27T10:03:07.000Z</time>
      </trkpt>
      <trkpt lat="49.6189" lon="5.48166">
        <ele>309.60000610352</ele>
        <time>2022-02-27T10:03:13.000Z</time>
      </trkpt>
      <trkpt lat="49.61871" lon="5.4817">
        <ele>309.20001220703</ele>
        <time>2022-02-27T10:03:17.000Z</time>
      </trkpt>
      <trkpt lat="49.61866" lon="5.48171">
        <ele>309</ele>
        <time>2022-02-27T10:03:18.000Z</time>
      </trkpt>
      <trkpt lat="49.61856" lon="5.48177">
        <ele>309</ele>
        <time>2022-02-27T10:03:20.000Z</time>
      </trkpt>
      <trkpt lat="49.6184" lon="5.4819">
        <ele>308.79998779297</ele>
        <time>2022-02-27T10:03:23.000Z</time>
      </trkpt>
      <trkpt lat="49.61828" lon="5.48198">
        <ele>308</ele>
        <time>2022-02-27T10:03:25.000Z</time>
      </trkpt>
      <trkpt lat="49.61812" lon="5.4821">
        <ele>306.60000610352</ele>
        <time>2022-02-27T10:03:28.000Z</time>
      </trkpt>
      <trkpt lat="49.61792" lon="5.48217">
        <ele>304.79998779297</ele>
        <time>2022-02-27T10:03:31.000Z</time>
      </trkpt>
      <trkpt lat="49.61778" lon="5.48219">
        <ele>303.60000610352</ele>
        <time>2022-02-27T10:03:33.000Z</time>
      </trkpt>
      <trkpt lat="49.61771" lon="5.4822">
        <ele>302.79998779297</ele>
        <time>2022-02-27T10:03:34.000Z</time>
      </trkpt>
      <trkpt lat="49.61756" lon="5.48215">
        <ele>301.20001220703</ele>
        <time>2022-02-27T10:03:36.000Z</time>
      </trkpt>
      <trkpt lat="49.61749" lon="5.48213">
        <ele>300.60000610352</ele>
        <time>2022-02-27T10:03:37.000Z</time>
      </trkpt>
      <trkpt lat="49.6172" lon="5.48206">
        <ele>298</ele>
        <time>2022-02-27T10:03:41.000Z</time>
      </trkpt>
      <trkpt lat="49.61714" lon="5.48205">
        <ele>297.39999389648</ele>
        <time>2022-02-27T10:03:42.000Z</time>
      </trkpt>
      <trkpt lat="49.61674" lon="5.48207">
        <ele>293.79998779297</ele>
        <time>2022-02-27T10:03:48.000Z</time>
      </trkpt>
      <trkpt lat="49.61654" lon="5.48209">
        <ele>291.39999389648</ele>
        <time>2022-02-27T10:03:51.000Z</time>
      </trkpt>
      <trkpt lat="49.61633" lon="5.48208">
        <ele>289.39999389648</ele>
        <time>2022-02-27T10:03:54.000Z</time>
      </trkpt>
      <trkpt lat="49.61626" lon="5.48206">
        <ele>288.60000610352</ele>
        <time>2022-02-27T10:03:55.000Z</time>
      </trkpt>
      <trkpt lat="49.61618" lon="5.48203">
        <ele>288</ele>
        <time>2022-02-27T10:03:56.000Z</time>
      </trkpt>
      <trkpt lat="49.61603" lon="5.48197">
        <ele>287.39999389648</ele>
        <time>2022-02-27T10:03:58.000Z</time>
      </trkpt>
      <trkpt lat="49.61596" lon="5.48193">
        <ele>287</ele>
        <time>2022-02-27T10:03:59.000Z</time>
      </trkpt>
      <trkpt lat="49.6159" lon="5.48188">
        <ele>287</ele>
        <time>2022-02-27T10:04:00.000Z</time>
      </trkpt>
      <trkpt lat="49.6158" lon="5.48176">
        <ele>287.20001220703</ele>
        <time>2022-02-27T10:04:02.000Z</time>
      </trkpt>
      <trkpt lat="49.61576" lon="5.4817">
        <ele>287.39999389648</ele>
        <time>2022-02-27T10:04:03.000Z</time>
      </trkpt>
      <trkpt lat="49.6157" lon="5.48159">
        <ele>287.79998779297</ele>
        <time>2022-02-27T10:04:05.000Z</time>
      </trkpt>
      <trkpt lat="49.61567" lon="5.48154">
        <ele>288</ele>
        <time>2022-02-27T10:04:06.000Z</time>
      </trkpt>
      <trkpt lat="49.61563" lon="5.48148">
        <ele>288</ele>
        <time>2022-02-27T10:04:07.000Z</time>
      </trkpt>
      <trkpt lat="49.61558" lon="5.48143">
        <ele>288</ele>
        <time>2022-02-27T10:04:08.000Z</time>
      </trkpt>
      <trkpt lat="49.61545" lon="5.48128">
        <ele>287.79998779297</ele>
        <time>2022-02-27T10:04:11.000Z</time>
      </trkpt>
      <trkpt lat="49.61535" lon="5.48117">
        <ele>287.20001220703</ele>
        <time>2022-02-27T10:04:13.000Z</time>
      </trkpt>
      <trkpt lat="49.61527" lon="5.48107">
        <ele>287.20001220703</ele>
        <time>2022-02-27T10:04:15.000Z</time>
      </trkpt>
      <trkpt lat="49.61522" lon="5.48103">
        <ele>287.20001220703</ele>
        <time>2022-02-27T10:04:16.000Z</time>
      </trkpt>
      <trkpt lat="49.61507" lon="5.48093">
        <ele>287.20001220703</ele>
        <time>2022-02-27T10:04:19.000Z</time>
      </trkpt>
      <trkpt lat="49.6149" lon="5.48078">
        <ele>287.20001220703</ele>
        <time>2022-02-27T10:04:22.000Z</time>
      </trkpt>
      <trkpt lat="49.6148" lon="5.48071">
        <ele>287</ele>
        <time>2022-02-27T10:04:24.000Z</time>
      </trkpt>
      <trkpt lat="49.61475" lon="5.48068">
        <ele>287</ele>
        <time>2022-02-27T10:04:25.000Z</time>
      </trkpt>
      <trkpt lat="49.61469" lon="5.48066">
        <ele>287</ele>
        <time>2022-02-27T10:04:26.000Z</time>
      </trkpt>
      <trkpt lat="49.61459" lon="5.48061">
        <ele>286.79998779297</ele>
        <time>2022-02-27T10:04:28.000Z</time>
      </trkpt>
      <trkpt lat="49.61454" lon="5.48058">
        <ele>286.79998779297</ele>
        <time>2022-02-27T10:04:29.000Z</time>
      </trkpt>
      <trkpt lat="49.61445" lon="5.48052">
        <ele>286.39999389648</ele>
        <time>2022-02-27T10:04:31.000Z</time>
      </trkpt>
      <trkpt lat="49.6144" lon="5.48049">
        <ele>286.20001220703</ele>
        <time>2022-02-27T10:04:32.000Z</time>
      </trkpt>
      <trkpt lat="49.61427" lon="5.48038">
        <ele>285</ele>
        <time>2022-02-27T10:04:35.000Z</time>
      </trkpt>
      <trkpt lat="49.61415" lon="5.48029">
        <ele>284</ele>
        <time>2022-02-27T10:04:38.000Z</time>
      </trkpt>
      <trkpt lat="49.61407" lon="5.48024">
        <ele>283.39999389648</ele>
        <time>2022-02-27T10:04:40.000Z</time>
      </trkpt>
      <trkpt lat="49.61388" lon="5.48016">
        <ele>282</ele>
        <time>2022-02-27T10:04:44.000Z</time>
      </trkpt>
      <trkpt lat="49.6137" lon="5.48008">
        <ele>280.60000610352</ele>
        <time>2022-02-27T10:04:48.000Z</time>
      </trkpt>
      <trkpt lat="49.61366" lon="5.48007">
        <ele>280.20001220703</ele>
        <time>2022-02-27T10:04:49.000Z</time>
      </trkpt>
      <trkpt lat="49.61345" lon="5.47994">
        <ele>278</ele>
        <time>2022-02-27T10:04:54.000Z</time>
      </trkpt>
      <trkpt lat="49.61333" lon="5.47989">
        <ele>276.79998779297</ele>
        <time>2022-02-27T10:04:57.000Z</time>
      </trkpt>
      <trkpt lat="49.61321" lon="5.47983">
        <ele>275.60000610352</ele>
        <time>2022-02-27T10:05:00.000Z</time>
      </trkpt>
      <trkpt lat="49.61316" lon="5.47979">
        <ele>275</ele>
        <time>2022-02-27T10:05:01.000Z</time>
      </trkpt>
      <trkpt lat="49.61306" lon="5.47973">
        <ele>274</ele>
        <time>2022-02-27T10:05:03.000Z</time>
      </trkpt>
      <trkpt lat="49.61291" lon="5.47964">
        <ele>272.20001220703</ele>
        <time>2022-02-27T10:05:06.000Z</time>
      </trkpt>
      <trkpt lat="49.6128" lon="5.4796">
        <ele>270.60000610352</ele>
        <time>2022-02-27T10:05:08.000Z</time>
      </trkpt>
      <trkpt lat="49.61274" lon="5.47958">
        <ele>269.79998779297</ele>
        <time>2022-02-27T10:05:09.000Z</time>
      </trkpt>
      <trkpt lat="49.61263" lon="5.47958">
        <ele>268.60000610352</ele>
        <time>2022-02-27T10:05:11.000Z</time>
      </trkpt>
      <trkpt lat="49.61258" lon="5.47959">
        <ele>268.20001220703</ele>
        <time>2022-02-27T10:05:12.000Z</time>
      </trkpt>
      <trkpt lat="49.61253" lon="5.4796">
        <ele>267.79998779297</ele>
        <time>2022-02-27T10:05:13.000Z</time>
      </trkpt>
      <trkpt lat="49.61249" lon="5.47963">
        <ele>267.60000610352</ele>
        <time>2022-02-27T10:05:14.000Z</time>
      </trkpt>
      <trkpt lat="49.61244" lon="5.47965">
        <ele>267.39999389648</ele>
        <time>2022-02-27T10:05:15.000Z</time>
      </trkpt>
      <trkpt lat="49.6123" lon="5.47972">
        <ele>266.39999389648</ele>
        <time>2022-02-27T10:05:18.000Z</time>
      </trkpt>
      <trkpt lat="49.61219" lon="5.47972">
        <ele>265</ele>
        <time>2022-02-27T10:05:20.000Z</time>
      </trkpt>
      <trkpt lat="49.61212" lon="5.47972">
        <ele>264.39999389648</ele>
        <time>2022-02-27T10:05:21.000Z</time>
      </trkpt>
      <trkpt lat="49.61199" lon="5.47972">
        <ele>263.20001220703</ele>
        <time>2022-02-27T10:05:23.000Z</time>
      </trkpt>
      <trkpt lat="49.61192" lon="5.47973">
        <ele>262</ele>
        <time>2022-02-27T10:05:24.000Z</time>
      </trkpt>
      <trkpt lat="49.61185" lon="5.47974">
        <ele>260.79998779297</ele>
        <time>2022-02-27T10:05:25.000Z</time>
      </trkpt>
      <trkpt lat="49.61169" lon="5.47975">
        <ele>258.39999389648</ele>
        <time>2022-02-27T10:05:27.000Z</time>
      </trkpt>
      <trkpt lat="49.61154" lon="5.47977">
        <ele>256</ele>
        <time>2022-02-27T10:05:29.000Z</time>
      </trkpt>
      <trkpt lat="49.61146" lon="5.4798">
        <ele>254.80000305176</ele>
        <time>2022-02-27T10:05:30.000Z</time>
      </trkpt>
      <trkpt lat="49.61137" lon="5.47983">
        <ele>253.80000305176</ele>
        <time>2022-02-27T10:05:31.000Z</time>
      </trkpt>
      <trkpt lat="49.61129" lon="5.47987">
        <ele>253</ele>
        <time>2022-02-27T10:05:32.000Z</time>
      </trkpt>
      <trkpt lat="49.61113" lon="5.47998">
        <ele>252.60000610352</ele>
        <time>2022-02-27T10:05:34.000Z</time>
      </trkpt>
      <trkpt lat="49.61096" lon="5.48012">
        <ele>253.39999389648</ele>
        <time>2022-02-27T10:05:36.000Z</time>
      </trkpt>
      <trkpt lat="49.61078" lon="5.48026">
        <ele>252.39999389648</ele>
        <time>2022-02-27T10:05:38.000Z</time>
      </trkpt>
      <trkpt lat="49.61069" lon="5.48033">
        <ele>251</ele>
        <time>2022-02-27T10:05:39.000Z</time>
      </trkpt>
      <trkpt lat="49.6106" lon="5.4804">
        <ele>249.80000305176</ele>
        <time>2022-02-27T10:05:40.000Z</time>
      </trkpt>
      <trkpt lat="49.61051" lon="5.48047">
        <ele>248.39999389648</ele>
        <time>2022-02-27T10:05:41.000Z</time>
      </trkpt>
      <trkpt lat="49.61042" lon="5.48054">
        <ele>247.39999389648</ele>
        <time>2022-02-27T10:05:42.000Z</time>
      </trkpt>
      <trkpt lat="49.61035" lon="5.48058">
        <ele>246.60000610352</ele>
        <time>2022-02-27T10:05:43.000Z</time>
      </trkpt>
      <trkpt lat="49.61026" lon="5.48062">
        <ele>246.39999389648</ele>
        <time>2022-02-27T10:05:44.000Z</time>
      </trkpt>
      <trkpt lat="49.61018" lon="5.48061">
        <ele>246</ele>
        <time>2022-02-27T10:05:45.000Z</time>
      </trkpt>
      <trkpt lat="49.6101" lon="5.48062">
        <ele>245.60000610352</ele>
        <time>2022-02-27T10:05:46.000Z</time>
      </trkpt>
      <trkpt lat="49.61003" lon="5.48062">
        <ele>245.39999389648</ele>
        <time>2022-02-27T10:05:47.000Z</time>
      </trkpt>
      <trkpt lat="49.60984" lon="5.48059">
        <ele>244.19999694824</ele>
        <time>2022-02-27T10:05:50.000Z</time>
      </trkpt>
      <trkpt lat="49.60972" lon="5.48063">
        <ele>244</ele>
        <time>2022-02-27T10:05:52.000Z</time>
      </trkpt>
      <trkpt lat="49.60957" lon="5.48072">
        <ele>242</ele>
        <time>2022-02-27T10:05:55.000Z</time>
      </trkpt>
      <trkpt lat="49.60947" lon="5.48078">
        <ele>241</ele>
        <time>2022-02-27T10:05:57.000Z</time>
      </trkpt>
      <trkpt lat="49.60943" lon="5.48082">
        <ele>241</ele>
        <time>2022-02-27T10:05:58.000Z</time>
      </trkpt>
      <trkpt lat="49.60908" lon="5.48105">
        <ele>240</ele>
        <time>2022-02-27T10:06:05.000Z</time>
      </trkpt>
      <trkpt lat="49.60867" lon="5.48132">
        <ele>235.19999694824</ele>
        <time>2022-02-27T10:06:13.000Z</time>
      </trkpt>
      <trkpt lat="49.60861" lon="5.48135">
        <ele>235</ele>
        <time>2022-02-27T10:06:14.000Z</time>
      </trkpt>
      <trkpt lat="49.60837" lon="5.48141">
        <ele>235</ele>
        <time>2022-02-27T10:06:18.000Z</time>
      </trkpt>
      <trkpt lat="49.60792" lon="5.48151">
        <ele>235</ele>
        <time>2022-02-27T10:06:26.000Z</time>
      </trkpt>
      <trkpt lat="49.60759" lon="5.48159">
        <ele>237</ele>
        <time>2022-02-27T10:06:32.000Z</time>
      </trkpt>
      <trkpt lat="49.60747" lon="5.48163">
        <ele>237.80000305176</ele>
        <time>2022-02-27T10:06:34.000Z</time>
      </trkpt>
      <trkpt lat="49.60696" lon="5.48188">
        <ele>237.80000305176</ele>
        <time>2022-02-27T10:06:43.000Z</time>
      </trkpt>
      <trkpt lat="49.60657" lon="5.48218">
        <ele>237.19999694824</ele>
        <time>2022-02-27T10:06:50.000Z</time>
      </trkpt>
      <trkpt lat="49.60628" lon="5.48248">
        <ele>236.80000305176</ele>
        <time>2022-02-27T10:06:56.000Z</time>
      </trkpt>
      <trkpt lat="49.60624" lon="5.48254">
        <ele>236.39999389648</ele>
        <time>2022-02-27T10:06:57.000Z</time>
      </trkpt>
      <trkpt lat="49.60607" lon="5.48281">
        <ele>233.80000305176</ele>
        <time>2022-02-27T10:07:01.000Z</time>
      </trkpt>
      <trkpt lat="49.6058" lon="5.48322">
        <ele>231.80000305176</ele>
        <time>2022-02-27T10:07:07.000Z</time>
      </trkpt>
      <trkpt lat="49.60575" lon="5.48329">
        <ele>231.60000610352</ele>
        <time>2022-02-27T10:07:08.000Z</time>
      </trkpt>
      <trkpt lat="49.6057" lon="5.48336">
        <ele>231.60000610352</ele>
        <time>2022-02-27T10:07:09.000Z</time>
      </trkpt>
      <trkpt lat="49.60558" lon="5.48347">
        <ele>231.19999694824</ele>
        <time>2022-02-27T10:07:11.000Z</time>
      </trkpt>
      <trkpt lat="49.60551" lon="5.48351">
        <ele>231</ele>
        <time>2022-02-27T10:07:12.000Z</time>
      </trkpt>
      <trkpt lat="49.60545" lon="5.48353">
        <ele>230.80000305176</ele>
        <time>2022-02-27T10:07:13.000Z</time>
      </trkpt>
      <trkpt lat="49.6052" lon="5.48354">
        <ele>230</ele>
        <time>2022-02-27T10:07:17.000Z</time>
      </trkpt>
      <trkpt lat="49.60514" lon="5.48353">
        <ele>229.80000305176</ele>
        <time>2022-02-27T10:07:18.000Z</time>
      </trkpt>
      <trkpt lat="49.60476" lon="5.48339">
        <ele>228.39999389648</ele>
        <time>2022-02-27T10:07:24.000Z</time>
      </trkpt>
      <trkpt lat="49.60471" lon="5.48335">
        <ele>228.19999694824</ele>
        <time>2022-02-27T10:07:25.000Z</time>
      </trkpt>
      <trkpt lat="49.6044" lon="5.48304">
        <ele>227.60000610352</ele>
        <time>2022-02-27T10:07:31.000Z</time>
      </trkpt>
      <trkpt lat="49.60413" lon="5.48268">
        <ele>227.80000305176</ele>
        <time>2022-02-27T10:07:37.000Z</time>
      </trkpt>
      <trkpt lat="49.60409" lon="5.48262">
        <ele>227.80000305176</ele>
        <time>2022-02-27T10:07:38.000Z</time>
      </trkpt>
      <trkpt lat="49.60377" lon="5.48214">
        <ele>228.19999694824</ele>
        <time>2022-02-27T10:07:46.000Z</time>
      </trkpt>
      <trkpt lat="49.60371" lon="5.48201">
        <ele>228</ele>
        <time>2022-02-27T10:07:48.000Z</time>
      </trkpt>
      <trkpt lat="49.60364" lon="5.48192">
        <ele>228</ele>
        <time>2022-02-27T10:07:50.000Z</time>
      </trkpt>
      <trkpt lat="49.60353" lon="5.48193">
        <ele>228</ele>
        <time>2022-02-27T10:07:53.000Z</time>
      </trkpt>
      <trkpt lat="49.6035" lon="5.48196">
        <ele>228</ele>
        <time>2022-02-27T10:07:54.000Z</time>
      </trkpt>
      <trkpt lat="49.60349" lon="5.48204">
        <ele>228</ele>
        <time>2022-02-27T10:07:56.000Z</time>
      </trkpt>
      <trkpt lat="49.60355" lon="5.48207">
        <ele>228</ele>
        <time>2022-02-27T10:07:59.000Z</time>
      </trkpt>
      <trkpt lat="49.60358" lon="5.48204">
        <ele>228</ele>
        <time>2022-02-27T10:08:01.000Z</time>
      </trkpt>
    </trkseg>
  </trk>
</gpx>